<?xml version="1.0" encoding="UTF-8" standalone="no" ?>
<gpx xmlns="http://www.topografix.com/GPX/1/1" xmlns:xsi="http://www.w3.org/2001/XMLSchema-instance" xsi:schemaLocation="http://www.topografix.com/GPX/1/1 http://www.topografix.com/GPX/1/1/gpx.xsd" version="1.1" creator="VisuGPX - https://www.visugpx.com">
  <metadata>
    <name>Larche-Fouillouse</name>
    <desc><![CDATA[Traversée Larche à Fouillouse par les cols de la Portiolette et Vallonnet, avec les randonneurs de l'ASVF Villefontaine, CAF Lyon, CAF La Mure, ASVEL Ski Montagne]]></desc>
  </metadata>
  <trk>
    <name><![CDATA[Larche-Fouillouse]]></name>
    <trkseg>
      <trkpt lat="44.45023" lon="6.84697">
        <ele>1769.974</ele>
        <time>2017-03-12T06:46:07Z</time>
      </trkpt>
      <trkpt lat="44.45029" lon="6.84697">
        <ele>1761.687</ele>
        <time>2017-03-12T06:49:30Z</time>
      </trkpt>
      <trkpt lat="44.45031" lon="6.84691">
        <ele>1762.599</ele>
        <time>2017-03-12T06:49:34Z</time>
      </trkpt>
      <trkpt lat="44.45037" lon="6.84694">
        <ele>1763.145</ele>
        <time>2017-03-12T06:49:40Z</time>
      </trkpt>
      <trkpt lat="44.45051" lon="6.84704">
        <ele>1763.672</ele>
        <time>2017-03-12T06:49:53Z</time>
      </trkpt>
      <trkpt lat="44.45056" lon="6.84703">
        <ele>1764.112</ele>
        <time>2017-03-12T06:50:05Z</time>
      </trkpt>
      <trkpt lat="44.45061" lon="6.84704">
        <ele>1759.002</ele>
        <time>2017-03-12T06:52:34Z</time>
      </trkpt>
      <trkpt lat="44.45068" lon="6.84695">
        <ele>1758.875</ele>
        <time>2017-03-12T06:52:42Z</time>
      </trkpt>
      <trkpt lat="44.45074" lon="6.84683">
        <ele>1758.051</ele>
        <time>2017-03-12T06:52:53Z</time>
      </trkpt>
      <trkpt lat="44.45077" lon="6.84677">
        <ele>1757.578</ele>
        <time>2017-03-12T06:52:59Z</time>
      </trkpt>
      <trkpt lat="44.45086" lon="6.84665">
        <ele>1756.706</ele>
        <time>2017-03-12T06:53:13Z</time>
      </trkpt>
      <trkpt lat="44.45092" lon="6.84657">
        <ele>1755.674</ele>
        <time>2017-03-12T06:53:23Z</time>
      </trkpt>
      <trkpt lat="44.45098" lon="6.8466">
        <ele>1755.655</ele>
        <time>2017-03-12T06:53:28Z</time>
      </trkpt>
      <trkpt lat="44.451" lon="6.84662">
        <ele>1755.661</ele>
        <time>2017-03-12T06:53:30Z</time>
      </trkpt>
      <trkpt lat="44.45112" lon="6.84679">
        <ele>1756.088</ele>
        <time>2017-03-12T06:53:45Z</time>
      </trkpt>
      <trkpt lat="44.45123" lon="6.84695">
        <ele>1756.064</ele>
        <time>2017-03-12T06:53:59Z</time>
      </trkpt>
      <trkpt lat="44.45133" lon="6.84705">
        <ele>1756.442</ele>
        <time>2017-03-12T06:54:10Z</time>
      </trkpt>
      <trkpt lat="44.4514" lon="6.84715">
        <ele>1756.703</ele>
        <time>2017-03-12T06:54:20Z</time>
      </trkpt>
      <trkpt lat="44.45147" lon="6.84726">
        <ele>1756.915</ele>
        <time>2017-03-12T06:54:31Z</time>
      </trkpt>
      <trkpt lat="44.45155" lon="6.84738">
        <ele>1756.911</ele>
        <time>2017-03-12T06:54:43Z</time>
      </trkpt>
      <trkpt lat="44.45164" lon="6.84749">
        <ele>1757.38</ele>
        <time>2017-03-12T06:54:57Z</time>
      </trkpt>
      <trkpt lat="44.45177" lon="6.84762">
        <ele>1757.881</ele>
        <time>2017-03-12T06:55:14Z</time>
      </trkpt>
      <trkpt lat="44.45187" lon="6.84767">
        <ele>1758.25</ele>
        <time>2017-03-12T06:55:26Z</time>
      </trkpt>
      <trkpt lat="44.45195" lon="6.84775">
        <ele>1758.597</ele>
        <time>2017-03-12T06:55:35Z</time>
      </trkpt>
      <trkpt lat="44.45203" lon="6.84784">
        <ele>1759.094</ele>
        <time>2017-03-12T06:55:48Z</time>
      </trkpt>
      <trkpt lat="44.4521" lon="6.84792">
        <ele>1759.796</ele>
        <time>2017-03-12T06:56:00Z</time>
      </trkpt>
      <trkpt lat="44.45219" lon="6.84803">
        <ele>1760.972</ele>
        <time>2017-03-12T06:56:17Z</time>
      </trkpt>
      <trkpt lat="44.45227" lon="6.84811">
        <ele>1761.22</ele>
        <time>2017-03-12T06:56:31Z</time>
      </trkpt>
      <trkpt lat="44.45235" lon="6.84821">
        <ele>1762.324</ele>
        <time>2017-03-12T06:56:46Z</time>
      </trkpt>
      <trkpt lat="44.45239" lon="6.84829">
        <ele>1762.756</ele>
        <time>2017-03-12T06:57:00Z</time>
      </trkpt>
      <trkpt lat="44.45245" lon="6.84839">
        <ele>1762.836</ele>
        <time>2017-03-12T06:57:14Z</time>
      </trkpt>
      <trkpt lat="44.45249" lon="6.84849">
        <ele>1763.24</ele>
        <time>2017-03-12T06:57:26Z</time>
      </trkpt>
      <trkpt lat="44.45253" lon="6.8486">
        <ele>1763.655</ele>
        <time>2017-03-12T06:57:38Z</time>
      </trkpt>
      <trkpt lat="44.4526" lon="6.84867">
        <ele>1764.559</ele>
        <time>2017-03-12T06:57:51Z</time>
      </trkpt>
      <trkpt lat="44.45264" lon="6.84877">
        <ele>1764.867</ele>
        <time>2017-03-12T06:58:02Z</time>
      </trkpt>
      <trkpt lat="44.45268" lon="6.84887">
        <ele>1765.749</ele>
        <time>2017-03-12T06:58:13Z</time>
      </trkpt>
      <trkpt lat="44.45271" lon="6.84899">
        <ele>1766.407</ele>
        <time>2017-03-12T06:58:26Z</time>
      </trkpt>
      <trkpt lat="44.45272" lon="6.84909">
        <ele>1766.473</ele>
        <time>2017-03-12T06:58:35Z</time>
      </trkpt>
      <trkpt lat="44.45275" lon="6.84919">
        <ele>1767.122</ele>
        <time>2017-03-12T06:58:45Z</time>
      </trkpt>
      <trkpt lat="44.4528" lon="6.8493">
        <ele>1767.875</ele>
        <time>2017-03-12T06:58:59Z</time>
      </trkpt>
      <trkpt lat="44.45286" lon="6.84941">
        <ele>1768.744</ele>
        <time>2017-03-12T06:59:14Z</time>
      </trkpt>
      <trkpt lat="44.45291" lon="6.84954">
        <ele>1769.771</ele>
        <time>2017-03-12T06:59:30Z</time>
      </trkpt>
      <trkpt lat="44.45293" lon="6.84965">
        <ele>1770.563</ele>
        <time>2017-03-12T06:59:42Z</time>
      </trkpt>
      <trkpt lat="44.45295" lon="6.84978">
        <ele>1771.428</ele>
        <time>2017-03-12T06:59:54Z</time>
      </trkpt>
      <trkpt lat="44.45293" lon="6.84993">
        <ele>1771.795</ele>
        <time>2017-03-12T07:00:08Z</time>
      </trkpt>
      <trkpt lat="44.45293" lon="6.85006">
        <ele>1772.162</ele>
        <time>2017-03-12T07:00:19Z</time>
      </trkpt>
      <trkpt lat="44.45293" lon="6.85009">
        <ele>1772.088</ele>
        <time>2017-03-12T07:00:21Z</time>
      </trkpt>
      <trkpt lat="44.45297" lon="6.85024">
        <ele>1772.362</ele>
        <time>2017-03-12T07:00:34Z</time>
      </trkpt>
      <trkpt lat="44.45303" lon="6.8504">
        <ele>1772.612</ele>
        <time>2017-03-12T07:00:48Z</time>
      </trkpt>
      <trkpt lat="44.4531" lon="6.85051">
        <ele>1772.856</ele>
        <time>2017-03-12T07:00:59Z</time>
      </trkpt>
      <trkpt lat="44.45318" lon="6.85064">
        <ele>1773.223</ele>
        <time>2017-03-12T07:01:14Z</time>
      </trkpt>
      <trkpt lat="44.45328" lon="6.85081">
        <ele>1773.686</ele>
        <time>2017-03-12T07:01:31Z</time>
      </trkpt>
      <trkpt lat="44.45334" lon="6.85087">
        <ele>1773.855</ele>
        <time>2017-03-12T07:01:41Z</time>
      </trkpt>
      <trkpt lat="44.45336" lon="6.85088">
        <ele>1773.768</ele>
        <time>2017-03-12T07:01:52Z</time>
      </trkpt>
      <trkpt lat="44.45339" lon="6.85094">
        <ele>1773.321</ele>
        <time>2017-03-12T07:02:16Z</time>
      </trkpt>
      <trkpt lat="44.45348" lon="6.85104">
        <ele>1774.114</ele>
        <time>2017-03-12T07:02:27Z</time>
      </trkpt>
      <trkpt lat="44.45357" lon="6.85107">
        <ele>1775.265</ele>
        <time>2017-03-12T07:02:38Z</time>
      </trkpt>
      <trkpt lat="44.45359" lon="6.85108">
        <ele>1775.371</ele>
        <time>2017-03-12T07:02:40Z</time>
      </trkpt>
      <trkpt lat="44.45369" lon="6.85112">
        <ele>1776.152</ele>
        <time>2017-03-12T07:02:52Z</time>
      </trkpt>
      <trkpt lat="44.45377" lon="6.85113">
        <ele>1777.053</ele>
        <time>2017-03-12T07:03:01Z</time>
      </trkpt>
      <trkpt lat="44.45384" lon="6.85114">
        <ele>1778.329</ele>
        <time>2017-03-12T07:03:09Z</time>
      </trkpt>
      <trkpt lat="44.45396" lon="6.8512">
        <ele>1779.463</ele>
        <time>2017-03-12T07:03:25Z</time>
      </trkpt>
      <trkpt lat="44.454" lon="6.85122">
        <ele>1780.556</ele>
        <time>2017-03-12T07:03:31Z</time>
      </trkpt>
      <trkpt lat="44.45408" lon="6.85125">
        <ele>1781.148</ele>
        <time>2017-03-12T07:03:41Z</time>
      </trkpt>
      <trkpt lat="44.45419" lon="6.85129">
        <ele>1781.73</ele>
        <time>2017-03-12T07:03:55Z</time>
      </trkpt>
      <trkpt lat="44.45432" lon="6.85134">
        <ele>1782.889</ele>
        <time>2017-03-12T07:04:12Z</time>
      </trkpt>
      <trkpt lat="44.45445" lon="6.8514">
        <ele>1784.36</ele>
        <time>2017-03-12T07:04:31Z</time>
      </trkpt>
      <trkpt lat="44.45456" lon="6.85148">
        <ele>1785.6</ele>
        <time>2017-03-12T07:04:47Z</time>
      </trkpt>
      <trkpt lat="44.45466" lon="6.85163">
        <ele>1787.047</ele>
        <time>2017-03-12T07:05:07Z</time>
      </trkpt>
      <trkpt lat="44.45474" lon="6.8518">
        <ele>1787.679</ele>
        <time>2017-03-12T07:05:24Z</time>
      </trkpt>
      <trkpt lat="44.45485" lon="6.85194">
        <ele>1788.55</ele>
        <time>2017-03-12T07:05:40Z</time>
      </trkpt>
      <trkpt lat="44.45491" lon="6.85201">
        <ele>1789.707</ele>
        <time>2017-03-12T07:05:54Z</time>
      </trkpt>
      <trkpt lat="44.45498" lon="6.85217">
        <ele>1790.919</ele>
        <time>2017-03-12T07:06:10Z</time>
      </trkpt>
      <trkpt lat="44.45505" lon="6.85234">
        <ele>1792.717</ele>
        <time>2017-03-12T07:06:27Z</time>
      </trkpt>
      <trkpt lat="44.45509" lon="6.85244">
        <ele>1793.64</ele>
        <time>2017-03-12T07:06:41Z</time>
      </trkpt>
      <trkpt lat="44.45515" lon="6.85255">
        <ele>1794.341</ele>
        <time>2017-03-12T07:06:54Z</time>
      </trkpt>
      <trkpt lat="44.45525" lon="6.85267">
        <ele>1795.532</ele>
        <time>2017-03-12T07:07:08Z</time>
      </trkpt>
      <trkpt lat="44.45534" lon="6.85276">
        <ele>1796.831</ele>
        <time>2017-03-12T07:07:21Z</time>
      </trkpt>
      <trkpt lat="44.45543" lon="6.85284">
        <ele>1797.145</ele>
        <time>2017-03-12T07:07:34Z</time>
      </trkpt>
      <trkpt lat="44.45555" lon="6.85293">
        <ele>1797.743</ele>
        <time>2017-03-12T07:07:51Z</time>
      </trkpt>
      <trkpt lat="44.45562" lon="6.85298">
        <ele>1798.229</ele>
        <time>2017-03-12T07:08:04Z</time>
      </trkpt>
      <trkpt lat="44.45567" lon="6.85297">
        <ele>1799.475</ele>
        <time>2017-03-12T07:08:15Z</time>
      </trkpt>
      <trkpt lat="44.4557" lon="6.85297">
        <ele>1800</ele>
        <time>2017-03-12T07:08:18Z</time>
      </trkpt>
      <trkpt lat="44.45573" lon="6.85298">
        <ele>1801.519</ele>
        <time>2017-03-12T07:08:26Z</time>
      </trkpt>
      <trkpt lat="44.45577" lon="6.85299">
        <ele>1801.643</ele>
        <time>2017-03-12T07:08:34Z</time>
      </trkpt>
      <trkpt lat="44.45582" lon="6.85298">
        <ele>1802.559</ele>
        <time>2017-03-12T07:08:40Z</time>
      </trkpt>
      <trkpt lat="44.45586" lon="6.85299">
        <ele>1804</ele>
        <time>2017-03-12T07:08:48Z</time>
      </trkpt>
      <trkpt lat="44.45591" lon="6.85299">
        <ele>1805.517</ele>
        <time>2017-03-12T07:08:58Z</time>
      </trkpt>
      <trkpt lat="44.45593" lon="6.853">
        <ele>1806.522</ele>
        <time>2017-03-12T07:09:06Z</time>
      </trkpt>
      <trkpt lat="44.45595" lon="6.85307">
        <ele>1808.831</ele>
        <time>2017-03-12T07:09:20Z</time>
      </trkpt>
      <trkpt lat="44.45597" lon="6.85311">
        <ele>1810.109</ele>
        <time>2017-03-12T07:09:28Z</time>
      </trkpt>
      <trkpt lat="44.456" lon="6.85313">
        <ele>1807.733</ele>
        <time>2017-03-12T07:11:32Z</time>
      </trkpt>
      <trkpt lat="44.45605" lon="6.85314">
        <ele>1808.23</ele>
        <time>2017-03-12T07:12:08Z</time>
      </trkpt>
      <trkpt lat="44.45607" lon="6.85317">
        <ele>1808.684</ele>
        <time>2017-03-12T07:12:15Z</time>
      </trkpt>
      <trkpt lat="44.45612" lon="6.85318">
        <ele>1810.138</ele>
        <time>2017-03-12T07:12:25Z</time>
      </trkpt>
      <trkpt lat="44.45625" lon="6.8532">
        <ele>1812.225</ele>
        <time>2017-03-12T07:12:44Z</time>
      </trkpt>
      <trkpt lat="44.45635" lon="6.85317">
        <ele>1814.831</ele>
        <time>2017-03-12T07:13:01Z</time>
      </trkpt>
      <trkpt lat="44.45636" lon="6.8531">
        <ele>1816.002</ele>
        <time>2017-03-12T07:13:09Z</time>
      </trkpt>
      <trkpt lat="44.45642" lon="6.85312">
        <ele>1817.423</ele>
        <time>2017-03-12T07:13:19Z</time>
      </trkpt>
      <trkpt lat="44.45649" lon="6.85316">
        <ele>1818.938</ele>
        <time>2017-03-12T07:13:34Z</time>
      </trkpt>
      <trkpt lat="44.45655" lon="6.85319">
        <ele>1820.261</ele>
        <time>2017-03-12T07:13:46Z</time>
      </trkpt>
      <trkpt lat="44.45659" lon="6.85323">
        <ele>1821.229</ele>
        <time>2017-03-12T07:13:53Z</time>
      </trkpt>
      <trkpt lat="44.45664" lon="6.85326">
        <ele>1822.825</ele>
        <time>2017-03-12T07:14:03Z</time>
      </trkpt>
      <trkpt lat="44.4567" lon="6.85334">
        <ele>1824.149</ele>
        <time>2017-03-12T07:14:16Z</time>
      </trkpt>
      <trkpt lat="44.45674" lon="6.85346">
        <ele>1826.437</ele>
        <time>2017-03-12T07:14:32Z</time>
      </trkpt>
      <trkpt lat="44.45679" lon="6.8535">
        <ele>1827.658</ele>
        <time>2017-03-12T07:14:44Z</time>
      </trkpt>
      <trkpt lat="44.45685" lon="6.85354">
        <ele>1829.283</ele>
        <time>2017-03-12T07:14:55Z</time>
      </trkpt>
      <trkpt lat="44.45694" lon="6.8536">
        <ele>1830.792</ele>
        <time>2017-03-12T07:15:11Z</time>
      </trkpt>
      <trkpt lat="44.45699" lon="6.85371">
        <ele>1832.041</ele>
        <time>2017-03-12T07:15:25Z</time>
      </trkpt>
      <trkpt lat="44.45703" lon="6.85378">
        <ele>1833.929</ele>
        <time>2017-03-12T07:15:38Z</time>
      </trkpt>
      <trkpt lat="44.45705" lon="6.85373">
        <ele>1834.745</ele>
        <time>2017-03-12T07:15:46Z</time>
      </trkpt>
      <trkpt lat="44.45706" lon="6.85362">
        <ele>1835.831</ele>
        <time>2017-03-12T07:15:58Z</time>
      </trkpt>
      <trkpt lat="44.45709" lon="6.85366">
        <ele>1837.03</ele>
        <time>2017-03-12T07:16:07Z</time>
      </trkpt>
      <trkpt lat="44.45715" lon="6.85367">
        <ele>1839.025</ele>
        <time>2017-03-12T07:16:18Z</time>
      </trkpt>
      <trkpt lat="44.45723" lon="6.85365">
        <ele>1840.467</ele>
        <time>2017-03-12T07:16:33Z</time>
      </trkpt>
      <trkpt lat="44.45728" lon="6.85361">
        <ele>1842.23</ele>
        <time>2017-03-12T07:16:48Z</time>
      </trkpt>
      <trkpt lat="44.45726" lon="6.85357">
        <ele>1843.765</ele>
        <time>2017-03-12T07:17:00Z</time>
      </trkpt>
      <trkpt lat="44.45729" lon="6.85354">
        <ele>1844.45</ele>
        <time>2017-03-12T07:17:08Z</time>
      </trkpt>
      <trkpt lat="44.45726" lon="6.85349">
        <ele>1845.474</ele>
        <time>2017-03-12T07:17:19Z</time>
      </trkpt>
      <trkpt lat="44.45725" lon="6.85343">
        <ele>1847.512</ele>
        <time>2017-03-12T07:17:31Z</time>
      </trkpt>
      <trkpt lat="44.45727" lon="6.85343">
        <ele>1848.149</ele>
        <time>2017-03-12T07:17:37Z</time>
      </trkpt>
      <trkpt lat="44.45732" lon="6.85338">
        <ele>1849.858</ele>
        <time>2017-03-12T07:17:50Z</time>
      </trkpt>
      <trkpt lat="44.45736" lon="6.85333">
        <ele>1851.025</ele>
        <time>2017-03-12T07:18:03Z</time>
      </trkpt>
      <trkpt lat="44.4574" lon="6.85336">
        <ele>1852.406</ele>
        <time>2017-03-12T07:18:14Z</time>
      </trkpt>
      <trkpt lat="44.45745" lon="6.85335">
        <ele>1854.278</ele>
        <time>2017-03-12T07:18:29Z</time>
      </trkpt>
      <trkpt lat="44.45743" lon="6.85332">
        <ele>1854.7</ele>
        <time>2017-03-12T07:18:40Z</time>
      </trkpt>
      <trkpt lat="44.45745" lon="6.8533">
        <ele>1855.733</ele>
        <time>2017-03-12T07:18:49Z</time>
      </trkpt>
      <trkpt lat="44.45751" lon="6.85329">
        <ele>1857.37</ele>
        <time>2017-03-12T07:19:08Z</time>
      </trkpt>
      <trkpt lat="44.45754" lon="6.85327">
        <ele>1858.511</ele>
        <time>2017-03-12T07:19:18Z</time>
      </trkpt>
      <trkpt lat="44.45753" lon="6.85323">
        <ele>1860.134</ele>
        <time>2017-03-12T07:19:41Z</time>
      </trkpt>
      <trkpt lat="44.45756" lon="6.85321">
        <ele>1861.287</ele>
        <time>2017-03-12T07:19:51Z</time>
      </trkpt>
      <trkpt lat="44.45759" lon="6.85319">
        <ele>1862.835</ele>
        <time>2017-03-12T07:20:04Z</time>
      </trkpt>
      <trkpt lat="44.45764" lon="6.85315">
        <ele>1863.5</ele>
        <time>2017-03-12T07:20:16Z</time>
      </trkpt>
      <trkpt lat="44.45766" lon="6.85311">
        <ele>1864.994</ele>
        <time>2017-03-12T07:20:26Z</time>
      </trkpt>
      <trkpt lat="44.45769" lon="6.85313">
        <ele>1866.376</ele>
        <time>2017-03-12T07:20:39Z</time>
      </trkpt>
      <trkpt lat="44.45772" lon="6.85309">
        <ele>1867.498</ele>
        <time>2017-03-12T07:20:49Z</time>
      </trkpt>
      <trkpt lat="44.4577" lon="6.85306">
        <ele>1869.008</ele>
        <time>2017-03-12T07:21:01Z</time>
      </trkpt>
      <trkpt lat="44.45769" lon="6.85301">
        <ele>1869.456</ele>
        <time>2017-03-12T07:21:12Z</time>
      </trkpt>
      <trkpt lat="44.45763" lon="6.85301">
        <ele>1870.938</ele>
        <time>2017-03-12T07:21:26Z</time>
      </trkpt>
      <trkpt lat="44.45759" lon="6.85296">
        <ele>1872.298</ele>
        <time>2017-03-12T07:21:40Z</time>
      </trkpt>
      <trkpt lat="44.45762" lon="6.85295">
        <ele>1872.644</ele>
        <time>2017-03-12T07:21:50Z</time>
      </trkpt>
      <trkpt lat="44.45767" lon="6.8529">
        <ele>1874.21</ele>
        <time>2017-03-12T07:22:02Z</time>
      </trkpt>
      <trkpt lat="44.45766" lon="6.85285">
        <ele>1875.425</ele>
        <time>2017-03-12T07:22:14Z</time>
      </trkpt>
      <trkpt lat="44.45767" lon="6.85281">
        <ele>1875.909</ele>
        <time>2017-03-12T07:22:31Z</time>
      </trkpt>
      <trkpt lat="44.45772" lon="6.85277">
        <ele>1877.259</ele>
        <time>2017-03-12T07:22:43Z</time>
      </trkpt>
      <trkpt lat="44.45777" lon="6.85274">
        <ele>1878.396</ele>
        <time>2017-03-12T07:22:57Z</time>
      </trkpt>
      <trkpt lat="44.45781" lon="6.8527">
        <ele>1880.148</ele>
        <time>2017-03-12T07:23:08Z</time>
      </trkpt>
      <trkpt lat="44.45778" lon="6.85265">
        <ele>1881.002</ele>
        <time>2017-03-12T07:23:18Z</time>
      </trkpt>
      <trkpt lat="44.45774" lon="6.8526">
        <ele>1881.996</ele>
        <time>2017-03-12T07:23:28Z</time>
      </trkpt>
      <trkpt lat="44.4577" lon="6.85253">
        <ele>1883.93</ele>
        <time>2017-03-12T07:23:43Z</time>
      </trkpt>
      <trkpt lat="44.45774" lon="6.8525">
        <ele>1884.611</ele>
        <time>2017-03-12T07:23:53Z</time>
      </trkpt>
      <trkpt lat="44.45774" lon="6.85245">
        <ele>1886.895</ele>
        <time>2017-03-12T07:24:04Z</time>
      </trkpt>
      <trkpt lat="44.45771" lon="6.85239">
        <ele>1887.239</ele>
        <time>2017-03-12T07:24:14Z</time>
      </trkpt>
      <trkpt lat="44.4577" lon="6.85231">
        <ele>1889.309</ele>
        <time>2017-03-12T07:24:27Z</time>
      </trkpt>
      <trkpt lat="44.45765" lon="6.85225">
        <ele>1890.425</ele>
        <time>2017-03-12T07:24:42Z</time>
      </trkpt>
      <trkpt lat="44.45762" lon="6.85219">
        <ele>1891.787</ele>
        <time>2017-03-12T07:24:55Z</time>
      </trkpt>
      <trkpt lat="44.45763" lon="6.85212">
        <ele>1893.183</ele>
        <time>2017-03-12T07:25:06Z</time>
      </trkpt>
      <trkpt lat="44.45764" lon="6.85203">
        <ele>1894.565</ele>
        <time>2017-03-12T07:25:20Z</time>
      </trkpt>
      <trkpt lat="44.45768" lon="6.85203">
        <ele>1896.283</ele>
        <time>2017-03-12T07:25:31Z</time>
      </trkpt>
      <trkpt lat="44.45772" lon="6.85203">
        <ele>1897.408</ele>
        <time>2017-03-12T07:25:42Z</time>
      </trkpt>
      <trkpt lat="44.45771" lon="6.85199">
        <ele>1898.734</ele>
        <time>2017-03-12T07:25:51Z</time>
      </trkpt>
      <trkpt lat="44.45774" lon="6.85197">
        <ele>1899.077</ele>
        <time>2017-03-12T07:26:00Z</time>
      </trkpt>
      <trkpt lat="44.45778" lon="6.85194">
        <ele>1900.521</ele>
        <time>2017-03-12T07:26:14Z</time>
      </trkpt>
      <trkpt lat="44.45781" lon="6.8519">
        <ele>1902.304</ele>
        <time>2017-03-12T07:26:27Z</time>
      </trkpt>
      <trkpt lat="44.45776" lon="6.85187">
        <ele>1903.306</ele>
        <time>2017-03-12T07:26:39Z</time>
      </trkpt>
      <trkpt lat="44.45772" lon="6.85183">
        <ele>1904.182</ele>
        <time>2017-03-12T07:26:49Z</time>
      </trkpt>
      <trkpt lat="44.45772" lon="6.85173">
        <ele>1905.327</ele>
        <time>2017-03-12T07:27:00Z</time>
      </trkpt>
      <trkpt lat="44.45769" lon="6.85159">
        <ele>1906.317</ele>
        <time>2017-03-12T07:27:16Z</time>
      </trkpt>
      <trkpt lat="44.45767" lon="6.85143">
        <ele>1908.271</ele>
        <time>2017-03-12T07:27:35Z</time>
      </trkpt>
      <trkpt lat="44.45766" lon="6.85135">
        <ele>1909.971</ele>
        <time>2017-03-12T07:27:48Z</time>
      </trkpt>
      <trkpt lat="44.45768" lon="6.85135">
        <ele>1910.729</ele>
        <time>2017-03-12T07:27:58Z</time>
      </trkpt>
      <trkpt lat="44.45775" lon="6.8514">
        <ele>1913.513</ele>
        <time>2017-03-12T07:28:17Z</time>
      </trkpt>
      <trkpt lat="44.45779" lon="6.85142">
        <ele>1914.62</ele>
        <time>2017-03-12T07:28:27Z</time>
      </trkpt>
      <trkpt lat="44.45785" lon="6.85143">
        <ele>1916.197</ele>
        <time>2017-03-12T07:28:41Z</time>
      </trkpt>
      <trkpt lat="44.45794" lon="6.85138">
        <ele>1917.665</ele>
        <time>2017-03-12T07:28:59Z</time>
      </trkpt>
      <trkpt lat="44.45801" lon="6.85135">
        <ele>1920.221</ele>
        <time>2017-03-12T07:29:16Z</time>
      </trkpt>
      <trkpt lat="44.45807" lon="6.85129">
        <ele>1921.759</ele>
        <time>2017-03-12T07:29:32Z</time>
      </trkpt>
      <trkpt lat="44.45813" lon="6.85129">
        <ele>1923.238</ele>
        <time>2017-03-12T07:29:43Z</time>
      </trkpt>
      <trkpt lat="44.45821" lon="6.85127">
        <ele>1925.279</ele>
        <time>2017-03-12T07:29:59Z</time>
      </trkpt>
      <trkpt lat="44.45828" lon="6.85125">
        <ele>1926.88</ele>
        <time>2017-03-12T07:30:12Z</time>
      </trkpt>
      <trkpt lat="44.45832" lon="6.8512">
        <ele>1929.092</ele>
        <time>2017-03-12T07:30:25Z</time>
      </trkpt>
      <trkpt lat="44.45835" lon="6.85115">
        <ele>1929.809</ele>
        <time>2017-03-12T07:30:37Z</time>
      </trkpt>
      <trkpt lat="44.45839" lon="6.85115">
        <ele>1931.697</ele>
        <time>2017-03-12T07:30:48Z</time>
      </trkpt>
      <trkpt lat="44.45845" lon="6.85113">
        <ele>1932.704</ele>
        <time>2017-03-12T07:31:00Z</time>
      </trkpt>
      <trkpt lat="44.4585" lon="6.85114">
        <ele>1934.308</ele>
        <time>2017-03-12T07:31:13Z</time>
      </trkpt>
      <trkpt lat="44.45857" lon="6.85111">
        <ele>1936.29</ele>
        <time>2017-03-12T07:31:30Z</time>
      </trkpt>
      <trkpt lat="44.45862" lon="6.85111">
        <ele>1938.252</ele>
        <time>2017-03-12T07:31:44Z</time>
      </trkpt>
      <trkpt lat="44.45868" lon="6.85107">
        <ele>1940.668</ele>
        <time>2017-03-12T07:32:00Z</time>
      </trkpt>
      <trkpt lat="44.45873" lon="6.85105">
        <ele>1942.363</ele>
        <time>2017-03-12T07:32:12Z</time>
      </trkpt>
      <trkpt lat="44.45881" lon="6.85106">
        <ele>1943.553</ele>
        <time>2017-03-12T07:32:27Z</time>
      </trkpt>
      <trkpt lat="44.45882" lon="6.85105">
        <ele>1944.133</ele>
        <time>2017-03-12T07:33:11Z</time>
      </trkpt>
      <trkpt lat="44.45888" lon="6.85103">
        <ele>1945.071</ele>
        <time>2017-03-12T07:33:21Z</time>
      </trkpt>
      <trkpt lat="44.45895" lon="6.85105">
        <ele>1946.515</ele>
        <time>2017-03-12T07:33:32Z</time>
      </trkpt>
      <trkpt lat="44.45896" lon="6.85107">
        <ele>1942.383</ele>
        <time>2017-03-12T07:37:27Z</time>
      </trkpt>
      <trkpt lat="44.459" lon="6.85105">
        <ele>1940.156</ele>
        <time>2017-03-12T07:44:41Z</time>
      </trkpt>
      <trkpt lat="44.45906" lon="6.85105">
        <ele>1941.484</ele>
        <time>2017-03-12T07:44:54Z</time>
      </trkpt>
      <trkpt lat="44.45914" lon="6.85109">
        <ele>1943.365</ele>
        <time>2017-03-12T07:45:10Z</time>
      </trkpt>
      <trkpt lat="44.45926" lon="6.85117">
        <ele>1945.126</ele>
        <time>2017-03-12T07:45:27Z</time>
      </trkpt>
      <trkpt lat="44.45934" lon="6.85118">
        <ele>1946.679</ele>
        <time>2017-03-12T07:45:40Z</time>
      </trkpt>
      <trkpt lat="44.45946" lon="6.85122">
        <ele>1948.74</ele>
        <time>2017-03-12T07:46:00Z</time>
      </trkpt>
      <trkpt lat="44.45953" lon="6.85122">
        <ele>1950.504</ele>
        <time>2017-03-12T07:46:12Z</time>
      </trkpt>
      <trkpt lat="44.45957" lon="6.85126">
        <ele>1951.087</ele>
        <time>2017-03-12T07:46:20Z</time>
      </trkpt>
      <trkpt lat="44.45962" lon="6.85132">
        <ele>1951.258</ele>
        <time>2017-03-12T07:46:30Z</time>
      </trkpt>
      <trkpt lat="44.45968" lon="6.85136">
        <ele>1952.989</ele>
        <time>2017-03-12T07:46:43Z</time>
      </trkpt>
      <trkpt lat="44.45975" lon="6.85138">
        <ele>1954.246</ele>
        <time>2017-03-12T07:46:56Z</time>
      </trkpt>
      <trkpt lat="44.45984" lon="6.85147">
        <ele>1954.715</ele>
        <time>2017-03-12T07:47:09Z</time>
      </trkpt>
      <trkpt lat="44.45995" lon="6.85156">
        <ele>1955.579</ele>
        <time>2017-03-12T07:47:24Z</time>
      </trkpt>
      <trkpt lat="44.46004" lon="6.85163">
        <ele>1955.651</ele>
        <time>2017-03-12T07:47:38Z</time>
      </trkpt>
      <trkpt lat="44.46016" lon="6.8517">
        <ele>1955.993</ele>
        <time>2017-03-12T07:47:54Z</time>
      </trkpt>
      <trkpt lat="44.46024" lon="6.85179">
        <ele>1956.72</ele>
        <time>2017-03-12T07:48:06Z</time>
      </trkpt>
      <trkpt lat="44.46032" lon="6.85187">
        <ele>1958.126</ele>
        <time>2017-03-12T07:48:19Z</time>
      </trkpt>
      <trkpt lat="44.46038" lon="6.85192">
        <ele>1959.099</ele>
        <time>2017-03-12T07:48:28Z</time>
      </trkpt>
      <trkpt lat="44.46043" lon="6.85198">
        <ele>1959.485</ele>
        <time>2017-03-12T07:48:37Z</time>
      </trkpt>
      <trkpt lat="44.46047" lon="6.85199">
        <ele>1960.501</ele>
        <time>2017-03-12T07:48:49Z</time>
      </trkpt>
      <trkpt lat="44.46052" lon="6.85203">
        <ele>1961.086</ele>
        <time>2017-03-12T07:48:58Z</time>
      </trkpt>
      <trkpt lat="44.46062" lon="6.85209">
        <ele>1962.466</ele>
        <time>2017-03-12T07:49:16Z</time>
      </trkpt>
      <trkpt lat="44.46065" lon="6.85212">
        <ele>1962.681</ele>
        <time>2017-03-12T07:50:06Z</time>
      </trkpt>
      <trkpt lat="44.46074" lon="6.8522">
        <ele>1964.444</ele>
        <time>2017-03-12T07:50:21Z</time>
      </trkpt>
      <trkpt lat="44.46082" lon="6.85227">
        <ele>1966.184</ele>
        <time>2017-03-12T07:50:35Z</time>
      </trkpt>
      <trkpt lat="44.46089" lon="6.85233">
        <ele>1967.582</ele>
        <time>2017-03-12T07:50:47Z</time>
      </trkpt>
      <trkpt lat="44.46098" lon="6.85238">
        <ele>1970.232</ele>
        <time>2017-03-12T07:51:04Z</time>
      </trkpt>
      <trkpt lat="44.46105" lon="6.8524">
        <ele>1971.238</ele>
        <time>2017-03-12T07:51:27Z</time>
      </trkpt>
      <trkpt lat="44.46112" lon="6.85243">
        <ele>1971.923</ele>
        <time>2017-03-12T07:51:37Z</time>
      </trkpt>
      <trkpt lat="44.46125" lon="6.85257">
        <ele>1972.829</ele>
        <time>2017-03-12T07:51:53Z</time>
      </trkpt>
      <trkpt lat="44.46132" lon="6.85266">
        <ele>1973.612</ele>
        <time>2017-03-12T07:52:05Z</time>
      </trkpt>
      <trkpt lat="44.46137" lon="6.85281">
        <ele>1975.649</ele>
        <time>2017-03-12T07:52:22Z</time>
      </trkpt>
      <trkpt lat="44.46141" lon="6.85293">
        <ele>1977.622</ele>
        <time>2017-03-12T07:52:37Z</time>
      </trkpt>
      <trkpt lat="44.46144" lon="6.85295">
        <ele>1977.917</ele>
        <time>2017-03-12T07:52:46Z</time>
      </trkpt>
      <trkpt lat="44.46147" lon="6.853">
        <ele>1978.522</ele>
        <time>2017-03-12T07:53:08Z</time>
      </trkpt>
      <trkpt lat="44.46157" lon="6.85307">
        <ele>1980.052</ele>
        <time>2017-03-12T07:53:21Z</time>
      </trkpt>
      <trkpt lat="44.46165" lon="6.85322">
        <ele>1981.058</ele>
        <time>2017-03-12T07:53:36Z</time>
      </trkpt>
      <trkpt lat="44.4617" lon="6.85331">
        <ele>1981.543</ele>
        <time>2017-03-12T07:53:45Z</time>
      </trkpt>
      <trkpt lat="44.46175" lon="6.85337">
        <ele>1981.725</ele>
        <time>2017-03-12T07:53:53Z</time>
      </trkpt>
      <trkpt lat="44.46182" lon="6.85344">
        <ele>1982.06</ele>
        <time>2017-03-12T07:54:02Z</time>
      </trkpt>
      <trkpt lat="44.46188" lon="6.85354">
        <ele>1982.727</ele>
        <time>2017-03-12T07:54:14Z</time>
      </trkpt>
      <trkpt lat="44.46191" lon="6.85366">
        <ele>1983.371</ele>
        <time>2017-03-12T07:54:26Z</time>
      </trkpt>
      <trkpt lat="44.46195" lon="6.85378">
        <ele>1984.5</ele>
        <time>2017-03-12T07:54:38Z</time>
      </trkpt>
      <trkpt lat="44.46198" lon="6.85386">
        <ele>1985.961</ele>
        <time>2017-03-12T07:54:46Z</time>
      </trkpt>
      <trkpt lat="44.462" lon="6.85392">
        <ele>1986.635</ele>
        <time>2017-03-12T07:54:58Z</time>
      </trkpt>
      <trkpt lat="44.46201" lon="6.85399">
        <ele>1987.828</ele>
        <time>2017-03-12T07:55:17Z</time>
      </trkpt>
      <trkpt lat="44.46206" lon="6.85409">
        <ele>1989.16</ele>
        <time>2017-03-12T07:55:27Z</time>
      </trkpt>
      <trkpt lat="44.46213" lon="6.85418">
        <ele>1990.475</ele>
        <time>2017-03-12T07:55:39Z</time>
      </trkpt>
      <trkpt lat="44.46221" lon="6.85431">
        <ele>1992.367</ele>
        <time>2017-03-12T07:55:55Z</time>
      </trkpt>
      <trkpt lat="44.4623" lon="6.85439">
        <ele>1994.394</ele>
        <time>2017-03-12T07:56:12Z</time>
      </trkpt>
      <trkpt lat="44.46237" lon="6.85444">
        <ele>1995.833</ele>
        <time>2017-03-12T07:56:23Z</time>
      </trkpt>
      <trkpt lat="44.4624" lon="6.8545">
        <ele>1995.666</ele>
        <time>2017-03-12T07:56:30Z</time>
      </trkpt>
      <trkpt lat="44.46244" lon="6.85459">
        <ele>1995.865</ele>
        <time>2017-03-12T07:56:38Z</time>
      </trkpt>
      <trkpt lat="44.46251" lon="6.85471">
        <ele>1998.14</ele>
        <time>2017-03-12T07:56:55Z</time>
      </trkpt>
      <trkpt lat="44.46259" lon="6.85482">
        <ele>1999.573</ele>
        <time>2017-03-12T07:57:10Z</time>
      </trkpt>
      <trkpt lat="44.46262" lon="6.85496">
        <ele>2000.189</ele>
        <time>2017-03-12T07:57:23Z</time>
      </trkpt>
      <trkpt lat="44.46263" lon="6.85503">
        <ele>2002.115</ele>
        <time>2017-03-12T07:57:33Z</time>
      </trkpt>
      <trkpt lat="44.46263" lon="6.85506">
        <ele>2002.432</ele>
        <time>2017-03-12T07:57:41Z</time>
      </trkpt>
      <trkpt lat="44.46265" lon="6.85517">
        <ele>2004.091</ele>
        <time>2017-03-12T07:57:50Z</time>
      </trkpt>
      <trkpt lat="44.46267" lon="6.85524">
        <ele>2005.06</ele>
        <time>2017-03-12T07:57:59Z</time>
      </trkpt>
      <trkpt lat="44.46269" lon="6.8553">
        <ele>2006.9</ele>
        <time>2017-03-12T07:58:08Z</time>
      </trkpt>
      <trkpt lat="44.46272" lon="6.85535">
        <ele>2007.648</ele>
        <time>2017-03-12T07:58:16Z</time>
      </trkpt>
      <trkpt lat="44.46276" lon="6.85536">
        <ele>2008.3</ele>
        <time>2017-03-12T07:58:23Z</time>
      </trkpt>
      <trkpt lat="44.46281" lon="6.85539">
        <ele>2010.321</ele>
        <time>2017-03-12T07:58:33Z</time>
      </trkpt>
      <trkpt lat="44.46283" lon="6.85542">
        <ele>2011.613</ele>
        <time>2017-03-12T07:58:41Z</time>
      </trkpt>
      <trkpt lat="44.46284" lon="6.85547">
        <ele>2011.07</ele>
        <time>2017-03-12T07:59:47Z</time>
      </trkpt>
      <trkpt lat="44.46288" lon="6.85553">
        <ele>2013.513</ele>
        <time>2017-03-12T08:07:15Z</time>
      </trkpt>
      <trkpt lat="44.46291" lon="6.85557">
        <ele>2013.657</ele>
        <time>2017-03-12T08:07:27Z</time>
      </trkpt>
      <trkpt lat="44.46293" lon="6.8556">
        <ele>2014.204</ele>
        <time>2017-03-12T08:07:39Z</time>
      </trkpt>
      <trkpt lat="44.46293" lon="6.85566">
        <ele>2014.639</ele>
        <time>2017-03-12T08:08:56Z</time>
      </trkpt>
      <trkpt lat="44.46294" lon="6.85572">
        <ele>2015.985</ele>
        <time>2017-03-12T08:09:05Z</time>
      </trkpt>
      <trkpt lat="44.46295" lon="6.85583">
        <ele>2016.74</ele>
        <time>2017-03-12T08:09:27Z</time>
      </trkpt>
      <trkpt lat="44.46295" lon="6.85587">
        <ele>2017.336</ele>
        <time>2017-03-12T08:09:42Z</time>
      </trkpt>
      <trkpt lat="44.46294" lon="6.85596">
        <ele>2017.66</ele>
        <time>2017-03-12T08:10:32Z</time>
      </trkpt>
      <trkpt lat="44.46293" lon="6.85611">
        <ele>2020.229</ele>
        <time>2017-03-12T08:10:52Z</time>
      </trkpt>
      <trkpt lat="44.46294" lon="6.85626">
        <ele>2023.134</ele>
        <time>2017-03-12T08:11:13Z</time>
      </trkpt>
      <trkpt lat="44.46294" lon="6.85642">
        <ele>2024.85</ele>
        <time>2017-03-12T08:11:33Z</time>
      </trkpt>
      <trkpt lat="44.46295" lon="6.8565">
        <ele>2026.255</ele>
        <time>2017-03-12T08:11:49Z</time>
      </trkpt>
      <trkpt lat="44.46296" lon="6.85656">
        <ele>2027.732</ele>
        <time>2017-03-12T08:11:56Z</time>
      </trkpt>
      <trkpt lat="44.46296" lon="6.85664">
        <ele>2028.856</ele>
        <time>2017-03-12T08:12:19Z</time>
      </trkpt>
      <trkpt lat="44.46297" lon="6.85676">
        <ele>2031.014</ele>
        <time>2017-03-12T08:12:37Z</time>
      </trkpt>
      <trkpt lat="44.46298" lon="6.8569">
        <ele>2033.377</ele>
        <time>2017-03-12T08:12:55Z</time>
      </trkpt>
      <trkpt lat="44.463" lon="6.85701">
        <ele>2034.564</ele>
        <time>2017-03-12T08:13:12Z</time>
      </trkpt>
      <trkpt lat="44.46302" lon="6.85714">
        <ele>2036.745</ele>
        <time>2017-03-12T08:13:33Z</time>
      </trkpt>
      <trkpt lat="44.46303" lon="6.8572">
        <ele>2038.604</ele>
        <time>2017-03-12T08:13:45Z</time>
      </trkpt>
      <trkpt lat="44.46305" lon="6.85729">
        <ele>2039.99</ele>
        <time>2017-03-12T08:14:00Z</time>
      </trkpt>
      <trkpt lat="44.46307" lon="6.85735">
        <ele>2042.115</ele>
        <time>2017-03-12T08:14:14Z</time>
      </trkpt>
      <trkpt lat="44.46309" lon="6.85742">
        <ele>2044.474</ele>
        <time>2017-03-12T08:14:28Z</time>
      </trkpt>
      <trkpt lat="44.46311" lon="6.85748">
        <ele>2044.739</ele>
        <time>2017-03-12T08:14:54Z</time>
      </trkpt>
      <trkpt lat="44.46312" lon="6.85763">
        <ele>2047.923</ele>
        <time>2017-03-12T08:15:12Z</time>
      </trkpt>
      <trkpt lat="44.46314" lon="6.85777">
        <ele>2049.814</ele>
        <time>2017-03-12T08:15:32Z</time>
      </trkpt>
      <trkpt lat="44.46316" lon="6.85793">
        <ele>2052.108</ele>
        <time>2017-03-12T08:15:52Z</time>
      </trkpt>
      <trkpt lat="44.46315" lon="6.85808">
        <ele>2054.571</ele>
        <time>2017-03-12T08:16:11Z</time>
      </trkpt>
      <trkpt lat="44.46316" lon="6.85819">
        <ele>2057.171</ele>
        <time>2017-03-12T08:16:27Z</time>
      </trkpt>
      <trkpt lat="44.46317" lon="6.85827">
        <ele>2058.226</ele>
        <time>2017-03-12T08:16:38Z</time>
      </trkpt>
      <trkpt lat="44.46319" lon="6.85842">
        <ele>2060.225</ele>
        <time>2017-03-12T08:16:56Z</time>
      </trkpt>
      <trkpt lat="44.4632" lon="6.85852">
        <ele>2062.148</ele>
        <time>2017-03-12T08:17:10Z</time>
      </trkpt>
      <trkpt lat="44.46322" lon="6.85861">
        <ele>2063.66</ele>
        <time>2017-03-12T08:17:23Z</time>
      </trkpt>
      <trkpt lat="44.46324" lon="6.85874">
        <ele>2064.632</ele>
        <time>2017-03-12T08:17:38Z</time>
      </trkpt>
      <trkpt lat="44.46325" lon="6.85879">
        <ele>2064.646</ele>
        <time>2017-03-12T08:17:53Z</time>
      </trkpt>
      <trkpt lat="44.46325" lon="6.85885">
        <ele>2064.956</ele>
        <time>2017-03-12T08:18:17Z</time>
      </trkpt>
      <trkpt lat="44.46327" lon="6.85903">
        <ele>2067.621</ele>
        <time>2017-03-12T08:18:38Z</time>
      </trkpt>
      <trkpt lat="44.46328" lon="6.85917">
        <ele>2070.706</ele>
        <time>2017-03-12T08:18:58Z</time>
      </trkpt>
      <trkpt lat="44.46327" lon="6.85924">
        <ele>2072.271</ele>
        <time>2017-03-12T08:19:07Z</time>
      </trkpt>
      <trkpt lat="44.46329" lon="6.85941">
        <ele>2074.952</ele>
        <time>2017-03-12T08:19:27Z</time>
      </trkpt>
      <trkpt lat="44.46331" lon="6.85955">
        <ele>2076.543</ele>
        <time>2017-03-12T08:19:43Z</time>
      </trkpt>
      <trkpt lat="44.46335" lon="6.85973">
        <ele>2078.999</ele>
        <time>2017-03-12T08:20:06Z</time>
      </trkpt>
      <trkpt lat="44.46336" lon="6.85989">
        <ele>2080.363</ele>
        <time>2017-03-12T08:20:25Z</time>
      </trkpt>
      <trkpt lat="44.46334" lon="6.85991">
        <ele>2080.466</ele>
        <time>2017-03-12T08:20:34Z</time>
      </trkpt>
      <trkpt lat="44.46334" lon="6.85995">
        <ele>2080.651</ele>
        <time>2017-03-12T08:20:48Z</time>
      </trkpt>
      <trkpt lat="44.46332" lon="6.86011">
        <ele>2082.083</ele>
        <time>2017-03-12T08:21:07Z</time>
      </trkpt>
      <trkpt lat="44.46332" lon="6.86019">
        <ele>2082.902</ele>
        <time>2017-03-12T08:21:19Z</time>
      </trkpt>
      <trkpt lat="44.46333" lon="6.86025">
        <ele>2083.369</ele>
        <time>2017-03-12T08:21:26Z</time>
      </trkpt>
      <trkpt lat="44.46334" lon="6.86034">
        <ele>2083.769</ele>
        <time>2017-03-12T08:21:36Z</time>
      </trkpt>
      <trkpt lat="44.46335" lon="6.86043">
        <ele>2084.197</ele>
        <time>2017-03-12T08:21:46Z</time>
      </trkpt>
      <trkpt lat="44.46332" lon="6.86051">
        <ele>2083.509</ele>
        <time>2017-03-12T08:21:54Z</time>
      </trkpt>
      <trkpt lat="44.46327" lon="6.86055">
        <ele>2082.315</ele>
        <time>2017-03-12T08:22:02Z</time>
      </trkpt>
      <trkpt lat="44.46324" lon="6.86057">
        <ele>2080.852</ele>
        <time>2017-03-12T08:22:11Z</time>
      </trkpt>
      <trkpt lat="44.46321" lon="6.86059">
        <ele>2081.038</ele>
        <time>2017-03-12T08:22:19Z</time>
      </trkpt>
      <trkpt lat="44.46323" lon="6.86067">
        <ele>2081.042</ele>
        <time>2017-03-12T08:22:28Z</time>
      </trkpt>
      <trkpt lat="44.46323" lon="6.86079">
        <ele>2081.49</ele>
        <time>2017-03-12T08:22:40Z</time>
      </trkpt>
      <trkpt lat="44.46324" lon="6.86096">
        <ele>2081.843</ele>
        <time>2017-03-12T08:22:59Z</time>
      </trkpt>
      <trkpt lat="44.46323" lon="6.86106">
        <ele>2081.254</ele>
        <time>2017-03-12T08:23:13Z</time>
      </trkpt>
      <trkpt lat="44.46323" lon="6.86114">
        <ele>2081.096</ele>
        <time>2017-03-12T08:23:35Z</time>
      </trkpt>
      <trkpt lat="44.46322" lon="6.86125">
        <ele>2082.302</ele>
        <time>2017-03-12T08:23:48Z</time>
      </trkpt>
      <trkpt lat="44.46321" lon="6.86132">
        <ele>2081.758</ele>
        <time>2017-03-12T08:24:00Z</time>
      </trkpt>
      <trkpt lat="44.46321" lon="6.86139">
        <ele>2081.435</ele>
        <time>2017-03-12T08:24:47Z</time>
      </trkpt>
      <trkpt lat="44.46323" lon="6.86153">
        <ele>2081.426</ele>
        <time>2017-03-12T08:24:59Z</time>
      </trkpt>
      <trkpt lat="44.46326" lon="6.86172">
        <ele>2081.874</ele>
        <time>2017-03-12T08:25:16Z</time>
      </trkpt>
      <trkpt lat="44.46328" lon="6.86195">
        <ele>2082.989</ele>
        <time>2017-03-12T08:25:38Z</time>
      </trkpt>
      <trkpt lat="44.4633" lon="6.86203">
        <ele>2084.144</ele>
        <time>2017-03-12T08:25:51Z</time>
      </trkpt>
      <trkpt lat="44.4633" lon="6.86206">
        <ele>2084.625</ele>
        <time>2017-03-12T08:25:58Z</time>
      </trkpt>
      <trkpt lat="44.46334" lon="6.86215">
        <ele>2084.228</ele>
        <time>2017-03-12T08:26:08Z</time>
      </trkpt>
      <trkpt lat="44.46336" lon="6.86222">
        <ele>2084.288</ele>
        <time>2017-03-12T08:26:17Z</time>
      </trkpt>
      <trkpt lat="44.46339" lon="6.86229">
        <ele>2085.319</ele>
        <time>2017-03-12T08:26:25Z</time>
      </trkpt>
      <trkpt lat="44.46343" lon="6.86236">
        <ele>2086.281</ele>
        <time>2017-03-12T08:26:33Z</time>
      </trkpt>
      <trkpt lat="44.46346" lon="6.86247">
        <ele>2086.022</ele>
        <time>2017-03-12T08:26:43Z</time>
      </trkpt>
      <trkpt lat="44.46348" lon="6.86251">
        <ele>2085.982</ele>
        <time>2017-03-12T08:26:46Z</time>
      </trkpt>
      <trkpt lat="44.46354" lon="6.86262">
        <ele>2085.881</ele>
        <time>2017-03-12T08:26:59Z</time>
      </trkpt>
      <trkpt lat="44.46356" lon="6.86271">
        <ele>2086.718</ele>
        <time>2017-03-12T08:27:09Z</time>
      </trkpt>
      <trkpt lat="44.46359" lon="6.86277">
        <ele>2087.794</ele>
        <time>2017-03-12T08:27:18Z</time>
      </trkpt>
      <trkpt lat="44.46362" lon="6.86284">
        <ele>2088.483</ele>
        <time>2017-03-12T08:27:26Z</time>
      </trkpt>
      <trkpt lat="44.46365" lon="6.86292">
        <ele>2088.582</ele>
        <time>2017-03-12T08:27:36Z</time>
      </trkpt>
      <trkpt lat="44.46367" lon="6.86298">
        <ele>2089.04</ele>
        <time>2017-03-12T08:27:45Z</time>
      </trkpt>
      <trkpt lat="44.46371" lon="6.86306">
        <ele>2089.435</ele>
        <time>2017-03-12T08:27:54Z</time>
      </trkpt>
      <trkpt lat="44.46378" lon="6.86314">
        <ele>2088.947</ele>
        <time>2017-03-12T08:28:06Z</time>
      </trkpt>
      <trkpt lat="44.46382" lon="6.86321">
        <ele>2089.908</ele>
        <time>2017-03-12T08:28:16Z</time>
      </trkpt>
      <trkpt lat="44.46387" lon="6.86332">
        <ele>2090.141</ele>
        <time>2017-03-12T08:28:27Z</time>
      </trkpt>
      <trkpt lat="44.46392" lon="6.86341">
        <ele>2090.978</ele>
        <time>2017-03-12T08:28:38Z</time>
      </trkpt>
      <trkpt lat="44.46393" lon="6.86348">
        <ele>2091.77</ele>
        <time>2017-03-12T08:28:48Z</time>
      </trkpt>
      <trkpt lat="44.46395" lon="6.86355">
        <ele>2093.456</ele>
        <time>2017-03-12T08:29:00Z</time>
      </trkpt>
      <trkpt lat="44.46397" lon="6.86362">
        <ele>2094.561</ele>
        <time>2017-03-12T08:29:09Z</time>
      </trkpt>
      <trkpt lat="44.46399" lon="6.8637">
        <ele>2095.488</ele>
        <time>2017-03-12T08:29:18Z</time>
      </trkpt>
      <trkpt lat="44.46399" lon="6.86376">
        <ele>2096.213</ele>
        <time>2017-03-12T08:29:27Z</time>
      </trkpt>
      <trkpt lat="44.46401" lon="6.86384">
        <ele>2097.111</ele>
        <time>2017-03-12T08:30:00Z</time>
      </trkpt>
      <trkpt lat="44.46402" lon="6.864">
        <ele>2097.295</ele>
        <time>2017-03-12T08:30:16Z</time>
      </trkpt>
      <trkpt lat="44.46403" lon="6.86408">
        <ele>2098.836</ele>
        <time>2017-03-12T08:30:28Z</time>
      </trkpt>
      <trkpt lat="44.46403" lon="6.86411">
        <ele>2100.073</ele>
        <time>2017-03-12T08:30:40Z</time>
      </trkpt>
      <trkpt lat="44.46404" lon="6.86421">
        <ele>2100.982</ele>
        <time>2017-03-12T08:31:14Z</time>
      </trkpt>
      <trkpt lat="44.46407" lon="6.86435">
        <ele>2103.891</ele>
        <time>2017-03-12T08:31:29Z</time>
      </trkpt>
      <trkpt lat="44.46408" lon="6.8645">
        <ele>2106.178</ele>
        <time>2017-03-12T08:31:45Z</time>
      </trkpt>
      <trkpt lat="44.46406" lon="6.86464">
        <ele>2106.533</ele>
        <time>2017-03-12T08:31:58Z</time>
      </trkpt>
      <trkpt lat="44.46403" lon="6.86481">
        <ele>2107.742</ele>
        <time>2017-03-12T08:32:14Z</time>
      </trkpt>
      <trkpt lat="44.46401" lon="6.86491">
        <ele>2107.797</ele>
        <time>2017-03-12T08:32:28Z</time>
      </trkpt>
      <trkpt lat="44.464" lon="6.86495">
        <ele>2108.031</ele>
        <time>2017-03-12T08:32:54Z</time>
      </trkpt>
      <trkpt lat="44.46394" lon="6.86506">
        <ele>2108.267</ele>
        <time>2017-03-12T08:33:05Z</time>
      </trkpt>
      <trkpt lat="44.46391" lon="6.86516">
        <ele>2108.142</ele>
        <time>2017-03-12T08:33:16Z</time>
      </trkpt>
      <trkpt lat="44.46388" lon="6.86529">
        <ele>2109.188</ele>
        <time>2017-03-12T08:33:30Z</time>
      </trkpt>
      <trkpt lat="44.46384" lon="6.86543">
        <ele>2110.925</ele>
        <time>2017-03-12T08:33:45Z</time>
      </trkpt>
      <trkpt lat="44.46378" lon="6.86558">
        <ele>2111.525</ele>
        <time>2017-03-12T08:34:00Z</time>
      </trkpt>
      <trkpt lat="44.46372" lon="6.8657">
        <ele>2112.43</ele>
        <time>2017-03-12T08:34:14Z</time>
      </trkpt>
      <trkpt lat="44.46362" lon="6.86589">
        <ele>2114.499</ele>
        <time>2017-03-12T08:34:32Z</time>
      </trkpt>
      <trkpt lat="44.4636" lon="6.86604">
        <ele>2116.081</ele>
        <time>2017-03-12T08:34:52Z</time>
      </trkpt>
      <trkpt lat="44.46357" lon="6.86614">
        <ele>2117.069</ele>
        <time>2017-03-12T08:35:03Z</time>
      </trkpt>
      <trkpt lat="44.46356" lon="6.86618">
        <ele>2118.086</ele>
        <time>2017-03-12T08:35:14Z</time>
      </trkpt>
      <trkpt lat="44.46353" lon="6.86621">
        <ele>2117.441</ele>
        <time>2017-03-12T08:39:19Z</time>
      </trkpt>
      <trkpt lat="44.46354" lon="6.86623">
        <ele>2119.086</ele>
        <time>2017-03-12T08:47:20Z</time>
      </trkpt>
      <trkpt lat="44.46353" lon="6.8662">
        <ele>2119.427</ele>
        <time>2017-03-12T08:47:42Z</time>
      </trkpt>
      <trkpt lat="44.46353" lon="6.86623">
        <ele>2120.321</ele>
        <time>2017-03-12T08:47:49Z</time>
      </trkpt>
      <trkpt lat="44.46353" lon="6.86627">
        <ele>2120.029</ele>
        <time>2017-03-12T08:48:00Z</time>
      </trkpt>
      <trkpt lat="44.46352" lon="6.86631">
        <ele>2120.224</ele>
        <time>2017-03-12T08:48:10Z</time>
      </trkpt>
      <trkpt lat="44.46351" lon="6.8664">
        <ele>2121.205</ele>
        <time>2017-03-12T08:48:23Z</time>
      </trkpt>
      <trkpt lat="44.46347" lon="6.86654">
        <ele>2122.092</ele>
        <time>2017-03-12T08:48:39Z</time>
      </trkpt>
      <trkpt lat="44.46343" lon="6.86665">
        <ele>2123.021</ele>
        <time>2017-03-12T08:48:52Z</time>
      </trkpt>
      <trkpt lat="44.46338" lon="6.86679">
        <ele>2123.59</ele>
        <time>2017-03-12T08:49:06Z</time>
      </trkpt>
      <trkpt lat="44.46331" lon="6.86695">
        <ele>2125.173</ele>
        <time>2017-03-12T08:49:26Z</time>
      </trkpt>
      <trkpt lat="44.46322" lon="6.86705">
        <ele>2126.071</ele>
        <time>2017-03-12T08:49:43Z</time>
      </trkpt>
      <trkpt lat="44.46314" lon="6.86711">
        <ele>2127.495</ele>
        <time>2017-03-12T08:49:57Z</time>
      </trkpt>
      <trkpt lat="44.46309" lon="6.86717">
        <ele>2129.453</ele>
        <time>2017-03-12T08:50:10Z</time>
      </trkpt>
      <trkpt lat="44.46305" lon="6.8672">
        <ele>2131.16</ele>
        <time>2017-03-12T08:50:21Z</time>
      </trkpt>
      <trkpt lat="44.463" lon="6.86726">
        <ele>2132.833</ele>
        <time>2017-03-12T08:50:33Z</time>
      </trkpt>
      <trkpt lat="44.46296" lon="6.86729">
        <ele>2134.783</ele>
        <time>2017-03-12T08:50:47Z</time>
      </trkpt>
      <trkpt lat="44.46291" lon="6.86736">
        <ele>2137.191</ele>
        <time>2017-03-12T08:51:01Z</time>
      </trkpt>
      <trkpt lat="44.46286" lon="6.86745">
        <ele>2139.534</ele>
        <time>2017-03-12T08:51:18Z</time>
      </trkpt>
      <trkpt lat="44.46283" lon="6.86754">
        <ele>2141.91</ele>
        <time>2017-03-12T08:51:31Z</time>
      </trkpt>
      <trkpt lat="44.46278" lon="6.86762">
        <ele>2144.226</ele>
        <time>2017-03-12T08:51:45Z</time>
      </trkpt>
      <trkpt lat="44.46274" lon="6.86771">
        <ele>2146.674</ele>
        <time>2017-03-12T08:52:02Z</time>
      </trkpt>
      <trkpt lat="44.46269" lon="6.86773">
        <ele>2148.396</ele>
        <time>2017-03-12T08:52:12Z</time>
      </trkpt>
      <trkpt lat="44.46264" lon="6.86768">
        <ele>2149.734</ele>
        <time>2017-03-12T08:52:21Z</time>
      </trkpt>
      <trkpt lat="44.4626" lon="6.86767">
        <ele>2150.816</ele>
        <time>2017-03-12T08:52:29Z</time>
      </trkpt>
      <trkpt lat="44.46256" lon="6.86768">
        <ele>2151.816</ele>
        <time>2017-03-12T08:52:39Z</time>
      </trkpt>
      <trkpt lat="44.46251" lon="6.8677">
        <ele>2154.008</ele>
        <time>2017-03-12T08:52:51Z</time>
      </trkpt>
      <trkpt lat="44.46248" lon="6.86775">
        <ele>2156.807</ele>
        <time>2017-03-12T08:53:10Z</time>
      </trkpt>
      <trkpt lat="44.46242" lon="6.86783">
        <ele>2158.127</ele>
        <time>2017-03-12T08:53:21Z</time>
      </trkpt>
      <trkpt lat="44.46238" lon="6.86795">
        <ele>2160.483</ele>
        <time>2017-03-12T08:53:36Z</time>
      </trkpt>
      <trkpt lat="44.46239" lon="6.86806">
        <ele>2162.307</ele>
        <time>2017-03-12T08:53:53Z</time>
      </trkpt>
      <trkpt lat="44.46237" lon="6.86818">
        <ele>2164.61</ele>
        <time>2017-03-12T08:54:09Z</time>
      </trkpt>
      <trkpt lat="44.46233" lon="6.86818">
        <ele>2166.163</ele>
        <time>2017-03-12T08:54:16Z</time>
      </trkpt>
      <trkpt lat="44.46227" lon="6.86823">
        <ele>2167.553</ele>
        <time>2017-03-12T08:54:28Z</time>
      </trkpt>
      <trkpt lat="44.46223" lon="6.86827">
        <ele>2168.666</ele>
        <time>2017-03-12T08:54:35Z</time>
      </trkpt>
      <trkpt lat="44.4622" lon="6.86828">
        <ele>2169.549</ele>
        <time>2017-03-12T08:54:41Z</time>
      </trkpt>
      <trkpt lat="44.46218" lon="6.86831">
        <ele>2170.827</ele>
        <time>2017-03-12T08:54:49Z</time>
      </trkpt>
      <trkpt lat="44.46214" lon="6.86834">
        <ele>2172.031</ele>
        <time>2017-03-12T08:54:59Z</time>
      </trkpt>
      <trkpt lat="44.46212" lon="6.86836">
        <ele>2173.702</ele>
        <time>2017-03-12T08:55:06Z</time>
      </trkpt>
      <trkpt lat="44.46212" lon="6.86842">
        <ele>2175.628</ele>
        <time>2017-03-12T08:55:18Z</time>
      </trkpt>
      <trkpt lat="44.46211" lon="6.86855">
        <ele>2178.335</ele>
        <time>2017-03-12T08:55:39Z</time>
      </trkpt>
      <trkpt lat="44.4621" lon="6.86858">
        <ele>2179.108</ele>
        <time>2017-03-12T08:55:52Z</time>
      </trkpt>
      <trkpt lat="44.46207" lon="6.86871">
        <ele>2180.979</ele>
        <time>2017-03-12T08:56:10Z</time>
      </trkpt>
      <trkpt lat="44.46204" lon="6.86889">
        <ele>2182.601</ele>
        <time>2017-03-12T08:56:30Z</time>
      </trkpt>
      <trkpt lat="44.46199" lon="6.86905">
        <ele>2184.87</ele>
        <time>2017-03-12T08:56:50Z</time>
      </trkpt>
      <trkpt lat="44.46198" lon="6.86918">
        <ele>2185.854</ele>
        <time>2017-03-12T08:57:06Z</time>
      </trkpt>
      <trkpt lat="44.46192" lon="6.86935">
        <ele>2187.072</ele>
        <time>2017-03-12T08:57:26Z</time>
      </trkpt>
      <trkpt lat="44.46187" lon="6.86956">
        <ele>2188.266</ele>
        <time>2017-03-12T08:57:50Z</time>
      </trkpt>
      <trkpt lat="44.46185" lon="6.86973">
        <ele>2189.633</ele>
        <time>2017-03-12T08:58:09Z</time>
      </trkpt>
      <trkpt lat="44.46183" lon="6.86987">
        <ele>2191.25</ele>
        <time>2017-03-12T08:58:28Z</time>
      </trkpt>
      <trkpt lat="44.46184" lon="6.87006">
        <ele>2193.828</ele>
        <time>2017-03-12T08:58:52Z</time>
      </trkpt>
      <trkpt lat="44.46185" lon="6.87018">
        <ele>2196.521</ele>
        <time>2017-03-12T08:59:11Z</time>
      </trkpt>
      <trkpt lat="44.46187" lon="6.87031">
        <ele>2199.615</ele>
        <time>2017-03-12T08:59:30Z</time>
      </trkpt>
      <trkpt lat="44.46191" lon="6.87043">
        <ele>2202.116</ele>
        <time>2017-03-12T08:59:48Z</time>
      </trkpt>
      <trkpt lat="44.46195" lon="6.8705">
        <ele>2204.5</ele>
        <time>2017-03-12T09:00:00Z</time>
      </trkpt>
      <trkpt lat="44.462" lon="6.87056">
        <ele>2206.077</ele>
        <time>2017-03-12T09:00:12Z</time>
      </trkpt>
      <trkpt lat="44.46204" lon="6.87062">
        <ele>2208.215</ele>
        <time>2017-03-12T09:00:26Z</time>
      </trkpt>
      <trkpt lat="44.46213" lon="6.87068">
        <ele>2209.67</ele>
        <time>2017-03-12T09:00:42Z</time>
      </trkpt>
      <trkpt lat="44.46222" lon="6.87073">
        <ele>2212.037</ele>
        <time>2017-03-12T09:01:00Z</time>
      </trkpt>
      <trkpt lat="44.4623" lon="6.87078">
        <ele>2214.267</ele>
        <time>2017-03-12T09:01:17Z</time>
      </trkpt>
      <trkpt lat="44.46232" lon="6.87079">
        <ele>2214.41</ele>
        <time>2017-03-12T09:01:28Z</time>
      </trkpt>
      <trkpt lat="44.46237" lon="6.87086">
        <ele>2215.514</ele>
        <time>2017-03-12T09:01:40Z</time>
      </trkpt>
      <trkpt lat="44.46243" lon="6.87089">
        <ele>2216.185</ele>
        <time>2017-03-12T09:01:57Z</time>
      </trkpt>
      <trkpt lat="44.46247" lon="6.87092">
        <ele>2217.152</ele>
        <time>2017-03-12T09:02:05Z</time>
      </trkpt>
      <trkpt lat="44.46253" lon="6.87098">
        <ele>2218.236</ele>
        <time>2017-03-12T09:02:18Z</time>
      </trkpt>
      <trkpt lat="44.46258" lon="6.8711">
        <ele>2219.929</ele>
        <time>2017-03-12T09:02:32Z</time>
      </trkpt>
      <trkpt lat="44.46262" lon="6.87118">
        <ele>2221.473</ele>
        <time>2017-03-12T09:02:44Z</time>
      </trkpt>
      <trkpt lat="44.46264" lon="6.87125">
        <ele>2223.042</ele>
        <time>2017-03-12T09:02:55Z</time>
      </trkpt>
      <trkpt lat="44.46269" lon="6.87137">
        <ele>2225.782</ele>
        <time>2017-03-12T09:03:12Z</time>
      </trkpt>
      <trkpt lat="44.46271" lon="6.87146">
        <ele>2226.782</ele>
        <time>2017-03-12T09:05:40Z</time>
      </trkpt>
      <trkpt lat="44.46279" lon="6.87166">
        <ele>2228.87</ele>
        <time>2017-03-12T09:05:59Z</time>
      </trkpt>
      <trkpt lat="44.46284" lon="6.87184">
        <ele>2229.468</ele>
        <time>2017-03-12T09:06:17Z</time>
      </trkpt>
      <trkpt lat="44.46284" lon="6.872">
        <ele>2231.1</ele>
        <time>2017-03-12T09:06:34Z</time>
      </trkpt>
      <trkpt lat="44.46285" lon="6.87213">
        <ele>2232.56</ele>
        <time>2017-03-12T09:06:49Z</time>
      </trkpt>
      <trkpt lat="44.46291" lon="6.8723">
        <ele>2234.798</ele>
        <time>2017-03-12T09:07:09Z</time>
      </trkpt>
      <trkpt lat="44.46297" lon="6.87245">
        <ele>2236.501</ele>
        <time>2017-03-12T09:07:26Z</time>
      </trkpt>
      <trkpt lat="44.46303" lon="6.87256">
        <ele>2237.343</ele>
        <time>2017-03-12T09:07:39Z</time>
      </trkpt>
      <trkpt lat="44.46308" lon="6.87271">
        <ele>2239.261</ele>
        <time>2017-03-12T09:07:55Z</time>
      </trkpt>
      <trkpt lat="44.46316" lon="6.87278">
        <ele>2241.177</ele>
        <time>2017-03-12T09:08:09Z</time>
      </trkpt>
      <trkpt lat="44.46322" lon="6.87281">
        <ele>2244.027</ele>
        <time>2017-03-12T09:08:23Z</time>
      </trkpt>
      <trkpt lat="44.46332" lon="6.87287">
        <ele>2246.137</ele>
        <time>2017-03-12T09:08:39Z</time>
      </trkpt>
      <trkpt lat="44.46342" lon="6.87293">
        <ele>2247.403</ele>
        <time>2017-03-12T09:08:57Z</time>
      </trkpt>
      <trkpt lat="44.46349" lon="6.87299">
        <ele>2248.851</ele>
        <time>2017-03-12T09:09:10Z</time>
      </trkpt>
      <trkpt lat="44.46353" lon="6.87303">
        <ele>2250.014</ele>
        <time>2017-03-12T09:09:22Z</time>
      </trkpt>
      <trkpt lat="44.46361" lon="6.87306">
        <ele>2252.976</ele>
        <time>2017-03-12T09:09:37Z</time>
      </trkpt>
      <trkpt lat="44.46368" lon="6.87307">
        <ele>2254.475</ele>
        <time>2017-03-12T09:09:50Z</time>
      </trkpt>
      <trkpt lat="44.46376" lon="6.87306">
        <ele>2256.19</ele>
        <time>2017-03-12T09:10:03Z</time>
      </trkpt>
      <trkpt lat="44.46383" lon="6.87308">
        <ele>2257.862</ele>
        <time>2017-03-12T09:10:15Z</time>
      </trkpt>
      <trkpt lat="44.46388" lon="6.8731">
        <ele>2259.434</ele>
        <time>2017-03-12T09:10:46Z</time>
      </trkpt>
      <trkpt lat="44.46397" lon="6.87316">
        <ele>2260.748</ele>
        <time>2017-03-12T09:11:03Z</time>
      </trkpt>
      <trkpt lat="44.46398" lon="6.87323">
        <ele>2262.215</ele>
        <time>2017-03-12T09:11:15Z</time>
      </trkpt>
      <trkpt lat="44.46399" lon="6.87337">
        <ele>2264.257</ele>
        <time>2017-03-12T09:11:30Z</time>
      </trkpt>
      <trkpt lat="44.46401" lon="6.87346">
        <ele>2264.81</ele>
        <time>2017-03-12T09:11:43Z</time>
      </trkpt>
      <trkpt lat="44.46401" lon="6.87351">
        <ele>2264.882</ele>
        <time>2017-03-12T09:11:54Z</time>
      </trkpt>
      <trkpt lat="44.46399" lon="6.87355">
        <ele>2265.489</ele>
        <time>2017-03-12T09:12:03Z</time>
      </trkpt>
      <trkpt lat="44.46395" lon="6.87371">
        <ele>2265.714</ele>
        <time>2017-03-12T09:12:17Z</time>
      </trkpt>
      <trkpt lat="44.46391" lon="6.87394">
        <ele>2263.319</ele>
        <time>2017-03-12T09:12:31Z</time>
      </trkpt>
      <trkpt lat="44.46386" lon="6.87417">
        <ele>2260.082</ele>
        <time>2017-03-12T09:12:42Z</time>
      </trkpt>
      <trkpt lat="44.46385" lon="6.87419">
        <ele>2260.346</ele>
        <time>2017-03-12T09:12:44Z</time>
      </trkpt>
      <trkpt lat="44.46384" lon="6.87437">
        <ele>2258.688</ele>
        <time>2017-03-12T09:12:57Z</time>
      </trkpt>
      <trkpt lat="44.46388" lon="6.87448">
        <ele>2257.514</ele>
        <time>2017-03-12T09:13:04Z</time>
      </trkpt>
      <trkpt lat="44.46394" lon="6.87455">
        <ele>2255.372</ele>
        <time>2017-03-12T09:13:09Z</time>
      </trkpt>
      <trkpt lat="44.46405" lon="6.87454">
        <ele>2254.464</ele>
        <time>2017-03-12T09:13:21Z</time>
      </trkpt>
      <trkpt lat="44.4641" lon="6.87452">
        <ele>2255.729</ele>
        <time>2017-03-12T09:13:42Z</time>
      </trkpt>
      <trkpt lat="44.46416" lon="6.87448">
        <ele>2256.862</ele>
        <time>2017-03-12T09:13:52Z</time>
      </trkpt>
      <trkpt lat="44.46419" lon="6.87446">
        <ele>2257.798</ele>
        <time>2017-03-12T09:14:02Z</time>
      </trkpt>
      <trkpt lat="44.46422" lon="6.87444">
        <ele>2258.069</ele>
        <time>2017-03-12T09:14:23Z</time>
      </trkpt>
      <trkpt lat="44.4643" lon="6.87437">
        <ele>2258.661</ele>
        <time>2017-03-12T09:14:36Z</time>
      </trkpt>
      <trkpt lat="44.46442" lon="6.87425">
        <ele>2258.937</ele>
        <time>2017-03-12T09:14:53Z</time>
      </trkpt>
      <trkpt lat="44.46454" lon="6.87411">
        <ele>2260.941</ele>
        <time>2017-03-12T09:15:17Z</time>
      </trkpt>
      <trkpt lat="44.46458" lon="6.87408">
        <ele>2262.44</ele>
        <time>2017-03-12T09:15:30Z</time>
      </trkpt>
      <trkpt lat="44.46463" lon="6.874">
        <ele>2262.962</ele>
        <time>2017-03-12T09:26:15Z</time>
      </trkpt>
      <trkpt lat="44.4647" lon="6.87387">
        <ele>2262.75</ele>
        <time>2017-03-12T09:26:29Z</time>
      </trkpt>
      <trkpt lat="44.46476" lon="6.8737">
        <ele>2262.003</ele>
        <time>2017-03-12T09:26:42Z</time>
      </trkpt>
      <trkpt lat="44.46485" lon="6.87351">
        <ele>2261.475</ele>
        <time>2017-03-12T09:26:57Z</time>
      </trkpt>
      <trkpt lat="44.4649" lon="6.87345">
        <ele>2261.864</ele>
        <time>2017-03-12T09:27:09Z</time>
      </trkpt>
      <trkpt lat="44.46491" lon="6.87344">
        <ele>2262.135</ele>
        <time>2017-03-12T09:27:16Z</time>
      </trkpt>
      <trkpt lat="44.46497" lon="6.87332">
        <ele>2262.174</ele>
        <time>2017-03-12T09:27:29Z</time>
      </trkpt>
      <trkpt lat="44.46504" lon="6.87316">
        <ele>2262.367</ele>
        <time>2017-03-12T09:27:45Z</time>
      </trkpt>
      <trkpt lat="44.46514" lon="6.87296">
        <ele>2264.109</ele>
        <time>2017-03-12T09:28:08Z</time>
      </trkpt>
      <trkpt lat="44.46524" lon="6.8728">
        <ele>2265.417</ele>
        <time>2017-03-12T09:28:29Z</time>
      </trkpt>
      <trkpt lat="44.46529" lon="6.8727">
        <ele>2266.253</ele>
        <time>2017-03-12T09:28:44Z</time>
      </trkpt>
      <trkpt lat="44.46539" lon="6.87247">
        <ele>2268.787</ele>
        <time>2017-03-12T09:29:13Z</time>
      </trkpt>
      <trkpt lat="44.46549" lon="6.87229">
        <ele>2271.371</ele>
        <time>2017-03-12T09:29:41Z</time>
      </trkpt>
      <trkpt lat="44.46552" lon="6.87219">
        <ele>2272.868</ele>
        <time>2017-03-12T09:29:57Z</time>
      </trkpt>
      <trkpt lat="44.46559" lon="6.87204">
        <ele>2275.529</ele>
        <time>2017-03-12T09:30:20Z</time>
      </trkpt>
      <trkpt lat="44.46562" lon="6.87195">
        <ele>2277.215</ele>
        <time>2017-03-12T09:30:34Z</time>
      </trkpt>
      <trkpt lat="44.46569" lon="6.87176">
        <ele>2280.511</ele>
        <time>2017-03-12T09:31:01Z</time>
      </trkpt>
      <trkpt lat="44.46572" lon="6.87169">
        <ele>2282.7</ele>
        <time>2017-03-12T09:31:15Z</time>
      </trkpt>
      <trkpt lat="44.46577" lon="6.87161">
        <ele>2284.652</ele>
        <time>2017-03-12T09:31:30Z</time>
      </trkpt>
      <trkpt lat="44.46581" lon="6.87151">
        <ele>2286.241</ele>
        <time>2017-03-12T09:31:45Z</time>
      </trkpt>
      <trkpt lat="44.46583" lon="6.87141">
        <ele>2288.688</ele>
        <time>2017-03-12T09:32:01Z</time>
      </trkpt>
      <trkpt lat="44.46588" lon="6.8713">
        <ele>2291.07</ele>
        <time>2017-03-12T09:32:20Z</time>
      </trkpt>
      <trkpt lat="44.46594" lon="6.87119">
        <ele>2293.9</ele>
        <time>2017-03-12T09:32:40Z</time>
      </trkpt>
      <trkpt lat="44.46598" lon="6.87112">
        <ele>2295.538</ele>
        <time>2017-03-12T09:32:53Z</time>
      </trkpt>
      <trkpt lat="44.466" lon="6.87109">
        <ele>2296.366</ele>
        <time>2017-03-12T09:33:01Z</time>
      </trkpt>
      <trkpt lat="44.46602" lon="6.87105">
        <ele>2297.809</ele>
        <time>2017-03-12T09:33:10Z</time>
      </trkpt>
      <trkpt lat="44.46604" lon="6.87101">
        <ele>2298.396</ele>
        <time>2017-03-12T09:33:18Z</time>
      </trkpt>
      <trkpt lat="44.46607" lon="6.87096">
        <ele>2299.892</ele>
        <time>2017-03-12T09:33:28Z</time>
      </trkpt>
      <trkpt lat="44.46614" lon="6.87084">
        <ele>2301.399</ele>
        <time>2017-03-12T09:33:49Z</time>
      </trkpt>
      <trkpt lat="44.4662" lon="6.87072">
        <ele>2304.599</ele>
        <time>2017-03-12T09:34:11Z</time>
      </trkpt>
      <trkpt lat="44.46625" lon="6.87065">
        <ele>2306.089</ele>
        <time>2017-03-12T09:34:26Z</time>
      </trkpt>
      <trkpt lat="44.4663" lon="6.87056">
        <ele>2308.825</ele>
        <time>2017-03-12T09:34:46Z</time>
      </trkpt>
      <trkpt lat="44.46633" lon="6.87053">
        <ele>2309.577</ele>
        <time>2017-03-12T09:34:56Z</time>
      </trkpt>
      <trkpt lat="44.46637" lon="6.8705">
        <ele>2310.378</ele>
        <time>2017-03-12T09:35:04Z</time>
      </trkpt>
      <trkpt lat="44.4664" lon="6.87048">
        <ele>2311.392</ele>
        <time>2017-03-12T09:35:13Z</time>
      </trkpt>
      <trkpt lat="44.46642" lon="6.87045">
        <ele>2312.856</ele>
        <time>2017-03-12T09:35:21Z</time>
      </trkpt>
      <trkpt lat="44.46646" lon="6.87043">
        <ele>2313.492</ele>
        <time>2017-03-12T09:35:29Z</time>
      </trkpt>
      <trkpt lat="44.46652" lon="6.87032">
        <ele>2315.865</ele>
        <time>2017-03-12T09:35:46Z</time>
      </trkpt>
      <trkpt lat="44.46656" lon="6.87031">
        <ele>2316.793</ele>
        <time>2017-03-12T09:37:44Z</time>
      </trkpt>
      <trkpt lat="44.46667" lon="6.87024">
        <ele>2317.501</ele>
        <time>2017-03-12T09:37:58Z</time>
      </trkpt>
      <trkpt lat="44.46678" lon="6.87014">
        <ele>2319.474</ele>
        <time>2017-03-12T09:38:15Z</time>
      </trkpt>
      <trkpt lat="44.46696" lon="6.87002">
        <ele>2320.913</ele>
        <time>2017-03-12T09:38:42Z</time>
      </trkpt>
      <trkpt lat="44.46707" lon="6.86993">
        <ele>2321.909</ele>
        <time>2017-03-12T09:38:59Z</time>
      </trkpt>
      <trkpt lat="44.46723" lon="6.8698">
        <ele>2322.596</ele>
        <time>2017-03-12T09:39:20Z</time>
      </trkpt>
      <trkpt lat="44.46735" lon="6.86968">
        <ele>2322.789</ele>
        <time>2017-03-12T09:39:38Z</time>
      </trkpt>
      <trkpt lat="44.46739" lon="6.86964">
        <ele>2323.456</ele>
        <time>2017-03-12T09:39:50Z</time>
      </trkpt>
      <trkpt lat="44.46744" lon="6.8696">
        <ele>2323.467</ele>
        <time>2017-03-12T09:40:15Z</time>
      </trkpt>
      <trkpt lat="44.46757" lon="6.86951">
        <ele>2325.308</ele>
        <time>2017-03-12T09:40:34Z</time>
      </trkpt>
      <trkpt lat="44.46772" lon="6.86936">
        <ele>2326.917</ele>
        <time>2017-03-12T09:40:58Z</time>
      </trkpt>
      <trkpt lat="44.46787" lon="6.86924">
        <ele>2327.544</ele>
        <time>2017-03-12T09:41:20Z</time>
      </trkpt>
      <trkpt lat="44.46798" lon="6.86915">
        <ele>2327.432</ele>
        <time>2017-03-12T09:41:39Z</time>
      </trkpt>
      <trkpt lat="44.46803" lon="6.86912">
        <ele>2327.629</ele>
        <time>2017-03-12T09:41:50Z</time>
      </trkpt>
      <trkpt lat="44.46819" lon="6.869">
        <ele>2330.183</ele>
        <time>2017-03-12T09:42:16Z</time>
      </trkpt>
      <trkpt lat="44.46834" lon="6.8689">
        <ele>2331.84</ele>
        <time>2017-03-12T09:42:42Z</time>
      </trkpt>
      <trkpt lat="44.46846" lon="6.86883">
        <ele>2334.99</ele>
        <time>2017-03-12T09:43:04Z</time>
      </trkpt>
      <trkpt lat="44.46861" lon="6.86874">
        <ele>2337.775</ele>
        <time>2017-03-12T09:43:33Z</time>
      </trkpt>
      <trkpt lat="44.46871" lon="6.86868">
        <ele>2340.035</ele>
        <time>2017-03-12T09:43:52Z</time>
      </trkpt>
      <trkpt lat="44.46884" lon="6.86852">
        <ele>2342.706</ele>
        <time>2017-03-12T09:44:20Z</time>
      </trkpt>
      <trkpt lat="44.46897" lon="6.86833">
        <ele>2344.059</ele>
        <time>2017-03-12T09:44:45Z</time>
      </trkpt>
      <trkpt lat="44.46908" lon="6.86822">
        <ele>2346.057</ele>
        <time>2017-03-12T09:45:06Z</time>
      </trkpt>
      <trkpt lat="44.4692" lon="6.86809">
        <ele>2348.755</ele>
        <time>2017-03-12T09:45:33Z</time>
      </trkpt>
      <trkpt lat="44.46927" lon="6.86803">
        <ele>2350.683</ele>
        <time>2017-03-12T09:45:50Z</time>
      </trkpt>
      <trkpt lat="44.46935" lon="6.868">
        <ele>2351.982</ele>
        <time>2017-03-12T09:46:06Z</time>
      </trkpt>
      <trkpt lat="44.46941" lon="6.86798">
        <ele>2354.206</ele>
        <time>2017-03-12T09:46:21Z</time>
      </trkpt>
      <trkpt lat="44.46943" lon="6.86798">
        <ele>2354.638</ele>
        <time>2017-03-12T09:46:29Z</time>
      </trkpt>
      <trkpt lat="44.46946" lon="6.86795">
        <ele>2355.688</ele>
        <time>2017-03-12T09:46:36Z</time>
      </trkpt>
      <trkpt lat="44.4695" lon="6.86794">
        <ele>2356.824</ele>
        <time>2017-03-12T09:46:43Z</time>
      </trkpt>
      <trkpt lat="44.46953" lon="6.86793">
        <ele>2357.709</ele>
        <time>2017-03-12T09:46:51Z</time>
      </trkpt>
      <trkpt lat="44.46955" lon="6.86794">
        <ele>2358.649</ele>
        <time>2017-03-12T09:46:58Z</time>
      </trkpt>
      <trkpt lat="44.46959" lon="6.86793">
        <ele>2359.596</ele>
        <time>2017-03-12T09:47:04Z</time>
      </trkpt>
      <trkpt lat="44.46963" lon="6.86792">
        <ele>2360.195</ele>
        <time>2017-03-12T09:47:15Z</time>
      </trkpt>
      <trkpt lat="44.46968" lon="6.86788">
        <ele>2361.808</ele>
        <time>2017-03-12T09:47:26Z</time>
      </trkpt>
      <trkpt lat="44.46971" lon="6.86788">
        <ele>2362.156</ele>
        <time>2017-03-12T09:47:35Z</time>
      </trkpt>
      <trkpt lat="44.46976" lon="6.86784">
        <ele>2362.728</ele>
        <time>2017-03-12T09:47:45Z</time>
      </trkpt>
      <trkpt lat="44.46979" lon="6.86783">
        <ele>2363.278</ele>
        <time>2017-03-12T09:47:52Z</time>
      </trkpt>
      <trkpt lat="44.46983" lon="6.86781">
        <ele>2364.317</ele>
        <time>2017-03-12T09:48:00Z</time>
      </trkpt>
      <trkpt lat="44.4699" lon="6.86779">
        <ele>2366.066</ele>
        <time>2017-03-12T09:48:13Z</time>
      </trkpt>
      <trkpt lat="44.46994" lon="6.86777">
        <ele>2366.685</ele>
        <time>2017-03-12T09:48:20Z</time>
      </trkpt>
      <trkpt lat="44.46997" lon="6.86777">
        <ele>2367.172</ele>
        <time>2017-03-12T09:48:27Z</time>
      </trkpt>
      <trkpt lat="44.47002" lon="6.86775">
        <ele>2367.859</ele>
        <time>2017-03-12T09:48:34Z</time>
      </trkpt>
      <trkpt lat="44.47006" lon="6.86772">
        <ele>2368.954</ele>
        <time>2017-03-12T09:48:41Z</time>
      </trkpt>
      <trkpt lat="44.47014" lon="6.86766">
        <ele>2370.564</ele>
        <time>2017-03-12T09:48:58Z</time>
      </trkpt>
      <trkpt lat="44.47026" lon="6.86761">
        <ele>2373.348</ele>
        <time>2017-03-12T09:49:22Z</time>
      </trkpt>
      <trkpt lat="44.47034" lon="6.86755">
        <ele>2374.922</ele>
        <time>2017-03-12T09:49:40Z</time>
      </trkpt>
      <trkpt lat="44.47043" lon="6.86752">
        <ele>2375.852</ele>
        <time>2017-03-12T09:49:56Z</time>
      </trkpt>
      <trkpt lat="44.47058" lon="6.86746">
        <ele>2378.124</ele>
        <time>2017-03-12T09:50:18Z</time>
      </trkpt>
      <trkpt lat="44.47068" lon="6.86746">
        <ele>2379.884</ele>
        <time>2017-03-12T09:50:36Z</time>
      </trkpt>
      <trkpt lat="44.47073" lon="6.86747">
        <ele>2380.452</ele>
        <time>2017-03-12T09:50:49Z</time>
      </trkpt>
      <trkpt lat="44.4708" lon="6.86748">
        <ele>2381.301</ele>
        <time>2017-03-12T09:51:05Z</time>
      </trkpt>
      <trkpt lat="44.47085" lon="6.86747">
        <ele>2382.079</ele>
        <time>2017-03-12T09:51:12Z</time>
      </trkpt>
      <trkpt lat="44.47094" lon="6.8675">
        <ele>2382.635</ele>
        <time>2017-03-12T09:51:24Z</time>
      </trkpt>
      <trkpt lat="44.47104" lon="6.86751">
        <ele>2383.266</ele>
        <time>2017-03-12T09:51:35Z</time>
      </trkpt>
      <trkpt lat="44.47113" lon="6.86751">
        <ele>2383.835</ele>
        <time>2017-03-12T09:51:45Z</time>
      </trkpt>
      <trkpt lat="44.4712" lon="6.86751">
        <ele>2384.44</ele>
        <time>2017-03-12T09:51:54Z</time>
      </trkpt>
      <trkpt lat="44.47129" lon="6.8675">
        <ele>2385.247</ele>
        <time>2017-03-12T09:52:06Z</time>
      </trkpt>
      <trkpt lat="44.47137" lon="6.86746">
        <ele>2386.771</ele>
        <time>2017-03-12T09:52:19Z</time>
      </trkpt>
      <trkpt lat="44.47143" lon="6.86743">
        <ele>2387.586</ele>
        <time>2017-03-12T09:52:29Z</time>
      </trkpt>
      <trkpt lat="44.47147" lon="6.8674">
        <ele>2388.364</ele>
        <time>2017-03-12T09:52:36Z</time>
      </trkpt>
      <trkpt lat="44.47157" lon="6.86735">
        <ele>2390.473</ele>
        <time>2017-03-12T09:52:53Z</time>
      </trkpt>
      <trkpt lat="44.47159" lon="6.86733">
        <ele>2390.686</ele>
        <time>2017-03-12T09:53:01Z</time>
      </trkpt>
      <trkpt lat="44.47161" lon="6.86731">
        <ele>2390.38</ele>
        <time>2017-03-12T09:53:34Z</time>
      </trkpt>
      <trkpt lat="44.47174" lon="6.86721">
        <ele>2392.052</ele>
        <time>2017-03-12T09:53:53Z</time>
      </trkpt>
      <trkpt lat="44.47186" lon="6.86711">
        <ele>2394.129</ele>
        <time>2017-03-12T09:54:14Z</time>
      </trkpt>
      <trkpt lat="44.47198" lon="6.867">
        <ele>2395.917</ele>
        <time>2017-03-12T09:54:33Z</time>
      </trkpt>
      <trkpt lat="44.47209" lon="6.8669">
        <ele>2397.112</ele>
        <time>2017-03-12T09:54:52Z</time>
      </trkpt>
      <trkpt lat="44.47219" lon="6.86682">
        <ele>2399.235</ele>
        <time>2017-03-12T09:55:11Z</time>
      </trkpt>
      <trkpt lat="44.47225" lon="6.86679">
        <ele>2399.969</ele>
        <time>2017-03-12T09:55:24Z</time>
      </trkpt>
      <trkpt lat="44.47228" lon="6.86677">
        <ele>2400.315</ele>
        <time>2017-03-12T09:55:56Z</time>
      </trkpt>
      <trkpt lat="44.4724" lon="6.86669">
        <ele>2401.542</ele>
        <time>2017-03-12T09:56:12Z</time>
      </trkpt>
      <trkpt lat="44.47252" lon="6.86668">
        <ele>2401.215</ele>
        <time>2017-03-12T09:56:26Z</time>
      </trkpt>
      <trkpt lat="44.4726" lon="6.86666">
        <ele>2401.171</ele>
        <time>2017-03-12T09:56:35Z</time>
      </trkpt>
      <trkpt lat="44.47269" lon="6.8666">
        <ele>2401.81</ele>
        <time>2017-03-12T09:56:48Z</time>
      </trkpt>
      <trkpt lat="44.47278" lon="6.86658">
        <ele>2402.624</ele>
        <time>2017-03-12T09:56:58Z</time>
      </trkpt>
      <trkpt lat="44.47289" lon="6.86655">
        <ele>2403.332</ele>
        <time>2017-03-12T09:57:11Z</time>
      </trkpt>
      <trkpt lat="44.47299" lon="6.8665">
        <ele>2403.845</ele>
        <time>2017-03-12T09:57:25Z</time>
      </trkpt>
      <trkpt lat="44.4731" lon="6.86649">
        <ele>2403.825</ele>
        <time>2017-03-12T09:57:38Z</time>
      </trkpt>
      <trkpt lat="44.47321" lon="6.86651">
        <ele>2404.385</ele>
        <time>2017-03-12T09:57:52Z</time>
      </trkpt>
      <trkpt lat="44.4733" lon="6.86649">
        <ele>2405.03</ele>
        <time>2017-03-12T09:58:04Z</time>
      </trkpt>
      <trkpt lat="44.47338" lon="6.86649">
        <ele>2405.535</ele>
        <time>2017-03-12T09:58:15Z</time>
      </trkpt>
      <trkpt lat="44.47345" lon="6.86647">
        <ele>2405.824</ele>
        <time>2017-03-12T09:58:24Z</time>
      </trkpt>
      <trkpt lat="44.4735" lon="6.86643">
        <ele>2406.254</ele>
        <time>2017-03-12T09:58:32Z</time>
      </trkpt>
      <trkpt lat="44.47358" lon="6.86638">
        <ele>2406.203</ele>
        <time>2017-03-12T09:58:44Z</time>
      </trkpt>
      <trkpt lat="44.47364" lon="6.86636">
        <ele>2406.921</ele>
        <time>2017-03-12T09:58:53Z</time>
      </trkpt>
      <trkpt lat="44.4737" lon="6.86633">
        <ele>2407.636</ele>
        <time>2017-03-12T09:59:03Z</time>
      </trkpt>
      <trkpt lat="44.47378" lon="6.8663">
        <ele>2408.291</ele>
        <time>2017-03-12T09:59:14Z</time>
      </trkpt>
      <trkpt lat="44.47385" lon="6.86628">
        <ele>2409.013</ele>
        <time>2017-03-12T09:59:25Z</time>
      </trkpt>
      <trkpt lat="44.4739" lon="6.86628">
        <ele>2410.071</ele>
        <time>2017-03-12T09:59:32Z</time>
      </trkpt>
      <trkpt lat="44.47393" lon="6.86627">
        <ele>2410.144</ele>
        <time>2017-03-12T09:59:38Z</time>
      </trkpt>
      <trkpt lat="44.47398" lon="6.86625">
        <ele>2410.961</ele>
        <time>2017-03-12T09:59:49Z</time>
      </trkpt>
      <trkpt lat="44.47405" lon="6.86619">
        <ele>2412.572</ele>
        <time>2017-03-12T10:00:08Z</time>
      </trkpt>
      <trkpt lat="44.47414" lon="6.86617">
        <ele>2414.677</ele>
        <time>2017-03-12T10:00:24Z</time>
      </trkpt>
      <trkpt lat="44.47421" lon="6.86613">
        <ele>2415.805</ele>
        <time>2017-03-12T10:00:37Z</time>
      </trkpt>
      <trkpt lat="44.47429" lon="6.8661">
        <ele>2416.887</ele>
        <time>2017-03-12T10:00:52Z</time>
      </trkpt>
      <trkpt lat="44.47436" lon="6.86606">
        <ele>2418.246</ele>
        <time>2017-03-12T10:01:06Z</time>
      </trkpt>
      <trkpt lat="44.47439" lon="6.86603">
        <ele>2419.322</ele>
        <time>2017-03-12T10:01:16Z</time>
      </trkpt>
      <trkpt lat="44.47444" lon="6.86603">
        <ele>2420.067</ele>
        <time>2017-03-12T10:01:24Z</time>
      </trkpt>
      <trkpt lat="44.47449" lon="6.86599">
        <ele>2421.428</ele>
        <time>2017-03-12T10:01:37Z</time>
      </trkpt>
      <trkpt lat="44.47453" lon="6.86599">
        <ele>2421.604</ele>
        <time>2017-03-12T10:01:44Z</time>
      </trkpt>
      <trkpt lat="44.47457" lon="6.86599">
        <ele>2423.119</ele>
        <time>2017-03-12T10:01:50Z</time>
      </trkpt>
      <trkpt lat="44.47462" lon="6.86599">
        <ele>2423.705</ele>
        <time>2017-03-12T10:01:59Z</time>
      </trkpt>
      <trkpt lat="44.47466" lon="6.86602">
        <ele>2424.733</ele>
        <time>2017-03-12T10:02:13Z</time>
      </trkpt>
      <trkpt lat="44.47474" lon="6.86608">
        <ele>2426.456</ele>
        <time>2017-03-12T10:02:28Z</time>
      </trkpt>
      <trkpt lat="44.47482" lon="6.86613">
        <ele>2427.67</ele>
        <time>2017-03-12T10:02:44Z</time>
      </trkpt>
      <trkpt lat="44.47491" lon="6.86616">
        <ele>2429.235</ele>
        <time>2017-03-12T10:03:00Z</time>
      </trkpt>
      <trkpt lat="44.47496" lon="6.86619">
        <ele>2431.047</ele>
        <time>2017-03-12T10:03:11Z</time>
      </trkpt>
      <trkpt lat="44.47501" lon="6.86622">
        <ele>2432.288</ele>
        <time>2017-03-12T10:03:22Z</time>
      </trkpt>
      <trkpt lat="44.47506" lon="6.86626">
        <ele>2433.816</ele>
        <time>2017-03-12T10:03:34Z</time>
      </trkpt>
      <trkpt lat="44.47513" lon="6.86631">
        <ele>2435.206</ele>
        <time>2017-03-12T10:03:48Z</time>
      </trkpt>
      <trkpt lat="44.47518" lon="6.86635">
        <ele>2436.472</ele>
        <time>2017-03-12T10:04:00Z</time>
      </trkpt>
      <trkpt lat="44.47524" lon="6.86641">
        <ele>2437.995</ele>
        <time>2017-03-12T10:04:12Z</time>
      </trkpt>
      <trkpt lat="44.47531" lon="6.86646">
        <ele>2439.625</ele>
        <time>2017-03-12T10:04:24Z</time>
      </trkpt>
      <trkpt lat="44.47534" lon="6.86649">
        <ele>2440.735</ele>
        <time>2017-03-12T10:04:32Z</time>
      </trkpt>
      <trkpt lat="44.47538" lon="6.86652">
        <ele>2441.633</ele>
        <time>2017-03-12T10:04:40Z</time>
      </trkpt>
      <trkpt lat="44.47542" lon="6.86656">
        <ele>2442.279</ele>
        <time>2017-03-12T10:04:49Z</time>
      </trkpt>
      <trkpt lat="44.47546" lon="6.8666">
        <ele>2443.448</ele>
        <time>2017-03-12T10:04:56Z</time>
      </trkpt>
      <trkpt lat="44.47551" lon="6.86662">
        <ele>2444.056</ele>
        <time>2017-03-12T10:05:03Z</time>
      </trkpt>
      <trkpt lat="44.47554" lon="6.86662">
        <ele>2445.158</ele>
        <time>2017-03-12T10:05:11Z</time>
      </trkpt>
      <trkpt lat="44.47556" lon="6.86666">
        <ele>2445.098</ele>
        <time>2017-03-12T10:05:23Z</time>
      </trkpt>
      <trkpt lat="44.47559" lon="6.86667">
        <ele>2446.286</ele>
        <time>2017-03-12T10:05:30Z</time>
      </trkpt>
      <trkpt lat="44.47563" lon="6.8667">
        <ele>2446.757</ele>
        <time>2017-03-12T10:05:37Z</time>
      </trkpt>
      <trkpt lat="44.47568" lon="6.86675">
        <ele>2447.462</ele>
        <time>2017-03-12T10:05:46Z</time>
      </trkpt>
      <trkpt lat="44.47574" lon="6.8668">
        <ele>2448.532</ele>
        <time>2017-03-12T10:05:56Z</time>
      </trkpt>
      <trkpt lat="44.47579" lon="6.86685">
        <ele>2449.667</ele>
        <time>2017-03-12T10:06:04Z</time>
      </trkpt>
      <trkpt lat="44.47586" lon="6.86692">
        <ele>2450.981</ele>
        <time>2017-03-12T10:06:17Z</time>
      </trkpt>
      <trkpt lat="44.47591" lon="6.86694">
        <ele>2452.606</ele>
        <time>2017-03-12T10:06:29Z</time>
      </trkpt>
      <trkpt lat="44.47595" lon="6.86695">
        <ele>2453.418</ele>
        <time>2017-03-12T10:06:39Z</time>
      </trkpt>
      <trkpt lat="44.4761" lon="6.86703">
        <ele>2456.538</ele>
        <time>2017-03-12T10:07:05Z</time>
      </trkpt>
      <trkpt lat="44.47619" lon="6.86702">
        <ele>2458.846</ele>
        <time>2017-03-12T10:07:21Z</time>
      </trkpt>
      <trkpt lat="44.47626" lon="6.867">
        <ele>2460.615</ele>
        <time>2017-03-12T10:07:34Z</time>
      </trkpt>
      <trkpt lat="44.47634" lon="6.867">
        <ele>2463.061</ele>
        <time>2017-03-12T10:07:51Z</time>
      </trkpt>
      <trkpt lat="44.47641" lon="6.86701">
        <ele>2464.323</ele>
        <time>2017-03-12T10:08:02Z</time>
      </trkpt>
      <trkpt lat="44.47648" lon="6.86702">
        <ele>2465.79</ele>
        <time>2017-03-12T10:08:15Z</time>
      </trkpt>
      <trkpt lat="44.47651" lon="6.86702">
        <ele>2467.012</ele>
        <time>2017-03-12T10:08:24Z</time>
      </trkpt>
      <trkpt lat="44.47659" lon="6.86702">
        <ele>2468.729</ele>
        <time>2017-03-12T10:08:38Z</time>
      </trkpt>
      <trkpt lat="44.47665" lon="6.867">
        <ele>2470.6</ele>
        <time>2017-03-12T10:08:52Z</time>
      </trkpt>
      <trkpt lat="44.47672" lon="6.86697">
        <ele>2472.782</ele>
        <time>2017-03-12T10:09:07Z</time>
      </trkpt>
      <trkpt lat="44.47676" lon="6.86695">
        <ele>2472.973</ele>
        <time>2017-03-12T10:09:16Z</time>
      </trkpt>
      <trkpt lat="44.47682" lon="6.86695">
        <ele>2474.856</ele>
        <time>2017-03-12T10:09:28Z</time>
      </trkpt>
      <trkpt lat="44.47688" lon="6.86696">
        <ele>2476.479</ele>
        <time>2017-03-12T10:09:41Z</time>
      </trkpt>
      <trkpt lat="44.47699" lon="6.86699">
        <ele>2479.583</ele>
        <time>2017-03-12T10:10:00Z</time>
      </trkpt>
      <trkpt lat="44.47703" lon="6.86706">
        <ele>2481.149</ele>
        <time>2017-03-12T10:10:15Z</time>
      </trkpt>
      <trkpt lat="44.47708" lon="6.86714">
        <ele>2482.751</ele>
        <time>2017-03-12T10:10:28Z</time>
      </trkpt>
      <trkpt lat="44.47712" lon="6.86722">
        <ele>2484.848</ele>
        <time>2017-03-12T10:10:43Z</time>
      </trkpt>
      <trkpt lat="44.47717" lon="6.86728">
        <ele>2486.793</ele>
        <time>2017-03-12T10:10:57Z</time>
      </trkpt>
      <trkpt lat="44.47719" lon="6.86729">
        <ele>2487.804</ele>
        <time>2017-03-12T10:11:10Z</time>
      </trkpt>
      <trkpt lat="44.47724" lon="6.8673">
        <ele>2489.847</ele>
        <time>2017-03-12T10:11:36Z</time>
      </trkpt>
      <trkpt lat="44.47732" lon="6.86729">
        <ele>2491.222</ele>
        <time>2017-03-12T10:11:48Z</time>
      </trkpt>
      <trkpt lat="44.47741" lon="6.86727">
        <ele>2492.605</ele>
        <time>2017-03-12T10:12:02Z</time>
      </trkpt>
      <trkpt lat="44.47745" lon="6.86725">
        <ele>2493.628</ele>
        <time>2017-03-12T10:12:11Z</time>
      </trkpt>
      <trkpt lat="44.47749" lon="6.86723">
        <ele>2495.437</ele>
        <time>2017-03-12T10:12:21Z</time>
      </trkpt>
      <trkpt lat="44.47757" lon="6.86722">
        <ele>2497.33</ele>
        <time>2017-03-12T10:12:36Z</time>
      </trkpt>
      <trkpt lat="44.47764" lon="6.86724">
        <ele>2497.961</ele>
        <time>2017-03-12T10:12:49Z</time>
      </trkpt>
      <trkpt lat="44.47773" lon="6.86727">
        <ele>2500.111</ele>
        <time>2017-03-12T10:13:09Z</time>
      </trkpt>
      <trkpt lat="44.47786" lon="6.86727">
        <ele>2503.072</ele>
        <time>2017-03-12T10:13:32Z</time>
      </trkpt>
      <trkpt lat="44.47796" lon="6.86732">
        <ele>2504.964</ele>
        <time>2017-03-12T10:13:50Z</time>
      </trkpt>
      <trkpt lat="44.47806" lon="6.86736">
        <ele>2506.955</ele>
        <time>2017-03-12T10:14:08Z</time>
      </trkpt>
      <trkpt lat="44.47812" lon="6.86739">
        <ele>2507.844</ele>
        <time>2017-03-12T10:14:22Z</time>
      </trkpt>
      <trkpt lat="44.47824" lon="6.86748">
        <ele>2509.569</ele>
        <time>2017-03-12T10:14:41Z</time>
      </trkpt>
      <trkpt lat="44.47833" lon="6.86753">
        <ele>2511.692</ele>
        <time>2017-03-12T10:14:58Z</time>
      </trkpt>
      <trkpt lat="44.47844" lon="6.86758">
        <ele>2513.401</ele>
        <time>2017-03-12T10:15:19Z</time>
      </trkpt>
      <trkpt lat="44.47856" lon="6.86761">
        <ele>2515.318</ele>
        <time>2017-03-12T10:15:37Z</time>
      </trkpt>
      <trkpt lat="44.47861" lon="6.86761">
        <ele>2516.694</ele>
        <time>2017-03-12T10:15:51Z</time>
      </trkpt>
      <trkpt lat="44.47867" lon="6.86764">
        <ele>2518.715</ele>
        <time>2017-03-12T10:16:02Z</time>
      </trkpt>
      <trkpt lat="44.47875" lon="6.86766">
        <ele>2519.81</ele>
        <time>2017-03-12T10:16:15Z</time>
      </trkpt>
      <trkpt lat="44.47883" lon="6.86771">
        <ele>2521.27</ele>
        <time>2017-03-12T10:16:31Z</time>
      </trkpt>
      <trkpt lat="44.47891" lon="6.86774">
        <ele>2522.566</ele>
        <time>2017-03-12T10:16:44Z</time>
      </trkpt>
      <trkpt lat="44.47896" lon="6.86775">
        <ele>2524.052</ele>
        <time>2017-03-12T10:16:55Z</time>
      </trkpt>
      <trkpt lat="44.47906" lon="6.86779">
        <ele>2526.512</ele>
        <time>2017-03-12T10:17:14Z</time>
      </trkpt>
      <trkpt lat="44.47911" lon="6.86779">
        <ele>2528.859</ele>
        <time>2017-03-12T10:17:29Z</time>
      </trkpt>
      <trkpt lat="44.47919" lon="6.86771">
        <ele>2530.594</ele>
        <time>2017-03-12T10:17:44Z</time>
      </trkpt>
      <trkpt lat="44.47921" lon="6.86771">
        <ele>2532.06</ele>
        <time>2017-03-12T10:18:19Z</time>
      </trkpt>
      <trkpt lat="44.47936" lon="6.86773">
        <ele>2535.017</ele>
        <time>2017-03-12T10:18:39Z</time>
      </trkpt>
      <trkpt lat="44.47946" lon="6.86777">
        <ele>2537.61</ele>
        <time>2017-03-12T10:18:58Z</time>
      </trkpt>
      <trkpt lat="44.47954" lon="6.86776">
        <ele>2539.538</ele>
        <time>2017-03-12T10:19:14Z</time>
      </trkpt>
      <trkpt lat="44.47954" lon="6.86761">
        <ele>2541.408</ele>
        <time>2017-03-12T10:19:29Z</time>
      </trkpt>
      <trkpt lat="44.47958" lon="6.86764">
        <ele>2542.987</ele>
        <time>2017-03-12T10:19:58Z</time>
      </trkpt>
      <trkpt lat="44.47966" lon="6.86767">
        <ele>2545.498</ele>
        <time>2017-03-12T10:20:13Z</time>
      </trkpt>
      <trkpt lat="44.47975" lon="6.86772">
        <ele>2547.331</ele>
        <time>2017-03-12T10:20:26Z</time>
      </trkpt>
      <trkpt lat="44.47984" lon="6.86774">
        <ele>2549.055</ele>
        <time>2017-03-12T10:20:43Z</time>
      </trkpt>
      <trkpt lat="44.47994" lon="6.86776">
        <ele>2549.896</ele>
        <time>2017-03-12T10:20:57Z</time>
      </trkpt>
      <trkpt lat="44.48002" lon="6.86784">
        <ele>2550.779</ele>
        <time>2017-03-12T10:21:13Z</time>
      </trkpt>
      <trkpt lat="44.48008" lon="6.86791">
        <ele>2551.167</ele>
        <time>2017-03-12T10:21:27Z</time>
      </trkpt>
      <trkpt lat="44.48011" lon="6.86795">
        <ele>2551.344</ele>
        <time>2017-03-12T10:21:32Z</time>
      </trkpt>
      <trkpt lat="44.48023" lon="6.86801">
        <ele>2550.829</ele>
        <time>2017-03-12T10:21:49Z</time>
      </trkpt>
      <trkpt lat="44.48028" lon="6.86802">
        <ele>2550.885</ele>
        <time>2017-03-12T10:22:01Z</time>
      </trkpt>
      <trkpt lat="44.48034" lon="6.86797">
        <ele>2551.416</ele>
        <time>2017-03-12T10:22:25Z</time>
      </trkpt>
      <trkpt lat="44.48046" lon="6.8679">
        <ele>2552.618</ele>
        <time>2017-03-12T10:22:41Z</time>
      </trkpt>
      <trkpt lat="44.48055" lon="6.86783">
        <ele>2554.121</ele>
        <time>2017-03-12T10:22:56Z</time>
      </trkpt>
      <trkpt lat="44.48063" lon="6.86779">
        <ele>2555.444</ele>
        <time>2017-03-12T10:23:10Z</time>
      </trkpt>
      <trkpt lat="44.4807" lon="6.86776">
        <ele>2556.934</ele>
        <time>2017-03-12T10:23:21Z</time>
      </trkpt>
      <trkpt lat="44.4808" lon="6.86766">
        <ele>2557.696</ele>
        <time>2017-03-12T10:24:00Z</time>
      </trkpt>
      <trkpt lat="44.48092" lon="6.86759">
        <ele>2559.461</ele>
        <time>2017-03-12T10:24:19Z</time>
      </trkpt>
      <trkpt lat="44.48101" lon="6.86751">
        <ele>2561.3</ele>
        <time>2017-03-12T10:24:35Z</time>
      </trkpt>
      <trkpt lat="44.48112" lon="6.86743">
        <ele>2563.935</ele>
        <time>2017-03-12T10:24:57Z</time>
      </trkpt>
      <trkpt lat="44.48123" lon="6.86735">
        <ele>2565.487</ele>
        <time>2017-03-12T10:25:17Z</time>
      </trkpt>
      <trkpt lat="44.48133" lon="6.86727">
        <ele>2567.824</ele>
        <time>2017-03-12T10:25:39Z</time>
      </trkpt>
      <trkpt lat="44.4814" lon="6.86726">
        <ele>2569.184</ele>
        <time>2017-03-12T10:25:52Z</time>
      </trkpt>
      <trkpt lat="44.48146" lon="6.86721">
        <ele>2570.582</ele>
        <time>2017-03-12T10:26:05Z</time>
      </trkpt>
      <trkpt lat="44.48149" lon="6.86716">
        <ele>2571.119</ele>
        <time>2017-03-12T10:26:15Z</time>
      </trkpt>
      <trkpt lat="44.48154" lon="6.86715">
        <ele>2571.845</ele>
        <time>2017-03-12T10:26:24Z</time>
      </trkpt>
      <trkpt lat="44.48162" lon="6.86711">
        <ele>2574.668</ele>
        <time>2017-03-12T10:26:45Z</time>
      </trkpt>
      <trkpt lat="44.48168" lon="6.86709">
        <ele>2575.895</ele>
        <time>2017-03-12T10:26:57Z</time>
      </trkpt>
      <trkpt lat="44.48177" lon="6.86706">
        <ele>2577.566</ele>
        <time>2017-03-12T10:27:14Z</time>
      </trkpt>
      <trkpt lat="44.48182" lon="6.86705">
        <ele>2580.011</ele>
        <time>2017-03-12T10:27:29Z</time>
      </trkpt>
      <trkpt lat="44.48189" lon="6.86704">
        <ele>2581.768</ele>
        <time>2017-03-12T10:27:47Z</time>
      </trkpt>
      <trkpt lat="44.48196" lon="6.86704">
        <ele>2584.182</ele>
        <time>2017-03-12T10:28:04Z</time>
      </trkpt>
      <trkpt lat="44.48202" lon="6.86705">
        <ele>2584.742</ele>
        <time>2017-03-12T10:28:17Z</time>
      </trkpt>
      <trkpt lat="44.48209" lon="6.86704">
        <ele>2586.72</ele>
        <time>2017-03-12T10:28:30Z</time>
      </trkpt>
      <trkpt lat="44.4821" lon="6.867">
        <ele>2588.215</ele>
        <time>2017-03-12T10:29:03Z</time>
      </trkpt>
      <trkpt lat="44.4821" lon="6.86691">
        <ele>2590.424</ele>
        <time>2017-03-12T10:29:18Z</time>
      </trkpt>
      <trkpt lat="44.48211" lon="6.86688">
        <ele>2591.473</ele>
        <time>2017-03-12T10:29:31Z</time>
      </trkpt>
      <trkpt lat="44.48215" lon="6.86684">
        <ele>2592.166</ele>
        <time>2017-03-12T10:29:43Z</time>
      </trkpt>
      <trkpt lat="44.48222" lon="6.86676">
        <ele>2594.057</ele>
        <time>2017-03-12T10:30:00Z</time>
      </trkpt>
      <trkpt lat="44.48228" lon="6.86671">
        <ele>2596.073</ele>
        <time>2017-03-12T10:30:15Z</time>
      </trkpt>
      <trkpt lat="44.48232" lon="6.86668">
        <ele>2597.879</ele>
        <time>2017-03-12T10:30:30Z</time>
      </trkpt>
      <trkpt lat="44.48239" lon="6.86673">
        <ele>2600.504</ele>
        <time>2017-03-12T10:30:47Z</time>
      </trkpt>
      <trkpt lat="44.48246" lon="6.86673">
        <ele>2602.638</ele>
        <time>2017-03-12T10:31:02Z</time>
      </trkpt>
      <trkpt lat="44.48248" lon="6.86669">
        <ele>2603.355</ele>
        <time>2017-03-12T10:31:10Z</time>
      </trkpt>
      <trkpt lat="44.4825" lon="6.86662">
        <ele>2605.976</ele>
        <time>2017-03-12T10:31:25Z</time>
      </trkpt>
      <trkpt lat="44.48252" lon="6.86654">
        <ele>2607.531</ele>
        <time>2017-03-12T10:31:39Z</time>
      </trkpt>
      <trkpt lat="44.48254" lon="6.86654">
        <ele>2608.048</ele>
        <time>2017-03-12T10:31:50Z</time>
      </trkpt>
      <trkpt lat="44.48258" lon="6.86659">
        <ele>2609.913</ele>
        <time>2017-03-12T10:32:03Z</time>
      </trkpt>
      <trkpt lat="44.4826" lon="6.8666">
        <ele>2611.13</ele>
        <time>2017-03-12T10:32:14Z</time>
      </trkpt>
      <trkpt lat="44.48262" lon="6.86663">
        <ele>2611.405</ele>
        <time>2017-03-12T10:32:45Z</time>
      </trkpt>
      <trkpt lat="44.48263" lon="6.86656">
        <ele>2612.91</ele>
        <time>2017-03-12T10:33:03Z</time>
      </trkpt>
      <trkpt lat="44.48263" lon="6.86642">
        <ele>2615.983</ele>
        <time>2017-03-12T10:33:23Z</time>
      </trkpt>
      <trkpt lat="44.48264" lon="6.86632">
        <ele>2617.809</ele>
        <time>2017-03-12T10:33:38Z</time>
      </trkpt>
      <trkpt lat="44.48267" lon="6.86625">
        <ele>2619.566</ele>
        <time>2017-03-12T10:33:53Z</time>
      </trkpt>
      <trkpt lat="44.48272" lon="6.86616">
        <ele>2621.33</ele>
        <time>2017-03-12T10:34:11Z</time>
      </trkpt>
      <trkpt lat="44.48276" lon="6.86611">
        <ele>2623.417</ele>
        <time>2017-03-12T10:34:26Z</time>
      </trkpt>
      <trkpt lat="44.48279" lon="6.86608">
        <ele>2623.893</ele>
        <time>2017-03-12T10:34:55Z</time>
      </trkpt>
      <trkpt lat="44.48287" lon="6.86602">
        <ele>2626.221</ele>
        <time>2017-03-12T10:35:14Z</time>
      </trkpt>
      <trkpt lat="44.48295" lon="6.86596">
        <ele>2629.401</ele>
        <time>2017-03-12T10:35:33Z</time>
      </trkpt>
      <trkpt lat="44.48299" lon="6.86594">
        <ele>2629.844</ele>
        <time>2017-03-12T10:36:03Z</time>
      </trkpt>
      <trkpt lat="44.48307" lon="6.86596">
        <ele>2631.972</ele>
        <time>2017-03-12T10:36:17Z</time>
      </trkpt>
      <trkpt lat="44.48313" lon="6.86601">
        <ele>2634.287</ele>
        <time>2017-03-12T10:36:33Z</time>
      </trkpt>
      <trkpt lat="44.4832" lon="6.86609">
        <ele>2636.483</ele>
        <time>2017-03-12T10:36:52Z</time>
      </trkpt>
      <trkpt lat="44.48328" lon="6.86618">
        <ele>2637.573</ele>
        <time>2017-03-12T10:37:10Z</time>
      </trkpt>
      <trkpt lat="44.4833" lon="6.86617">
        <ele>2637.033</ele>
        <time>2017-03-12T10:37:54Z</time>
      </trkpt>
      <trkpt lat="44.48334" lon="6.86616">
        <ele>2636.83</ele>
        <time>2017-03-12T11:19:07Z</time>
      </trkpt>
      <trkpt lat="44.48335" lon="6.86619">
        <ele>2637.385</ele>
        <time>2017-03-12T11:25:35Z</time>
      </trkpt>
      <trkpt lat="44.48338" lon="6.86617">
        <ele>2637.604</ele>
        <time>2017-03-12T11:26:13Z</time>
      </trkpt>
      <trkpt lat="44.48348" lon="6.86606">
        <ele>2637.788</ele>
        <time>2017-03-12T11:26:29Z</time>
      </trkpt>
      <trkpt lat="44.48356" lon="6.866">
        <ele>2638.276</ele>
        <time>2017-03-12T11:26:41Z</time>
      </trkpt>
      <trkpt lat="44.48363" lon="6.86594">
        <ele>2639.244</ele>
        <time>2017-03-12T11:26:53Z</time>
      </trkpt>
      <trkpt lat="44.48371" lon="6.86584">
        <ele>2639.589</ele>
        <time>2017-03-12T11:27:07Z</time>
      </trkpt>
      <trkpt lat="44.48372" lon="6.8658">
        <ele>2640.426</ele>
        <time>2017-03-12T11:27:19Z</time>
      </trkpt>
      <trkpt lat="44.48372" lon="6.86577">
        <ele>2639.744</ele>
        <time>2017-03-12T11:35:17Z</time>
      </trkpt>
      <trkpt lat="44.48378" lon="6.86569">
        <ele>2640.652</ele>
        <time>2017-03-12T11:35:31Z</time>
      </trkpt>
      <trkpt lat="44.48389" lon="6.86564">
        <ele>2643.037</ele>
        <time>2017-03-12T11:35:49Z</time>
      </trkpt>
      <trkpt lat="44.48393" lon="6.86562">
        <ele>2643.514</ele>
        <time>2017-03-12T11:36:13Z</time>
      </trkpt>
      <trkpt lat="44.48402" lon="6.86556">
        <ele>2644.92</ele>
        <time>2017-03-12T11:36:27Z</time>
      </trkpt>
      <trkpt lat="44.48405" lon="6.86555">
        <ele>2645.411</ele>
        <time>2017-03-12T11:36:36Z</time>
      </trkpt>
      <trkpt lat="44.48413" lon="6.86552">
        <ele>2646.762</ele>
        <time>2017-03-12T11:36:49Z</time>
      </trkpt>
      <trkpt lat="44.48418" lon="6.86546">
        <ele>2648.442</ele>
        <time>2017-03-12T11:37:00Z</time>
      </trkpt>
      <trkpt lat="44.48424" lon="6.8654">
        <ele>2649.399</ele>
        <time>2017-03-12T11:37:11Z</time>
      </trkpt>
      <trkpt lat="44.48428" lon="6.86538">
        <ele>2651.562</ele>
        <time>2017-03-12T11:37:23Z</time>
      </trkpt>
      <trkpt lat="44.48424" lon="6.86532">
        <ele>2655.427</ele>
        <time>2017-03-12T11:37:58Z</time>
      </trkpt>
      <trkpt lat="44.48423" lon="6.86529">
        <ele>2656.722</ele>
        <time>2017-03-12T11:38:21Z</time>
      </trkpt>
      <trkpt lat="44.48421" lon="6.86524">
        <ele>2658.235</ele>
        <time>2017-03-12T11:38:32Z</time>
      </trkpt>
      <trkpt lat="44.48419" lon="6.8652">
        <ele>2659.776</ele>
        <time>2017-03-12T11:38:43Z</time>
      </trkpt>
      <trkpt lat="44.48418" lon="6.86512">
        <ele>2662.461</ele>
        <time>2017-03-12T11:38:56Z</time>
      </trkpt>
      <trkpt lat="44.48417" lon="6.86505">
        <ele>2663.559</ele>
        <time>2017-03-12T11:39:09Z</time>
      </trkpt>
      <trkpt lat="44.48416" lon="6.86502">
        <ele>2664.54</ele>
        <time>2017-03-12T11:39:21Z</time>
      </trkpt>
      <trkpt lat="44.48414" lon="6.86497">
        <ele>2665.083</ele>
        <time>2017-03-12T11:40:19Z</time>
      </trkpt>
      <trkpt lat="44.48413" lon="6.865">
        <ele>2665.739</ele>
        <time>2017-03-12T11:41:15Z</time>
      </trkpt>
      <trkpt lat="44.48409" lon="6.86496">
        <ele>2667.432</ele>
        <time>2017-03-12T11:42:13Z</time>
      </trkpt>
      <trkpt lat="44.48405" lon="6.86486">
        <ele>2669.909</ele>
        <time>2017-03-12T11:42:29Z</time>
      </trkpt>
      <trkpt lat="44.48401" lon="6.86481">
        <ele>2670.697</ele>
        <time>2017-03-12T11:42:39Z</time>
      </trkpt>
      <trkpt lat="44.48394" lon="6.86478">
        <ele>2673.335</ele>
        <time>2017-03-12T11:42:56Z</time>
      </trkpt>
      <trkpt lat="44.48399" lon="6.86473">
        <ele>2674.571</ele>
        <time>2017-03-12T11:43:37Z</time>
      </trkpt>
      <trkpt lat="44.48407" lon="6.86468">
        <ele>2677.206</ele>
        <time>2017-03-12T11:43:55Z</time>
      </trkpt>
      <trkpt lat="44.48403" lon="6.86464">
        <ele>2679.37</ele>
        <time>2017-03-12T11:45:06Z</time>
      </trkpt>
      <trkpt lat="44.48396" lon="6.86459">
        <ele>2681.82</ele>
        <time>2017-03-12T11:45:23Z</time>
      </trkpt>
      <trkpt lat="44.48384" lon="6.86455">
        <ele>2685.076</ele>
        <time>2017-03-12T11:45:45Z</time>
      </trkpt>
      <trkpt lat="44.48388" lon="6.86452">
        <ele>2686.323</ele>
        <time>2017-03-12T11:45:59Z</time>
      </trkpt>
      <trkpt lat="44.48392" lon="6.86447">
        <ele>2688.707</ele>
        <time>2017-03-12T11:46:08Z</time>
      </trkpt>
      <trkpt lat="44.48394" lon="6.86444">
        <ele>2689.713</ele>
        <time>2017-03-12T11:46:16Z</time>
      </trkpt>
      <trkpt lat="44.48402" lon="6.86441">
        <ele>2690.825</ele>
        <time>2017-03-12T11:46:27Z</time>
      </trkpt>
      <trkpt lat="44.48406" lon="6.86442">
        <ele>2691.681</ele>
        <time>2017-03-12T11:46:34Z</time>
      </trkpt>
      <trkpt lat="44.48411" lon="6.86443">
        <ele>2693.079</ele>
        <time>2017-03-12T11:46:45Z</time>
      </trkpt>
      <trkpt lat="44.48417" lon="6.86445">
        <ele>2694.526</ele>
        <time>2017-03-12T12:02:38Z</time>
      </trkpt>
      <trkpt lat="44.4842" lon="6.86443">
        <ele>2694.238</ele>
        <time>2017-03-12T12:10:05Z</time>
      </trkpt>
      <trkpt lat="44.48422" lon="6.86443">
        <ele>2693.346</ele>
        <time>2017-03-12T12:10:14Z</time>
      </trkpt>
      <trkpt lat="44.48423" lon="6.86441">
        <ele>2693.086</ele>
        <time>2017-03-12T12:10:25Z</time>
      </trkpt>
      <trkpt lat="44.48425" lon="6.86437">
        <ele>2692.561</ele>
        <time>2017-03-12T12:10:49Z</time>
      </trkpt>
      <trkpt lat="44.48426" lon="6.86435">
        <ele>2691.583</ele>
        <time>2017-03-12T12:10:58Z</time>
      </trkpt>
      <trkpt lat="44.48429" lon="6.86429">
        <ele>2690.414</ele>
        <time>2017-03-12T12:11:13Z</time>
      </trkpt>
      <trkpt lat="44.48426" lon="6.8642">
        <ele>2689.507</ele>
        <time>2017-03-12T12:12:08Z</time>
      </trkpt>
      <trkpt lat="44.48437" lon="6.86417">
        <ele>2684.406</ele>
        <time>2017-03-12T12:12:12Z</time>
      </trkpt>
      <trkpt lat="44.48439" lon="6.86419">
        <ele>2684.404</ele>
        <time>2017-03-12T12:12:13Z</time>
      </trkpt>
      <trkpt lat="44.48444" lon="6.86422">
        <ele>2683.376</ele>
        <time>2017-03-12T12:12:15Z</time>
      </trkpt>
      <trkpt lat="44.4845" lon="6.8642">
        <ele>2682.17</ele>
        <time>2017-03-12T12:12:18Z</time>
      </trkpt>
      <trkpt lat="44.48452" lon="6.86413">
        <ele>2680.577</ele>
        <time>2017-03-12T12:12:20Z</time>
      </trkpt>
      <trkpt lat="44.48453" lon="6.8641">
        <ele>2678.101</ele>
        <time>2017-03-12T12:12:21Z</time>
      </trkpt>
      <trkpt lat="44.48453" lon="6.86401">
        <ele>2676.851</ele>
        <time>2017-03-12T12:12:24Z</time>
      </trkpt>
      <trkpt lat="44.48457" lon="6.86403">
        <ele>2676.217</ele>
        <time>2017-03-12T12:12:25Z</time>
      </trkpt>
      <trkpt lat="44.48463" lon="6.86397">
        <ele>2670.632</ele>
        <time>2017-03-12T12:12:28Z</time>
      </trkpt>
      <trkpt lat="44.48468" lon="6.86388">
        <ele>2665.022</ele>
        <time>2017-03-12T12:12:34Z</time>
      </trkpt>
      <trkpt lat="44.4848" lon="6.86378">
        <ele>2660.433</ele>
        <time>2017-03-12T12:12:38Z</time>
      </trkpt>
      <trkpt lat="44.48484" lon="6.86369">
        <ele>2657.014</ele>
        <time>2017-03-12T12:12:42Z</time>
      </trkpt>
      <trkpt lat="44.48492" lon="6.86359">
        <ele>2657.019</ele>
        <time>2017-03-12T12:12:43Z</time>
      </trkpt>
      <trkpt lat="44.48499" lon="6.8636">
        <ele>2655.534</ele>
        <time>2017-03-12T12:12:45Z</time>
      </trkpt>
      <trkpt lat="44.48505" lon="6.86352">
        <ele>2653.355</ele>
        <time>2017-03-12T12:12:47Z</time>
      </trkpt>
      <trkpt lat="44.48506" lon="6.86341">
        <ele>2647.595</ele>
        <time>2017-03-12T12:17:41Z</time>
      </trkpt>
      <trkpt lat="44.48537" lon="6.86328">
        <ele>2642.476</ele>
        <time>2017-03-12T12:17:45Z</time>
      </trkpt>
      <trkpt lat="44.4853" lon="6.86322">
        <ele>2642.479</ele>
        <time>2017-03-12T12:17:46Z</time>
      </trkpt>
      <trkpt lat="44.4856" lon="6.86304">
        <ele>2632.117</ele>
        <time>2017-03-12T12:17:54Z</time>
      </trkpt>
      <trkpt lat="44.4855" lon="6.86264">
        <ele>2632.121</ele>
        <time>2017-03-12T12:17:55Z</time>
      </trkpt>
      <trkpt lat="44.48559" lon="6.86263">
        <ele>2625.603</ele>
        <time>2017-03-12T12:17:58Z</time>
      </trkpt>
      <trkpt lat="44.4857" lon="6.86258">
        <ele>2620.025</ele>
        <time>2017-03-12T12:18:02Z</time>
      </trkpt>
      <trkpt lat="44.48574" lon="6.86249">
        <ele>2614.288</ele>
        <time>2017-03-12T12:18:51Z</time>
      </trkpt>
      <trkpt lat="44.48586" lon="6.8624">
        <ele>2608.261</ele>
        <time>2017-03-12T12:18:54Z</time>
      </trkpt>
      <trkpt lat="44.4859" lon="6.86224">
        <ele>2606.859</ele>
        <time>2017-03-12T12:18:56Z</time>
      </trkpt>
      <trkpt lat="44.48618" lon="6.86234">
        <ele>2604.523</ele>
        <time>2017-03-12T12:19:00Z</time>
      </trkpt>
      <trkpt lat="44.48623" lon="6.86229">
        <ele>2599.072</ele>
        <time>2017-03-12T12:19:02Z</time>
      </trkpt>
      <trkpt lat="44.48628" lon="6.86224">
        <ele>2599.084</ele>
        <time>2017-03-12T12:19:03Z</time>
      </trkpt>
      <trkpt lat="44.48637" lon="6.86216">
        <ele>2593.447</ele>
        <time>2017-03-12T12:19:20Z</time>
      </trkpt>
      <trkpt lat="44.48642" lon="6.86215">
        <ele>2591.981</ele>
        <time>2017-03-12T12:19:25Z</time>
      </trkpt>
      <trkpt lat="44.48648" lon="6.86214">
        <ele>2588.409</ele>
        <time>2017-03-12T12:19:29Z</time>
      </trkpt>
      <trkpt lat="44.48661" lon="6.86209">
        <ele>2583.866</ele>
        <time>2017-03-12T12:19:32Z</time>
      </trkpt>
      <trkpt lat="44.48665" lon="6.86207">
        <ele>2583.877</ele>
        <time>2017-03-12T12:19:33Z</time>
      </trkpt>
      <trkpt lat="44.48667" lon="6.86205">
        <ele>2580.935</ele>
        <time>2017-03-12T12:19:35Z</time>
      </trkpt>
      <trkpt lat="44.48672" lon="6.86202">
        <ele>2577.648</ele>
        <time>2017-03-12T12:19:36Z</time>
      </trkpt>
      <trkpt lat="44.48678" lon="6.86199">
        <ele>2577.659</ele>
        <time>2017-03-12T12:19:37Z</time>
      </trkpt>
      <trkpt lat="44.48683" lon="6.86195">
        <ele>2574.561</ele>
        <time>2017-03-12T12:19:38Z</time>
      </trkpt>
      <trkpt lat="44.48696" lon="6.86194">
        <ele>2572.106</ele>
        <time>2017-03-12T12:19:40Z</time>
      </trkpt>
      <trkpt lat="44.48719" lon="6.86159">
        <ele>2565.003</ele>
        <time>2017-03-12T12:22:11Z</time>
      </trkpt>
      <trkpt lat="44.4873" lon="6.86145">
        <ele>2561.944</ele>
        <time>2017-03-12T12:22:14Z</time>
      </trkpt>
      <trkpt lat="44.48734" lon="6.86141">
        <ele>2561.955</ele>
        <time>2017-03-12T12:22:15Z</time>
      </trkpt>
      <trkpt lat="44.48744" lon="6.8613">
        <ele>2560.841</ele>
        <time>2017-03-12T12:22:17Z</time>
      </trkpt>
      <trkpt lat="44.48759" lon="6.86109">
        <ele>2553.308</ele>
        <time>2017-03-12T12:22:24Z</time>
      </trkpt>
      <trkpt lat="44.4876" lon="6.86103">
        <ele>2549.697</ele>
        <time>2017-03-12T12:22:25Z</time>
      </trkpt>
      <trkpt lat="44.48764" lon="6.86093">
        <ele>2549.705</ele>
        <time>2017-03-12T12:22:26Z</time>
      </trkpt>
      <trkpt lat="44.48783" lon="6.86067">
        <ele>2543.617</ele>
        <time>2017-03-12T12:22:31Z</time>
      </trkpt>
      <trkpt lat="44.48791" lon="6.8606">
        <ele>2541.324</ele>
        <time>2017-03-12T12:22:33Z</time>
      </trkpt>
      <trkpt lat="44.48798" lon="6.86053">
        <ele>2537.284</ele>
        <time>2017-03-12T12:22:35Z</time>
      </trkpt>
      <trkpt lat="44.48809" lon="6.86027">
        <ele>2535.209</ele>
        <time>2017-03-12T12:22:37Z</time>
      </trkpt>
      <trkpt lat="44.4882" lon="6.85995">
        <ele>2532.769</ele>
        <time>2017-03-12T12:22:40Z</time>
      </trkpt>
      <trkpt lat="44.48823" lon="6.85985">
        <ele>2530.64</ele>
        <time>2017-03-12T12:22:41Z</time>
      </trkpt>
      <trkpt lat="44.48842" lon="6.85952">
        <ele>2528.379</ele>
        <time>2017-03-12T12:22:45Z</time>
      </trkpt>
      <trkpt lat="44.48853" lon="6.85959">
        <ele>2527.095</ele>
        <time>2017-03-12T12:22:49Z</time>
      </trkpt>
      <trkpt lat="44.48859" lon="6.85959">
        <ele>2527.031</ele>
        <time>2017-03-12T12:22:57Z</time>
      </trkpt>
      <trkpt lat="44.48863" lon="6.85958">
        <ele>2527.147</ele>
        <time>2017-03-12T12:25:01Z</time>
      </trkpt>
      <trkpt lat="44.48872" lon="6.85964">
        <ele>2525.56</ele>
        <time>2017-03-12T12:25:04Z</time>
      </trkpt>
      <trkpt lat="44.48877" lon="6.85968">
        <ele>2524.958</ele>
        <time>2017-03-12T12:25:06Z</time>
      </trkpt>
      <trkpt lat="44.48884" lon="6.85956">
        <ele>2521.06</ele>
        <time>2017-03-12T12:25:10Z</time>
      </trkpt>
      <trkpt lat="44.48884" lon="6.85946">
        <ele>2521.06</ele>
        <time>2017-03-12T12:25:11Z</time>
      </trkpt>
      <trkpt lat="44.48896" lon="6.85941">
        <ele>2514.585</ele>
        <time>2017-03-12T12:25:14Z</time>
      </trkpt>
      <trkpt lat="44.48898" lon="6.85937">
        <ele>2514.584</ele>
        <time>2017-03-12T12:25:15Z</time>
      </trkpt>
      <trkpt lat="44.48905" lon="6.85931">
        <ele>2511.2</ele>
        <time>2017-03-12T12:25:16Z</time>
      </trkpt>
      <trkpt lat="44.48921" lon="6.85918">
        <ele>2507.695</ele>
        <time>2017-03-12T12:25:18Z</time>
      </trkpt>
      <trkpt lat="44.48931" lon="6.85905">
        <ele>2506.228</ele>
        <time>2017-03-12T12:25:20Z</time>
      </trkpt>
      <trkpt lat="44.48954" lon="6.85881">
        <ele>2504.013</ele>
        <time>2017-03-12T12:25:26Z</time>
      </trkpt>
      <trkpt lat="44.48977" lon="6.85861">
        <ele>2502.344</ele>
        <time>2017-03-12T12:25:33Z</time>
      </trkpt>
      <trkpt lat="44.48983" lon="6.85858">
        <ele>2502.345</ele>
        <time>2017-03-12T12:25:34Z</time>
      </trkpt>
      <trkpt lat="44.49018" lon="6.85851">
        <ele>2498.312</ele>
        <time>2017-03-12T12:25:40Z</time>
      </trkpt>
      <trkpt lat="44.49045" lon="6.85828">
        <ele>2496.13</ele>
        <time>2017-03-12T12:25:42Z</time>
      </trkpt>
      <trkpt lat="44.49044" lon="6.85802">
        <ele>2494.521</ele>
        <time>2017-03-12T12:25:45Z</time>
      </trkpt>
      <trkpt lat="44.49038" lon="6.8571">
        <ele>2491.527</ele>
        <time>2017-03-12T12:25:48Z</time>
      </trkpt>
      <trkpt lat="44.49049" lon="6.85704">
        <ele>2490.212</ele>
        <time>2017-03-12T12:25:50Z</time>
      </trkpt>
      <trkpt lat="44.49064" lon="6.85682">
        <ele>2486.488</ele>
        <time>2017-03-12T12:25:54Z</time>
      </trkpt>
      <trkpt lat="44.49067" lon="6.85677">
        <ele>2486.486</ele>
        <time>2017-03-12T12:25:55Z</time>
      </trkpt>
      <trkpt lat="44.49079" lon="6.85658">
        <ele>2485.135</ele>
        <time>2017-03-12T12:25:57Z</time>
      </trkpt>
      <trkpt lat="44.49083" lon="6.85654">
        <ele>2483.555</ele>
        <time>2017-03-12T12:25:58Z</time>
      </trkpt>
      <trkpt lat="44.49094" lon="6.85627">
        <ele>2480.526</ele>
        <time>2017-03-12T12:26:01Z</time>
      </trkpt>
      <trkpt lat="44.49119" lon="6.85591">
        <ele>2478.544</ele>
        <time>2017-03-12T12:26:08Z</time>
      </trkpt>
      <trkpt lat="44.49127" lon="6.85582">
        <ele>2478.593</ele>
        <time>2017-03-12T12:26:10Z</time>
      </trkpt>
      <trkpt lat="44.49144" lon="6.85562">
        <ele>2476.575</ele>
        <time>2017-03-12T12:26:14Z</time>
      </trkpt>
      <trkpt lat="44.49149" lon="6.85548">
        <ele>2475.638</ele>
        <time>2017-03-12T12:26:16Z</time>
      </trkpt>
      <trkpt lat="44.49167" lon="6.85512">
        <ele>2473.373</ele>
        <time>2017-03-12T12:26:22Z</time>
      </trkpt>
      <trkpt lat="44.49176" lon="6.85482">
        <ele>2471.819</ele>
        <time>2017-03-12T12:26:29Z</time>
      </trkpt>
      <trkpt lat="44.49193" lon="6.8546">
        <ele>2470.358</ele>
        <time>2017-03-12T12:26:37Z</time>
      </trkpt>
      <trkpt lat="44.49215" lon="6.85436">
        <ele>2468.631</ele>
        <time>2017-03-12T12:26:45Z</time>
      </trkpt>
      <trkpt lat="44.49238" lon="6.85406">
        <ele>2466.81</ele>
        <time>2017-03-12T12:26:55Z</time>
      </trkpt>
      <trkpt lat="44.49251" lon="6.85388">
        <ele>2465.813</ele>
        <time>2017-03-12T12:27:02Z</time>
      </trkpt>
      <trkpt lat="44.49257" lon="6.8538">
        <ele>2465.078</ele>
        <time>2017-03-12T12:27:04Z</time>
      </trkpt>
      <trkpt lat="44.49263" lon="6.85351">
        <ele>2463.03</ele>
        <time>2017-03-12T12:27:08Z</time>
      </trkpt>
      <trkpt lat="44.49281" lon="6.85304">
        <ele>2459.37</ele>
        <time>2017-03-12T12:27:15Z</time>
      </trkpt>
      <trkpt lat="44.49281" lon="6.85299">
        <ele>2459.364</ele>
        <time>2017-03-12T12:27:16Z</time>
      </trkpt>
      <trkpt lat="44.49282" lon="6.8528">
        <ele>2458.091</ele>
        <time>2017-03-12T12:27:22Z</time>
      </trkpt>
      <trkpt lat="44.49302" lon="6.85258">
        <ele>2455.77</ele>
        <time>2017-03-12T12:27:30Z</time>
      </trkpt>
      <trkpt lat="44.49315" lon="6.85238">
        <ele>2455.058</ele>
        <time>2017-03-12T12:27:34Z</time>
      </trkpt>
      <trkpt lat="44.49333" lon="6.85204">
        <ele>2452.34</ele>
        <time>2017-03-12T12:27:42Z</time>
      </trkpt>
      <trkpt lat="44.49353" lon="6.85166">
        <ele>2450.684</ele>
        <time>2017-03-12T12:27:52Z</time>
      </trkpt>
      <trkpt lat="44.49354" lon="6.85163">
        <ele>2450.611</ele>
        <time>2017-03-12T12:27:57Z</time>
      </trkpt>
      <trkpt lat="44.49414" lon="6.85084">
        <ele>2456.351</ele>
        <time>2017-03-12T12:43:54Z</time>
      </trkpt>
      <trkpt lat="44.49492" lon="6.85037">
        <ele>2462.176</ele>
        <time>2017-03-12T12:45:52Z</time>
      </trkpt>
      <trkpt lat="44.49581" lon="6.84999">
        <ele>2468.763</ele>
        <time>2017-03-12T12:47:59Z</time>
      </trkpt>
      <trkpt lat="44.49594" lon="6.84995">
        <ele>2468.98</ele>
        <time>2017-03-12T12:48:08Z</time>
      </trkpt>
      <trkpt lat="44.49608" lon="6.8499">
        <ele>2468.414</ele>
        <time>2017-03-12T12:48:21Z</time>
      </trkpt>
      <trkpt lat="44.49624" lon="6.84987">
        <ele>2468.966</ele>
        <time>2017-03-12T12:48:35Z</time>
      </trkpt>
      <trkpt lat="44.4963" lon="6.84985">
        <ele>2471.234</ele>
        <time>2017-03-12T12:48:44Z</time>
      </trkpt>
      <trkpt lat="44.49637" lon="6.84983">
        <ele>2470.983</ele>
        <time>2017-03-12T12:48:53Z</time>
      </trkpt>
      <trkpt lat="44.49646" lon="6.84982">
        <ele>2471.954</ele>
        <time>2017-03-12T12:49:01Z</time>
      </trkpt>
      <trkpt lat="44.49655" lon="6.84978">
        <ele>2472.446</ele>
        <time>2017-03-12T12:49:11Z</time>
      </trkpt>
      <trkpt lat="44.49662" lon="6.84975">
        <ele>2473.507</ele>
        <time>2017-03-12T12:49:20Z</time>
      </trkpt>
      <trkpt lat="44.49667" lon="6.84975">
        <ele>2473.824</ele>
        <time>2017-03-12T12:49:27Z</time>
      </trkpt>
      <trkpt lat="44.49674" lon="6.84973">
        <ele>2475.322</ele>
        <time>2017-03-12T12:49:35Z</time>
      </trkpt>
      <trkpt lat="44.49681" lon="6.84969">
        <ele>2476.434</ele>
        <time>2017-03-12T12:49:45Z</time>
      </trkpt>
      <trkpt lat="44.49684" lon="6.84966">
        <ele>2477.064</ele>
        <time>2017-03-12T12:49:51Z</time>
      </trkpt>
      <trkpt lat="44.49691" lon="6.84961">
        <ele>2477.86</ele>
        <time>2017-03-12T12:50:01Z</time>
      </trkpt>
      <trkpt lat="44.49696" lon="6.84955">
        <ele>2478.697</ele>
        <time>2017-03-12T12:50:10Z</time>
      </trkpt>
      <trkpt lat="44.497" lon="6.84949">
        <ele>2479.688</ele>
        <time>2017-03-12T12:50:20Z</time>
      </trkpt>
      <trkpt lat="44.49701" lon="6.84945">
        <ele>2480.929</ele>
        <time>2017-03-12T12:50:27Z</time>
      </trkpt>
      <trkpt lat="44.49703" lon="6.84938">
        <ele>2481.85</ele>
        <time>2017-03-12T12:50:36Z</time>
      </trkpt>
      <trkpt lat="44.49705" lon="6.84934">
        <ele>2482.818</ele>
        <time>2017-03-12T12:50:44Z</time>
      </trkpt>
      <trkpt lat="44.49707" lon="6.8493">
        <ele>2484.159</ele>
        <time>2017-03-12T12:50:52Z</time>
      </trkpt>
      <trkpt lat="44.49711" lon="6.84926">
        <ele>2485.485</ele>
        <time>2017-03-12T12:51:01Z</time>
      </trkpt>
      <trkpt lat="44.49725" lon="6.84912">
        <ele>2487.879</ele>
        <time>2017-03-12T12:51:35Z</time>
      </trkpt>
      <trkpt lat="44.49738" lon="6.84901">
        <ele>2488.402</ele>
        <time>2017-03-12T12:51:54Z</time>
      </trkpt>
      <trkpt lat="44.49747" lon="6.84891">
        <ele>2488.156</ele>
        <time>2017-03-12T12:52:06Z</time>
      </trkpt>
      <trkpt lat="44.49758" lon="6.84883">
        <ele>2488.265</ele>
        <time>2017-03-12T12:52:20Z</time>
      </trkpt>
      <trkpt lat="44.49762" lon="6.84879">
        <ele>2488.428</ele>
        <time>2017-03-12T12:52:32Z</time>
      </trkpt>
      <trkpt lat="44.49769" lon="6.84875">
        <ele>2489.729</ele>
        <time>2017-03-12T12:52:59Z</time>
      </trkpt>
      <trkpt lat="44.49773" lon="6.84869">
        <ele>2490.341</ele>
        <time>2017-03-12T12:53:14Z</time>
      </trkpt>
      <trkpt lat="44.49779" lon="6.84862">
        <ele>2492.946</ele>
        <time>2017-03-12T12:53:31Z</time>
      </trkpt>
      <trkpt lat="44.49785" lon="6.8486">
        <ele>2493.984</ele>
        <time>2017-03-12T12:53:41Z</time>
      </trkpt>
      <trkpt lat="44.4979" lon="6.84856">
        <ele>2495.132</ele>
        <time>2017-03-12T12:53:51Z</time>
      </trkpt>
      <trkpt lat="44.49794" lon="6.84857">
        <ele>2496.364</ele>
        <time>2017-03-12T12:53:59Z</time>
      </trkpt>
      <trkpt lat="44.49798" lon="6.84855">
        <ele>2497.074</ele>
        <time>2017-03-12T12:54:07Z</time>
      </trkpt>
      <trkpt lat="44.49802" lon="6.84852">
        <ele>2498.576</ele>
        <time>2017-03-12T12:54:14Z</time>
      </trkpt>
      <trkpt lat="44.49807" lon="6.84849">
        <ele>2499.29</ele>
        <time>2017-03-12T12:54:24Z</time>
      </trkpt>
      <trkpt lat="44.49813" lon="6.84846">
        <ele>2500.824</ele>
        <time>2017-03-12T12:54:34Z</time>
      </trkpt>
      <trkpt lat="44.49815" lon="6.84844">
        <ele>2501.589</ele>
        <time>2017-03-12T12:54:42Z</time>
      </trkpt>
      <trkpt lat="44.49819" lon="6.84841">
        <ele>2502.945</ele>
        <time>2017-03-12T12:55:27Z</time>
      </trkpt>
      <trkpt lat="44.49826" lon="6.84837">
        <ele>2505.323</ele>
        <time>2017-03-12T12:55:42Z</time>
      </trkpt>
      <trkpt lat="44.49835" lon="6.84828">
        <ele>2508.068</ele>
        <time>2017-03-12T12:56:01Z</time>
      </trkpt>
      <trkpt lat="44.4984" lon="6.84821">
        <ele>2510.671</ele>
        <time>2017-03-12T12:56:16Z</time>
      </trkpt>
      <trkpt lat="44.49844" lon="6.84817">
        <ele>2512.126</ele>
        <time>2017-03-12T12:56:26Z</time>
      </trkpt>
      <trkpt lat="44.49846" lon="6.84814">
        <ele>2513.516</ele>
        <time>2017-03-12T12:56:37Z</time>
      </trkpt>
      <trkpt lat="44.49848" lon="6.84818">
        <ele>2514.396</ele>
        <time>2017-03-12T12:57:11Z</time>
      </trkpt>
      <trkpt lat="44.49851" lon="6.84831">
        <ele>2517.116</ele>
        <time>2017-03-12T12:57:29Z</time>
      </trkpt>
      <trkpt lat="44.4985" lon="6.8484">
        <ele>2520.144</ele>
        <time>2017-03-12T12:57:46Z</time>
      </trkpt>
      <trkpt lat="44.49852" lon="6.8484">
        <ele>2519.571</ele>
        <time>2017-03-12T12:57:54Z</time>
      </trkpt>
      <trkpt lat="44.49854" lon="6.84838">
        <ele>2520.943</ele>
        <time>2017-03-12T12:57:59Z</time>
      </trkpt>
      <trkpt lat="44.49859" lon="6.84836">
        <ele>2521.647</ele>
        <time>2017-03-12T12:58:08Z</time>
      </trkpt>
      <trkpt lat="44.49863" lon="6.84834">
        <ele>2523.622</ele>
        <time>2017-03-12T12:58:16Z</time>
      </trkpt>
      <trkpt lat="44.49865" lon="6.84832">
        <ele>2523.542</ele>
        <time>2017-03-12T12:58:21Z</time>
      </trkpt>
      <trkpt lat="44.49868" lon="6.8483">
        <ele>2525.323</ele>
        <time>2017-03-12T12:58:28Z</time>
      </trkpt>
      <trkpt lat="44.4987" lon="6.8483">
        <ele>2526.569</ele>
        <time>2017-03-12T12:58:40Z</time>
      </trkpt>
      <trkpt lat="44.49873" lon="6.84828">
        <ele>2527.269</ele>
        <time>2017-03-12T12:58:48Z</time>
      </trkpt>
      <trkpt lat="44.49876" lon="6.84831">
        <ele>2529.546</ele>
        <time>2017-03-12T12:58:56Z</time>
      </trkpt>
      <trkpt lat="44.49878" lon="6.84834">
        <ele>2529.848</ele>
        <time>2017-03-12T12:59:07Z</time>
      </trkpt>
      <trkpt lat="44.49882" lon="6.84838">
        <ele>2531.281</ele>
        <time>2017-03-12T12:59:17Z</time>
      </trkpt>
      <trkpt lat="44.4989" lon="6.8484">
        <ele>2533.055</ele>
        <time>2017-03-12T12:59:32Z</time>
      </trkpt>
      <trkpt lat="44.49892" lon="6.84838">
        <ele>2533.887</ele>
        <time>2017-03-12T13:00:06Z</time>
      </trkpt>
      <trkpt lat="44.49895" lon="6.84837">
        <ele>2534.366</ele>
        <time>2017-03-12T13:05:22Z</time>
      </trkpt>
      <trkpt lat="44.49896" lon="6.84833">
        <ele>2533.799</ele>
        <time>2017-03-12T13:07:07Z</time>
      </trkpt>
      <trkpt lat="44.49903" lon="6.84829">
        <ele>2532.711</ele>
        <time>2017-03-12T13:07:47Z</time>
      </trkpt>
      <trkpt lat="44.49911" lon="6.84825">
        <ele>2531.266</ele>
        <time>2017-03-12T13:07:55Z</time>
      </trkpt>
      <trkpt lat="44.49925" lon="6.8481">
        <ele>2528.458</ele>
        <time>2017-03-12T13:07:59Z</time>
      </trkpt>
      <trkpt lat="44.49933" lon="6.84801">
        <ele>2526.828</ele>
        <time>2017-03-12T13:08:01Z</time>
      </trkpt>
      <trkpt lat="44.49939" lon="6.84794">
        <ele>2524.844</ele>
        <time>2017-03-12T13:08:03Z</time>
      </trkpt>
      <trkpt lat="44.49943" lon="6.84789">
        <ele>2523.023</ele>
        <time>2017-03-12T13:08:05Z</time>
      </trkpt>
      <trkpt lat="44.49951" lon="6.84778">
        <ele>2522.575</ele>
        <time>2017-03-12T13:08:16Z</time>
      </trkpt>
      <trkpt lat="44.49962" lon="6.84766">
        <ele>2522.736</ele>
        <time>2017-03-12T13:08:31Z</time>
      </trkpt>
      <trkpt lat="44.49968" lon="6.84761">
        <ele>2522.825</ele>
        <time>2017-03-12T13:08:39Z</time>
      </trkpt>
      <trkpt lat="44.49981" lon="6.84744">
        <ele>2522.841</ele>
        <time>2017-03-12T13:08:56Z</time>
      </trkpt>
      <trkpt lat="44.49988" lon="6.84729">
        <ele>2524.566</ele>
        <time>2017-03-12T13:09:13Z</time>
      </trkpt>
      <trkpt lat="44.49992" lon="6.84725">
        <ele>2524.499</ele>
        <time>2017-03-12T13:09:19Z</time>
      </trkpt>
      <trkpt lat="44.50003" lon="6.84714">
        <ele>2524.153</ele>
        <time>2017-03-12T13:09:32Z</time>
      </trkpt>
      <trkpt lat="44.50005" lon="6.8471">
        <ele>2525.085</ele>
        <time>2017-03-12T13:09:39Z</time>
      </trkpt>
      <trkpt lat="44.50008" lon="6.84703">
        <ele>2526.102</ele>
        <time>2017-03-12T13:09:50Z</time>
      </trkpt>
      <trkpt lat="44.50008" lon="6.84696">
        <ele>2526.428</ele>
        <time>2017-03-12T13:09:58Z</time>
      </trkpt>
      <trkpt lat="44.50009" lon="6.84687">
        <ele>2527.336</ele>
        <time>2017-03-12T13:10:10Z</time>
      </trkpt>
      <trkpt lat="44.50009" lon="6.84681">
        <ele>2527.712</ele>
        <time>2017-03-12T13:10:17Z</time>
      </trkpt>
      <trkpt lat="44.50012" lon="6.84666">
        <ele>2528.339</ele>
        <time>2017-03-12T13:10:30Z</time>
      </trkpt>
      <trkpt lat="44.50013" lon="6.84661">
        <ele>2529.15</ele>
        <time>2017-03-12T13:10:39Z</time>
      </trkpt>
      <trkpt lat="44.50012" lon="6.84658">
        <ele>2528.695</ele>
        <time>2017-03-12T13:11:13Z</time>
      </trkpt>
      <trkpt lat="44.50014" lon="6.84658">
        <ele>2528.244</ele>
        <time>2017-03-12T13:22:52Z</time>
      </trkpt>
      <trkpt lat="44.50017" lon="6.84654">
        <ele>2527.71</ele>
        <time>2017-03-12T13:23:17Z</time>
      </trkpt>
      <trkpt lat="44.50016" lon="6.84651">
        <ele>2528.301</ele>
        <time>2017-03-12T13:23:28Z</time>
      </trkpt>
      <trkpt lat="44.50021" lon="6.84634">
        <ele>2526.76</ele>
        <time>2017-03-12T13:25:15Z</time>
      </trkpt>
      <trkpt lat="44.50023" lon="6.84628">
        <ele>2526.758</ele>
        <time>2017-03-12T13:25:16Z</time>
      </trkpt>
      <trkpt lat="44.50045" lon="6.84606">
        <ele>2524.814</ele>
        <time>2017-03-12T13:25:24Z</time>
      </trkpt>
      <trkpt lat="44.50044" lon="6.84588">
        <ele>2523.738</ele>
        <time>2017-03-12T13:25:27Z</time>
      </trkpt>
      <trkpt lat="44.5005" lon="6.84568">
        <ele>2522.198</ele>
        <time>2017-03-12T13:25:30Z</time>
      </trkpt>
      <trkpt lat="44.50062" lon="6.84537">
        <ele>2519.753</ele>
        <time>2017-03-12T13:25:33Z</time>
      </trkpt>
      <trkpt lat="44.50079" lon="6.84509">
        <ele>2517.085</ele>
        <time>2017-03-12T13:25:37Z</time>
      </trkpt>
      <trkpt lat="44.50081" lon="6.84507">
        <ele>2516.78</ele>
        <time>2017-03-12T13:25:41Z</time>
      </trkpt>
      <trkpt lat="44.50085" lon="6.84498">
        <ele>2516.119</ele>
        <time>2017-03-12T13:26:16Z</time>
      </trkpt>
      <trkpt lat="44.501" lon="6.84459">
        <ele>2513.124</ele>
        <time>2017-03-12T13:26:20Z</time>
      </trkpt>
      <trkpt lat="44.50115" lon="6.84447">
        <ele>2511.632</ele>
        <time>2017-03-12T13:26:24Z</time>
      </trkpt>
      <trkpt lat="44.50139" lon="6.8443">
        <ele>2510.581</ele>
        <time>2017-03-12T13:26:31Z</time>
      </trkpt>
      <trkpt lat="44.5016" lon="6.8442">
        <ele>2509.232</ele>
        <time>2017-03-12T13:26:39Z</time>
      </trkpt>
      <trkpt lat="44.50166" lon="6.84416">
        <ele>2508.393</ele>
        <time>2017-03-12T13:26:48Z</time>
      </trkpt>
      <trkpt lat="44.5017" lon="6.84413">
        <ele>2507.931</ele>
        <time>2017-03-12T13:27:38Z</time>
      </trkpt>
      <trkpt lat="44.50184" lon="6.84383">
        <ele>2502.015</ele>
        <time>2017-03-12T13:27:56Z</time>
      </trkpt>
      <trkpt lat="44.50186" lon="6.84373">
        <ele>2501.368</ele>
        <time>2017-03-12T13:28:01Z</time>
      </trkpt>
      <trkpt lat="44.5011" lon="6.84338">
        <ele>2500.298</ele>
        <time>2017-03-12T13:28:16Z</time>
      </trkpt>
      <trkpt lat="44.50111" lon="6.84329">
        <ele>2499.299</ele>
        <time>2017-03-12T13:28:24Z</time>
      </trkpt>
      <trkpt lat="44.50111" lon="6.84312">
        <ele>2497.207</ele>
        <time>2017-03-12T13:28:30Z</time>
      </trkpt>
      <trkpt lat="44.50111" lon="6.843">
        <ele>2495.612</ele>
        <time>2017-03-12T13:28:37Z</time>
      </trkpt>
      <trkpt lat="44.50111" lon="6.84279">
        <ele>2494.275</ele>
        <time>2017-03-12T13:28:43Z</time>
      </trkpt>
      <trkpt lat="44.50106" lon="6.84248">
        <ele>2492.886</ele>
        <time>2017-03-12T13:28:53Z</time>
      </trkpt>
      <trkpt lat="44.501" lon="6.84235">
        <ele>2494.209</ele>
        <time>2017-03-12T13:29:15Z</time>
      </trkpt>
      <trkpt lat="44.50097" lon="6.84229">
        <ele>2493.164</ele>
        <time>2017-03-12T13:29:17Z</time>
      </trkpt>
      <trkpt lat="44.50086" lon="6.8421">
        <ele>2491.158</ele>
        <time>2017-03-12T13:29:21Z</time>
      </trkpt>
      <trkpt lat="44.50083" lon="6.84206">
        <ele>2491.181</ele>
        <time>2017-03-12T13:29:26Z</time>
      </trkpt>
      <trkpt lat="44.50077" lon="6.84203">
        <ele>2491.569</ele>
        <time>2017-03-12T13:29:34Z</time>
      </trkpt>
      <trkpt lat="44.50073" lon="6.84201">
        <ele>2490.902</ele>
        <time>2017-03-12T13:29:39Z</time>
      </trkpt>
      <trkpt lat="44.50052" lon="6.84148">
        <ele>2489.686</ele>
        <time>2017-03-12T13:29:47Z</time>
      </trkpt>
      <trkpt lat="44.50053" lon="6.84145">
        <ele>2488.741</ele>
        <time>2017-03-12T13:29:53Z</time>
      </trkpt>
      <trkpt lat="44.50055" lon="6.84141">
        <ele>2488.252</ele>
        <time>2017-03-12T13:30:02Z</time>
      </trkpt>
      <trkpt lat="44.50059" lon="6.84122">
        <ele>2487.329</ele>
        <time>2017-03-12T13:30:06Z</time>
      </trkpt>
      <trkpt lat="44.50052" lon="6.84114">
        <ele>2486.066</ele>
        <time>2017-03-12T13:30:08Z</time>
      </trkpt>
      <trkpt lat="44.50047" lon="6.84098">
        <ele>2484.724</ele>
        <time>2017-03-12T13:30:12Z</time>
      </trkpt>
      <trkpt lat="44.50059" lon="6.841">
        <ele>2480.865</ele>
        <time>2017-03-12T13:31:49Z</time>
      </trkpt>
      <trkpt lat="44.50064" lon="6.84102">
        <ele>2480.86</ele>
        <time>2017-03-12T13:31:50Z</time>
      </trkpt>
      <trkpt lat="44.50067" lon="6.84091">
        <ele>2477.915</ele>
        <time>2017-03-12T13:31:54Z</time>
      </trkpt>
      <trkpt lat="44.50068" lon="6.8408">
        <ele>2471.006</ele>
        <time>2017-03-12T13:31:57Z</time>
      </trkpt>
      <trkpt lat="44.50068" lon="6.84067">
        <ele>2468.437</ele>
        <time>2017-03-12T13:31:59Z</time>
      </trkpt>
      <trkpt lat="44.50069" lon="6.8405">
        <ele>2457.963</ele>
        <time>2017-03-12T13:32:06Z</time>
      </trkpt>
      <trkpt lat="44.5007" lon="6.84035">
        <ele>2447.352</ele>
        <time>2017-03-12T13:32:13Z</time>
      </trkpt>
      <trkpt lat="44.5007" lon="6.8403">
        <ele>2445.397</ele>
        <time>2017-03-12T13:32:14Z</time>
      </trkpt>
      <trkpt lat="44.50131" lon="6.84019">
        <ele>2443.736</ele>
        <time>2017-03-12T13:32:17Z</time>
      </trkpt>
      <trkpt lat="44.50134" lon="6.84024">
        <ele>2441.573</ele>
        <time>2017-03-12T13:32:18Z</time>
      </trkpt>
      <trkpt lat="44.50138" lon="6.84036">
        <ele>2439.701</ele>
        <time>2017-03-12T13:32:20Z</time>
      </trkpt>
      <trkpt lat="44.50148" lon="6.84037">
        <ele>2438.777</ele>
        <time>2017-03-12T13:32:24Z</time>
      </trkpt>
      <trkpt lat="44.50157" lon="6.84033">
        <ele>2433.127</ele>
        <time>2017-03-12T13:32:26Z</time>
      </trkpt>
      <trkpt lat="44.5016" lon="6.84032">
        <ele>2433.125</ele>
        <time>2017-03-12T13:32:27Z</time>
      </trkpt>
      <trkpt lat="44.50167" lon="6.84027">
        <ele>2430.256</ele>
        <time>2017-03-12T13:32:29Z</time>
      </trkpt>
      <trkpt lat="44.50172" lon="6.84031">
        <ele>2427.182</ele>
        <time>2017-03-12T13:32:30Z</time>
      </trkpt>
      <trkpt lat="44.50175" lon="6.84033">
        <ele>2427.181</ele>
        <time>2017-03-12T13:32:31Z</time>
      </trkpt>
      <trkpt lat="44.5018" lon="6.8403">
        <ele>2424.065</ele>
        <time>2017-03-12T13:32:32Z</time>
      </trkpt>
      <trkpt lat="44.50182" lon="6.84027">
        <ele>2420.727</ele>
        <time>2017-03-12T13:32:33Z</time>
      </trkpt>
      <trkpt lat="44.50187" lon="6.84028">
        <ele>2420.728</ele>
        <time>2017-03-12T13:32:34Z</time>
      </trkpt>
      <trkpt lat="44.50195" lon="6.84021">
        <ele>2414.573</ele>
        <time>2017-03-12T13:32:37Z</time>
      </trkpt>
      <trkpt lat="44.50201" lon="6.84027">
        <ele>2409.211</ele>
        <time>2017-03-12T13:32:44Z</time>
      </trkpt>
      <trkpt lat="44.50215" lon="6.84051">
        <ele>2406.86</ele>
        <time>2017-03-12T13:34:50Z</time>
      </trkpt>
      <trkpt lat="44.50226" lon="6.84073">
        <ele>2405.315</ele>
        <time>2017-03-12T13:35:00Z</time>
      </trkpt>
      <trkpt lat="44.50229" lon="6.84081">
        <ele>2404.353</ele>
        <time>2017-03-12T13:35:02Z</time>
      </trkpt>
      <trkpt lat="44.50242" lon="6.84106">
        <ele>2402.44</ele>
        <time>2017-03-12T13:35:08Z</time>
      </trkpt>
      <trkpt lat="44.50256" lon="6.8413">
        <ele>2400.739</ele>
        <time>2017-03-12T13:35:17Z</time>
      </trkpt>
      <trkpt lat="44.50272" lon="6.84151">
        <ele>2399.467</ele>
        <time>2017-03-12T13:35:26Z</time>
      </trkpt>
      <trkpt lat="44.50285" lon="6.84163">
        <ele>2398.404</ele>
        <time>2017-03-12T13:35:36Z</time>
      </trkpt>
      <trkpt lat="44.50289" lon="6.84166">
        <ele>2398.139</ele>
        <time>2017-03-12T13:35:47Z</time>
      </trkpt>
      <trkpt lat="44.50294" lon="6.84169">
        <ele>2398.01</ele>
        <time>2017-03-12T13:36:09Z</time>
      </trkpt>
      <trkpt lat="44.50306" lon="6.84179">
        <ele>2397.111</ele>
        <time>2017-03-12T13:36:17Z</time>
      </trkpt>
      <trkpt lat="44.50309" lon="6.84179">
        <ele>2396.731</ele>
        <time>2017-03-12T13:36:33Z</time>
      </trkpt>
      <trkpt lat="44.50308" lon="6.84152">
        <ele>2395.497</ele>
        <time>2017-03-12T13:36:37Z</time>
      </trkpt>
      <trkpt lat="44.5031" lon="6.8415">
        <ele>2393.849</ele>
        <time>2017-03-12T13:36:38Z</time>
      </trkpt>
      <trkpt lat="44.50328" lon="6.8411">
        <ele>2389.544</ele>
        <time>2017-03-12T13:36:43Z</time>
      </trkpt>
      <trkpt lat="44.50342" lon="6.84091">
        <ele>2387.792</ele>
        <time>2017-03-12T13:36:46Z</time>
      </trkpt>
      <trkpt lat="44.50348" lon="6.84083">
        <ele>2386.25</ele>
        <time>2017-03-12T13:36:48Z</time>
      </trkpt>
      <trkpt lat="44.50351" lon="6.84075">
        <ele>2382.736</ele>
        <time>2017-03-12T13:36:50Z</time>
      </trkpt>
      <trkpt lat="44.50352" lon="6.84072">
        <ele>2382.732</ele>
        <time>2017-03-12T13:36:51Z</time>
      </trkpt>
      <trkpt lat="44.50362" lon="6.84056">
        <ele>2381.129</ele>
        <time>2017-03-12T13:36:53Z</time>
      </trkpt>
      <trkpt lat="44.50373" lon="6.84037">
        <ele>2378.653</ele>
        <time>2017-03-12T13:36:55Z</time>
      </trkpt>
      <trkpt lat="44.50381" lon="6.84023">
        <ele>2374.344</ele>
        <time>2017-03-12T13:36:57Z</time>
      </trkpt>
      <trkpt lat="44.50396" lon="6.84004">
        <ele>2374.339</ele>
        <time>2017-03-12T13:36:58Z</time>
      </trkpt>
      <trkpt lat="44.5042" lon="6.83976">
        <ele>2372.987</ele>
        <time>2017-03-12T13:37:00Z</time>
      </trkpt>
      <trkpt lat="44.50424" lon="6.83972">
        <ele>2372.051</ele>
        <time>2017-03-12T13:37:04Z</time>
      </trkpt>
      <trkpt lat="44.50472" lon="6.84016">
        <ele>2369.442</ele>
        <time>2017-03-12T13:37:12Z</time>
      </trkpt>
      <trkpt lat="44.5048" lon="6.84007">
        <ele>2367.656</ele>
        <time>2017-03-12T13:37:39Z</time>
      </trkpt>
      <trkpt lat="44.5048" lon="6.84002">
        <ele>2367.237</ele>
        <time>2017-03-12T13:37:40Z</time>
      </trkpt>
      <trkpt lat="44.50491" lon="6.83994">
        <ele>2364.595</ele>
        <time>2017-03-12T13:37:44Z</time>
      </trkpt>
      <trkpt lat="44.50503" lon="6.8399">
        <ele>2360.703</ele>
        <time>2017-03-12T13:37:47Z</time>
      </trkpt>
      <trkpt lat="44.50505" lon="6.83983">
        <ele>2360.697</ele>
        <time>2017-03-12T13:37:48Z</time>
      </trkpt>
      <trkpt lat="44.50516" lon="6.83966">
        <ele>2357.609</ele>
        <time>2017-03-12T13:37:51Z</time>
      </trkpt>
      <trkpt lat="44.50526" lon="6.83973">
        <ele>2356.193</ele>
        <time>2017-03-12T13:37:53Z</time>
      </trkpt>
      <trkpt lat="44.50532" lon="6.83977">
        <ele>2353.659</ele>
        <time>2017-03-12T13:37:54Z</time>
      </trkpt>
      <trkpt lat="44.50555" lon="6.83978">
        <ele>2349.323</ele>
        <time>2017-03-12T13:37:57Z</time>
      </trkpt>
      <trkpt lat="44.50563" lon="6.83977">
        <ele>2349.317</ele>
        <time>2017-03-12T13:37:58Z</time>
      </trkpt>
      <trkpt lat="44.5059" lon="6.83968">
        <ele>2347.736</ele>
        <time>2017-03-12T13:38:03Z</time>
      </trkpt>
      <trkpt lat="44.50601" lon="6.8396">
        <ele>2347.847</ele>
        <time>2017-03-12T13:38:08Z</time>
      </trkpt>
      <trkpt lat="44.50604" lon="6.8396">
        <ele>2348.181</ele>
        <time>2017-03-12T13:38:17Z</time>
      </trkpt>
      <trkpt lat="44.50606" lon="6.83959">
        <ele>2347.866</ele>
        <time>2017-03-12T13:38:27Z</time>
      </trkpt>
      <trkpt lat="44.50609" lon="6.83956">
        <ele>2347.533</ele>
        <time>2017-03-12T13:38:29Z</time>
      </trkpt>
      <trkpt lat="44.5061" lon="6.83945">
        <ele>2344.854</ele>
        <time>2017-03-12T13:38:32Z</time>
      </trkpt>
      <trkpt lat="44.50609" lon="6.83942">
        <ele>2344.048</ele>
        <time>2017-03-12T13:38:33Z</time>
      </trkpt>
      <trkpt lat="44.50612" lon="6.83934">
        <ele>2342.25</ele>
        <time>2017-03-12T13:38:35Z</time>
      </trkpt>
      <trkpt lat="44.50613" lon="6.83929">
        <ele>2339.913</ele>
        <time>2017-03-12T13:38:36Z</time>
      </trkpt>
      <trkpt lat="44.50625" lon="6.83917">
        <ele>2337.077</ele>
        <time>2017-03-12T13:38:39Z</time>
      </trkpt>
      <trkpt lat="44.50629" lon="6.83913">
        <ele>2334.969</ele>
        <time>2017-03-12T13:38:40Z</time>
      </trkpt>
      <trkpt lat="44.50635" lon="6.83905">
        <ele>2334.271</ele>
        <time>2017-03-12T13:38:42Z</time>
      </trkpt>
      <trkpt lat="44.5064" lon="6.83893">
        <ele>2334.249</ele>
        <time>2017-03-12T13:38:46Z</time>
      </trkpt>
      <trkpt lat="44.50643" lon="6.83891">
        <ele>2332.67</ele>
        <time>2017-03-12T13:38:51Z</time>
      </trkpt>
      <trkpt lat="44.50658" lon="6.83874">
        <ele>2331.897</ele>
        <time>2017-03-12T13:40:17Z</time>
      </trkpt>
      <trkpt lat="44.50674" lon="6.83853">
        <ele>2331.085</ele>
        <time>2017-03-12T13:40:24Z</time>
      </trkpt>
      <trkpt lat="44.50692" lon="6.83835">
        <ele>2330.186</ele>
        <time>2017-03-12T13:40:33Z</time>
      </trkpt>
      <trkpt lat="44.50713" lon="6.83829">
        <ele>2329.218</ele>
        <time>2017-03-12T13:40:40Z</time>
      </trkpt>
      <trkpt lat="44.5072" lon="6.8383">
        <ele>2328.961</ele>
        <time>2017-03-12T13:40:48Z</time>
      </trkpt>
      <trkpt lat="44.50737" lon="6.83832">
        <ele>2327.581</ele>
        <time>2017-03-12T13:40:55Z</time>
      </trkpt>
      <trkpt lat="44.50742" lon="6.83834">
        <ele>2327.576</ele>
        <time>2017-03-12T13:40:56Z</time>
      </trkpt>
      <trkpt lat="44.50767" lon="6.83832">
        <ele>2325.497</ele>
        <time>2017-03-12T13:41:02Z</time>
      </trkpt>
      <trkpt lat="44.5079" lon="6.83832">
        <ele>2324.731</ele>
        <time>2017-03-12T13:41:12Z</time>
      </trkpt>
      <trkpt lat="44.50802" lon="6.83841">
        <ele>2323.922</ele>
        <time>2017-03-12T13:41:21Z</time>
      </trkpt>
      <trkpt lat="44.50815" lon="6.83849">
        <ele>2322.885</ele>
        <time>2017-03-12T13:41:25Z</time>
      </trkpt>
      <trkpt lat="44.50837" lon="6.83849">
        <ele>2321.327</ele>
        <time>2017-03-12T13:41:31Z</time>
      </trkpt>
      <trkpt lat="44.50854" lon="6.83854">
        <ele>2320.718</ele>
        <time>2017-03-12T13:41:37Z</time>
      </trkpt>
      <trkpt lat="44.50857" lon="6.83856">
        <ele>2320.547</ele>
        <time>2017-03-12T13:41:44Z</time>
      </trkpt>
      <trkpt lat="44.50863" lon="6.83859">
        <ele>2319.464</ele>
        <time>2017-03-12T13:42:00Z</time>
      </trkpt>
      <trkpt lat="44.50876" lon="6.83867">
        <ele>2318.829</ele>
        <time>2017-03-12T13:42:04Z</time>
      </trkpt>
      <trkpt lat="44.50893" lon="6.83869">
        <ele>2317.079</ele>
        <time>2017-03-12T13:42:08Z</time>
      </trkpt>
      <trkpt lat="44.5091" lon="6.83862">
        <ele>2315.658</ele>
        <time>2017-03-12T13:42:14Z</time>
      </trkpt>
      <trkpt lat="44.50915" lon="6.83859">
        <ele>2315.652</ele>
        <time>2017-03-12T13:42:15Z</time>
      </trkpt>
      <trkpt lat="44.50942" lon="6.83836">
        <ele>2313.02</ele>
        <time>2017-03-12T13:42:20Z</time>
      </trkpt>
      <trkpt lat="44.5095" lon="6.83825">
        <ele>2312.356</ele>
        <time>2017-03-12T13:42:22Z</time>
      </trkpt>
      <trkpt lat="44.50961" lon="6.838">
        <ele>2311.411</ele>
        <time>2017-03-12T13:42:27Z</time>
      </trkpt>
      <trkpt lat="44.50965" lon="6.83773">
        <ele>2310.285</ele>
        <time>2017-03-12T13:42:34Z</time>
      </trkpt>
      <trkpt lat="44.50971" lon="6.83742">
        <ele>2309.502</ele>
        <time>2017-03-12T13:42:41Z</time>
      </trkpt>
      <trkpt lat="44.50976" lon="6.83719">
        <ele>2308.313</ele>
        <time>2017-03-12T13:42:47Z</time>
      </trkpt>
      <trkpt lat="44.50982" lon="6.83706">
        <ele>2306.279</ele>
        <time>2017-03-12T13:42:52Z</time>
      </trkpt>
      <trkpt lat="44.50978" lon="6.83698">
        <ele>2304.085</ele>
        <time>2017-03-12T13:43:00Z</time>
      </trkpt>
      <trkpt lat="44.50981" lon="6.8369">
        <ele>2303.179</ele>
        <time>2017-03-12T13:43:29Z</time>
      </trkpt>
      <trkpt lat="44.50979" lon="6.83682">
        <ele>2302.162</ele>
        <time>2017-03-12T13:44:08Z</time>
      </trkpt>
      <trkpt lat="44.50977" lon="6.83659">
        <ele>2301.839</ele>
        <time>2017-03-12T13:44:13Z</time>
      </trkpt>
      <trkpt lat="44.50979" lon="6.83629">
        <ele>2300.009</ele>
        <time>2017-03-12T13:44:19Z</time>
      </trkpt>
      <trkpt lat="44.50984" lon="6.836">
        <ele>2297.71</ele>
        <time>2017-03-12T13:44:24Z</time>
      </trkpt>
      <trkpt lat="44.5099" lon="6.83573">
        <ele>2297.572</ele>
        <time>2017-03-12T13:44:29Z</time>
      </trkpt>
      <trkpt lat="44.50998" lon="6.83551">
        <ele>2296.276</ele>
        <time>2017-03-12T13:44:33Z</time>
      </trkpt>
      <trkpt lat="44.51008" lon="6.83519">
        <ele>2295.114</ele>
        <time>2017-03-12T13:44:38Z</time>
      </trkpt>
      <trkpt lat="44.51025" lon="6.83493">
        <ele>2294.053</ele>
        <time>2017-03-12T13:44:44Z</time>
      </trkpt>
      <trkpt lat="44.5103" lon="6.8349">
        <ele>2294.048</ele>
        <time>2017-03-12T13:44:45Z</time>
      </trkpt>
      <trkpt lat="44.5107" lon="6.83461">
        <ele>2290.008</ele>
        <time>2017-03-12T13:44:53Z</time>
      </trkpt>
      <trkpt lat="44.51074" lon="6.83458">
        <ele>2289.788</ele>
        <time>2017-03-12T13:44:54Z</time>
      </trkpt>
      <trkpt lat="44.51114" lon="6.83422">
        <ele>2287.082</ele>
        <time>2017-03-12T13:45:05Z</time>
      </trkpt>
      <trkpt lat="44.51134" lon="6.83402">
        <ele>2285.927</ele>
        <time>2017-03-12T13:45:13Z</time>
      </trkpt>
      <trkpt lat="44.51141" lon="6.83392">
        <ele>2285.534</ele>
        <time>2017-03-12T13:45:16Z</time>
      </trkpt>
      <trkpt lat="44.51159" lon="6.83352">
        <ele>2283.139</ele>
        <time>2017-03-12T13:45:22Z</time>
      </trkpt>
      <trkpt lat="44.51174" lon="6.83317">
        <ele>2280.958</ele>
        <time>2017-03-12T13:45:28Z</time>
      </trkpt>
      <trkpt lat="44.51184" lon="6.8329">
        <ele>2279.469</ele>
        <time>2017-03-12T13:45:35Z</time>
      </trkpt>
      <trkpt lat="44.51193" lon="6.83266">
        <ele>2278.957</ele>
        <time>2017-03-12T13:45:41Z</time>
      </trkpt>
      <trkpt lat="44.51208" lon="6.83245">
        <ele>2276.761</ele>
        <time>2017-03-12T13:45:45Z</time>
      </trkpt>
      <trkpt lat="44.51259" lon="6.83257">
        <ele>2275.489</ele>
        <time>2017-03-12T13:45:47Z</time>
      </trkpt>
      <trkpt lat="44.51263" lon="6.83204">
        <ele>2272.436</ele>
        <time>2017-03-12T13:45:53Z</time>
      </trkpt>
      <trkpt lat="44.51268" lon="6.8318">
        <ele>2271.281</ele>
        <time>2017-03-12T13:45:55Z</time>
      </trkpt>
      <trkpt lat="44.51266" lon="6.83143">
        <ele>2270.099</ele>
        <time>2017-03-12T13:46:02Z</time>
      </trkpt>
      <trkpt lat="44.51272" lon="6.83131">
        <ele>2268.862</ele>
        <time>2017-03-12T13:46:04Z</time>
      </trkpt>
      <trkpt lat="44.51291" lon="6.83099">
        <ele>2266.68</ele>
        <time>2017-03-12T13:46:09Z</time>
      </trkpt>
      <trkpt lat="44.51311" lon="6.83062">
        <ele>2263.512</ele>
        <time>2017-03-12T13:46:15Z</time>
      </trkpt>
      <trkpt lat="44.51321" lon="6.83042">
        <ele>2262.244</ele>
        <time>2017-03-12T13:46:19Z</time>
      </trkpt>
      <trkpt lat="44.51332" lon="6.83023">
        <ele>2260.323</ele>
        <time>2017-03-12T13:46:23Z</time>
      </trkpt>
      <trkpt lat="44.5134" lon="6.83014">
        <ele>2258.849</ele>
        <time>2017-03-12T13:46:25Z</time>
      </trkpt>
      <trkpt lat="44.51346" lon="6.83007">
        <ele>2256.985</ele>
        <time>2017-03-12T13:46:26Z</time>
      </trkpt>
      <trkpt lat="44.5136" lon="6.82981">
        <ele>2254.923</ele>
        <time>2017-03-12T13:46:30Z</time>
      </trkpt>
      <trkpt lat="44.5137" lon="6.82975">
        <ele>2254.184</ele>
        <time>2017-03-12T13:46:32Z</time>
      </trkpt>
      <trkpt lat="44.51383" lon="6.82953">
        <ele>2252.293</ele>
        <time>2017-03-12T13:46:34Z</time>
      </trkpt>
      <trkpt lat="44.51394" lon="6.82924">
        <ele>2251.186</ele>
        <time>2017-03-12T13:46:38Z</time>
      </trkpt>
      <trkpt lat="44.51404" lon="6.82894">
        <ele>2250.265</ele>
        <time>2017-03-12T13:46:45Z</time>
      </trkpt>
      <trkpt lat="44.5141" lon="6.82884">
        <ele>2249.761</ele>
        <time>2017-03-12T13:46:48Z</time>
      </trkpt>
      <trkpt lat="44.51416" lon="6.82864">
        <ele>2247.229</ele>
        <time>2017-03-12T13:46:51Z</time>
      </trkpt>
      <trkpt lat="44.51419" lon="6.82842">
        <ele>2244.808</ele>
        <time>2017-03-12T13:46:53Z</time>
      </trkpt>
      <trkpt lat="44.51423" lon="6.82823">
        <ele>2241.886</ele>
        <time>2017-03-12T13:46:55Z</time>
      </trkpt>
      <trkpt lat="44.51426" lon="6.82807">
        <ele>2241.112</ele>
        <time>2017-03-12T13:46:57Z</time>
      </trkpt>
      <trkpt lat="44.51431" lon="6.82786">
        <ele>2239.336</ele>
        <time>2017-03-12T13:47:00Z</time>
      </trkpt>
      <trkpt lat="44.51434" lon="6.82768">
        <ele>2238.33</ele>
        <time>2017-03-12T13:47:03Z</time>
      </trkpt>
      <trkpt lat="44.51416" lon="6.82749">
        <ele>2235.673</ele>
        <time>2017-03-12T13:47:06Z</time>
      </trkpt>
      <trkpt lat="44.51441" lon="6.82742">
        <ele>2232.976</ele>
        <time>2017-03-12T13:47:09Z</time>
      </trkpt>
      <trkpt lat="44.51443" lon="6.82731">
        <ele>2230.462</ele>
        <time>2017-03-12T13:47:10Z</time>
      </trkpt>
      <trkpt lat="44.51446" lon="6.82699">
        <ele>2229.222</ele>
        <time>2017-03-12T13:47:13Z</time>
      </trkpt>
      <trkpt lat="44.51453" lon="6.82676">
        <ele>2225.833</ele>
        <time>2017-03-12T13:47:15Z</time>
      </trkpt>
      <trkpt lat="44.51456" lon="6.82669">
        <ele>2225.826</ele>
        <time>2017-03-12T13:47:16Z</time>
      </trkpt>
      <trkpt lat="44.51474" lon="6.82631">
        <ele>2221.916</ele>
        <time>2017-03-12T13:47:22Z</time>
      </trkpt>
      <trkpt lat="44.51476" lon="6.82625">
        <ele>2221.91</ele>
        <time>2017-03-12T13:47:23Z</time>
      </trkpt>
      <trkpt lat="44.51485" lon="6.82603">
        <ele>2220.193</ele>
        <time>2017-03-12T13:47:26Z</time>
      </trkpt>
      <trkpt lat="44.51495" lon="6.8258">
        <ele>2217.448</ele>
        <time>2017-03-12T13:47:30Z</time>
      </trkpt>
      <trkpt lat="44.51498" lon="6.82572">
        <ele>2217.757</ele>
        <time>2017-03-12T13:47:32Z</time>
      </trkpt>
      <trkpt lat="44.51507" lon="6.82553">
        <ele>2215.735</ele>
        <time>2017-03-12T13:47:38Z</time>
      </trkpt>
      <trkpt lat="44.51481" lon="6.82484">
        <ele>2213.529</ele>
        <time>2017-03-12T13:47:41Z</time>
      </trkpt>
      <trkpt lat="44.5149" lon="6.82471">
        <ele>2210.174</ele>
        <time>2017-03-12T13:47:43Z</time>
      </trkpt>
      <trkpt lat="44.51495" lon="6.82465">
        <ele>2210.168</ele>
        <time>2017-03-12T13:47:44Z</time>
      </trkpt>
      <trkpt lat="44.51503" lon="6.82451">
        <ele>2208.19</ele>
        <time>2017-03-12T13:47:46Z</time>
      </trkpt>
      <trkpt lat="44.51512" lon="6.82436">
        <ele>2206.645</ele>
        <time>2017-03-12T13:47:48Z</time>
      </trkpt>
      <trkpt lat="44.51518" lon="6.82424">
        <ele>2206.271</ele>
        <time>2017-03-12T13:47:50Z</time>
      </trkpt>
      <trkpt lat="44.51539" lon="6.82432">
        <ele>2204.818</ele>
        <time>2017-03-12T13:47:53Z</time>
      </trkpt>
      <trkpt lat="44.51534" lon="6.82411">
        <ele>2202.795</ele>
        <time>2017-03-12T13:47:56Z</time>
      </trkpt>
      <trkpt lat="44.51542" lon="6.82408">
        <ele>2199.562</ele>
        <time>2017-03-12T13:53:23Z</time>
      </trkpt>
      <trkpt lat="44.51546" lon="6.82397">
        <ele>2199.557</ele>
        <time>2017-03-12T13:53:24Z</time>
      </trkpt>
      <trkpt lat="44.51559" lon="6.82367">
        <ele>2196.122</ele>
        <time>2017-03-12T13:53:29Z</time>
      </trkpt>
      <trkpt lat="44.51562" lon="6.82359">
        <ele>2194.822</ele>
        <time>2017-03-12T13:53:30Z</time>
      </trkpt>
      <trkpt lat="44.51568" lon="6.82338">
        <ele>2193.452</ele>
        <time>2017-03-12T13:53:33Z</time>
      </trkpt>
      <trkpt lat="44.51578" lon="6.82307">
        <ele>2192.128</ele>
        <time>2017-03-12T13:53:35Z</time>
      </trkpt>
      <trkpt lat="44.51591" lon="6.82288">
        <ele>2188.654</ele>
        <time>2017-03-12T13:53:38Z</time>
      </trkpt>
      <trkpt lat="44.51596" lon="6.82283">
        <ele>2187.175</ele>
        <time>2017-03-12T13:53:39Z</time>
      </trkpt>
      <trkpt lat="44.51617" lon="6.82272">
        <ele>2185.426</ele>
        <time>2017-03-12T13:53:42Z</time>
      </trkpt>
      <trkpt lat="44.51622" lon="6.82267">
        <ele>2183.228</ele>
        <time>2017-03-12T13:53:43Z</time>
      </trkpt>
      <trkpt lat="44.51634" lon="6.8225">
        <ele>2181.135</ele>
        <time>2017-03-12T13:53:47Z</time>
      </trkpt>
      <trkpt lat="44.51645" lon="6.82232">
        <ele>2176.515</ele>
        <time>2017-03-12T13:53:51Z</time>
      </trkpt>
      <trkpt lat="44.51655" lon="6.8222">
        <ele>2174.392</ele>
        <time>2017-03-12T13:53:54Z</time>
      </trkpt>
      <trkpt lat="44.51658" lon="6.82215">
        <ele>2172.421</ele>
        <time>2017-03-12T13:53:56Z</time>
      </trkpt>
      <trkpt lat="44.51661" lon="6.82155">
        <ele>2169.458</ele>
        <time>2017-03-12T13:54:04Z</time>
      </trkpt>
      <trkpt lat="44.51671" lon="6.82144">
        <ele>2168.712</ele>
        <time>2017-03-12T13:54:06Z</time>
      </trkpt>
      <trkpt lat="44.51745" lon="6.8197">
        <ele>2128.069</ele>
        <time>2017-03-12T13:55:44Z</time>
      </trkpt>
      <trkpt lat="44.51755" lon="6.81954">
        <ele>2124.246</ele>
        <time>2017-03-12T13:55:49Z</time>
      </trkpt>
      <trkpt lat="44.51757" lon="6.81947">
        <ele>2124.237</ele>
        <time>2017-03-12T13:55:50Z</time>
      </trkpt>
      <trkpt lat="44.51772" lon="6.81925">
        <ele>2121.754</ele>
        <time>2017-03-12T13:55:53Z</time>
      </trkpt>
      <trkpt lat="44.51783" lon="6.81899">
        <ele>2117.278</ele>
        <time>2017-03-12T13:55:57Z</time>
      </trkpt>
      <trkpt lat="44.51788" lon="6.81886">
        <ele>2115.365</ele>
        <time>2017-03-12T13:55:59Z</time>
      </trkpt>
      <trkpt lat="44.51794" lon="6.81872">
        <ele>2114.467</ele>
        <time>2017-03-12T13:56:01Z</time>
      </trkpt>
      <trkpt lat="44.51802" lon="6.81853">
        <ele>2110.636</ele>
        <time>2017-03-12T13:56:04Z</time>
      </trkpt>
      <trkpt lat="44.51811" lon="6.81836">
        <ele>2108.461</ele>
        <time>2017-03-12T13:56:06Z</time>
      </trkpt>
      <trkpt lat="44.51825" lon="6.81813">
        <ele>2107.112</ele>
        <time>2017-03-12T13:56:08Z</time>
      </trkpt>
      <trkpt lat="44.51825" lon="6.81811">
        <ele>2099.81</ele>
        <time>2017-03-12T13:57:18Z</time>
      </trkpt>
      <trkpt lat="44.51825" lon="6.81805">
        <ele>2098.235</ele>
        <time>2017-03-12T13:57:20Z</time>
      </trkpt>
      <trkpt lat="44.51824" lon="6.81793">
        <ele>2095.965</ele>
        <time>2017-03-12T13:57:25Z</time>
      </trkpt>
      <trkpt lat="44.51832" lon="6.81787">
        <ele>2095.001</ele>
        <time>2017-03-12T13:57:27Z</time>
      </trkpt>
      <trkpt lat="44.51832" lon="6.81768">
        <ele>2094.128</ele>
        <time>2017-03-12T13:57:32Z</time>
      </trkpt>
      <trkpt lat="44.51839" lon="6.81759">
        <ele>2092.4</ele>
        <time>2017-03-12T13:57:34Z</time>
      </trkpt>
      <trkpt lat="44.51844" lon="6.81756">
        <ele>2091.237</ele>
        <time>2017-03-12T13:57:36Z</time>
      </trkpt>
      <trkpt lat="44.51849" lon="6.81755">
        <ele>2089.049</ele>
        <time>2017-03-12T13:57:38Z</time>
      </trkpt>
      <trkpt lat="44.51863" lon="6.81758">
        <ele>2086.735</ele>
        <time>2017-03-12T13:57:42Z</time>
      </trkpt>
      <trkpt lat="44.51873" lon="6.81738">
        <ele>2084.28</ele>
        <time>2017-03-12T13:57:47Z</time>
      </trkpt>
      <trkpt lat="44.51888" lon="6.81717">
        <ele>2082.733</ele>
        <time>2017-03-12T13:57:50Z</time>
      </trkpt>
      <trkpt lat="44.5189" lon="6.81717">
        <ele>2078.019</ele>
        <time>2017-03-12T13:57:52Z</time>
      </trkpt>
      <trkpt lat="44.51894" lon="6.81715">
        <ele>2077.785</ele>
        <time>2017-03-12T13:57:59Z</time>
      </trkpt>
      <trkpt lat="44.51898" lon="6.81713">
        <ele>2076.387</ele>
        <time>2017-03-12T13:58:01Z</time>
      </trkpt>
      <trkpt lat="44.51903" lon="6.81704">
        <ele>2074.988</ele>
        <time>2017-03-12T13:58:06Z</time>
      </trkpt>
      <trkpt lat="44.51902" lon="6.81696">
        <ele>2074.859</ele>
        <time>2017-03-12T13:58:26Z</time>
      </trkpt>
      <trkpt lat="44.51895" lon="6.81681">
        <ele>2073.759</ele>
        <time>2017-03-12T13:58:32Z</time>
      </trkpt>
      <trkpt lat="44.5189" lon="6.81672">
        <ele>2072.952</ele>
        <time>2017-03-12T13:58:34Z</time>
      </trkpt>
      <trkpt lat="44.51888" lon="6.81659">
        <ele>2070.974</ele>
        <time>2017-03-12T13:58:37Z</time>
      </trkpt>
      <trkpt lat="44.51891" lon="6.81655">
        <ele>2068.326</ele>
        <time>2017-03-12T13:58:39Z</time>
      </trkpt>
      <trkpt lat="44.51894" lon="6.81652">
        <ele>2067.093</ele>
        <time>2017-03-12T13:58:41Z</time>
      </trkpt>
      <trkpt lat="44.51898" lon="6.81649">
        <ele>2066.631</ele>
        <time>2017-03-12T13:58:43Z</time>
      </trkpt>
      <trkpt lat="44.51907" lon="6.81642">
        <ele>2062.937</ele>
        <time>2017-03-12T13:58:46Z</time>
      </trkpt>
      <trkpt lat="44.51913" lon="6.81641">
        <ele>2061.603</ele>
        <time>2017-03-12T13:58:47Z</time>
      </trkpt>
      <trkpt lat="44.51927" lon="6.81638">
        <ele>2059.708</ele>
        <time>2017-03-12T13:58:50Z</time>
      </trkpt>
      <trkpt lat="44.51947" lon="6.816">
        <ele>2057.231</ele>
        <time>2017-03-12T13:58:53Z</time>
      </trkpt>
      <trkpt lat="44.51943" lon="6.81593">
        <ele>2053.82</ele>
        <time>2017-03-12T13:58:56Z</time>
      </trkpt>
      <trkpt lat="44.51952" lon="6.81582">
        <ele>2051.42</ele>
        <time>2017-03-12T13:59:00Z</time>
      </trkpt>
      <trkpt lat="44.51962" lon="6.81561">
        <ele>2048.854</ele>
        <time>2017-03-12T13:59:05Z</time>
      </trkpt>
      <trkpt lat="44.51968" lon="6.81551">
        <ele>2047.338</ele>
        <time>2017-03-12T13:59:07Z</time>
      </trkpt>
      <trkpt lat="44.51956" lon="6.81528">
        <ele>2045.329</ele>
        <time>2017-03-12T13:59:09Z</time>
      </trkpt>
      <trkpt lat="44.51978" lon="6.81535">
        <ele>2041.516</ele>
        <time>2017-03-12T13:59:13Z</time>
      </trkpt>
      <trkpt lat="44.51979" lon="6.81533">
        <ele>2041.508</ele>
        <time>2017-03-12T13:59:14Z</time>
      </trkpt>
      <trkpt lat="44.51984" lon="6.81527">
        <ele>2039.685</ele>
        <time>2017-03-12T13:59:16Z</time>
      </trkpt>
      <trkpt lat="44.51987" lon="6.81521">
        <ele>2037.661</ele>
        <time>2017-03-12T13:59:17Z</time>
      </trkpt>
      <trkpt lat="44.51992" lon="6.81514">
        <ele>2036.277</ele>
        <time>2017-03-12T13:59:19Z</time>
      </trkpt>
      <trkpt lat="44.51998" lon="6.81508">
        <ele>2034.906</ele>
        <time>2017-03-12T13:59:21Z</time>
      </trkpt>
      <trkpt lat="44.52004" lon="6.81504">
        <ele>2033.566</ele>
        <time>2017-03-12T13:59:23Z</time>
      </trkpt>
      <trkpt lat="44.52014" lon="6.81496">
        <ele>2031.292</ele>
        <time>2017-03-12T13:59:25Z</time>
      </trkpt>
      <trkpt lat="44.52022" lon="6.81482">
        <ele>2029.708</ele>
        <time>2017-03-12T13:59:27Z</time>
      </trkpt>
      <trkpt lat="44.52031" lon="6.81464">
        <ele>2028.064</ele>
        <time>2017-03-12T13:59:33Z</time>
      </trkpt>
      <trkpt lat="44.5204" lon="6.81441">
        <ele>2027.268</ele>
        <time>2017-03-12T14:00:14Z</time>
      </trkpt>
      <trkpt lat="44.52047" lon="6.8142">
        <ele>2025.796</ele>
        <time>2017-03-12T14:00:22Z</time>
      </trkpt>
      <trkpt lat="44.52058" lon="6.81407">
        <ele>2024.828</ele>
        <time>2017-03-12T14:00:30Z</time>
      </trkpt>
      <trkpt lat="44.52063" lon="6.81401">
        <ele>2024.244</ele>
        <time>2017-03-12T14:00:33Z</time>
      </trkpt>
      <trkpt lat="44.52084" lon="6.81379">
        <ele>2023.017</ele>
        <time>2017-03-12T14:00:42Z</time>
      </trkpt>
      <trkpt lat="44.52087" lon="6.81377">
        <ele>2022.343</ele>
        <time>2017-03-12T14:00:43Z</time>
      </trkpt>
      <trkpt lat="44.52108" lon="6.81363">
        <ele>2020.841</ele>
        <time>2017-03-12T14:00:48Z</time>
      </trkpt>
      <trkpt lat="44.52112" lon="6.81361">
        <ele>2019.995</ele>
        <time>2017-03-12T14:00:49Z</time>
      </trkpt>
      <trkpt lat="44.52121" lon="6.81357">
        <ele>2018.7</ele>
        <time>2017-03-12T14:00:51Z</time>
      </trkpt>
      <trkpt lat="44.52146" lon="6.81342">
        <ele>2015.267</ele>
        <time>2017-03-12T14:00:56Z</time>
      </trkpt>
      <trkpt lat="44.52159" lon="6.81331">
        <ele>2013.33</ele>
        <time>2017-03-12T14:00:58Z</time>
      </trkpt>
      <trkpt lat="44.52168" lon="6.81321">
        <ele>2011.312</ele>
        <time>2017-03-12T14:01:00Z</time>
      </trkpt>
      <trkpt lat="44.52185" lon="6.8129">
        <ele>2006.635</ele>
        <time>2017-03-12T14:01:04Z</time>
      </trkpt>
      <trkpt lat="44.52186" lon="6.81288">
        <ele>2006.626</ele>
        <time>2017-03-12T14:01:05Z</time>
      </trkpt>
      <trkpt lat="44.52203" lon="6.81266">
        <ele>2003.641</ele>
        <time>2017-03-12T14:01:12Z</time>
      </trkpt>
      <trkpt lat="44.52212" lon="6.81251">
        <ele>2001.856</ele>
        <time>2017-03-12T14:01:19Z</time>
      </trkpt>
      <trkpt lat="44.52214" lon="6.81249">
        <ele>2001.119</ele>
        <time>2017-03-12T14:03:43Z</time>
      </trkpt>
      <trkpt lat="44.5222" lon="6.8124">
        <ele>2001.272</ele>
        <time>2017-03-12T14:03:46Z</time>
      </trkpt>
      <trkpt lat="44.52227" lon="6.81231">
        <ele>1999.124</ele>
        <time>2017-03-12T14:03:49Z</time>
      </trkpt>
      <trkpt lat="44.52238" lon="6.8122">
        <ele>1997.202</ele>
        <time>2017-03-12T14:03:52Z</time>
      </trkpt>
      <trkpt lat="44.52246" lon="6.81211">
        <ele>1994.759</ele>
        <time>2017-03-12T14:03:54Z</time>
      </trkpt>
      <trkpt lat="44.5225" lon="6.81206">
        <ele>1993.374</ele>
        <time>2017-03-12T14:03:55Z</time>
      </trkpt>
      <trkpt lat="44.52262" lon="6.8119">
        <ele>1991.657</ele>
        <time>2017-03-12T14:03:59Z</time>
      </trkpt>
      <trkpt lat="44.52267" lon="6.81183">
        <ele>1991.308</ele>
        <time>2017-03-12T14:04:01Z</time>
      </trkpt>
      <trkpt lat="44.52274" lon="6.81171">
        <ele>1988.815</ele>
        <time>2017-03-12T14:04:07Z</time>
      </trkpt>
      <trkpt lat="44.52277" lon="6.81168">
        <ele>1987.091</ele>
        <time>2017-03-12T14:04:16Z</time>
      </trkpt>
      <trkpt lat="44.52287" lon="6.81151">
        <ele>1984.666</ele>
        <time>2017-03-12T14:04:31Z</time>
      </trkpt>
      <trkpt lat="44.52292" lon="6.81142">
        <ele>1982.467</ele>
        <time>2017-03-12T14:04:34Z</time>
      </trkpt>
      <trkpt lat="44.52298" lon="6.81133">
        <ele>1980.386</ele>
        <time>2017-03-12T14:04:37Z</time>
      </trkpt>
      <trkpt lat="44.52309" lon="6.81113">
        <ele>1977.691</ele>
        <time>2017-03-12T14:04:42Z</time>
      </trkpt>
      <trkpt lat="44.52321" lon="6.81092">
        <ele>1974.119</ele>
        <time>2017-03-12T14:04:48Z</time>
      </trkpt>
      <trkpt lat="44.52322" lon="6.8109">
        <ele>1974.113</ele>
        <time>2017-03-12T14:04:49Z</time>
      </trkpt>
      <trkpt lat="44.52324" lon="6.81087">
        <ele>1971.729</ele>
        <time>2017-03-12T14:04:51Z</time>
      </trkpt>
      <trkpt lat="44.52332" lon="6.81073">
        <ele>1969.153</ele>
        <time>2017-03-12T14:04:55Z</time>
      </trkpt>
      <trkpt lat="44.52337" lon="6.81064">
        <ele>1966.54</ele>
        <time>2017-03-12T14:04:59Z</time>
      </trkpt>
      <trkpt lat="44.52341" lon="6.81057">
        <ele>1965.618</ele>
        <time>2017-03-12T14:05:58Z</time>
      </trkpt>
      <trkpt lat="44.52346" lon="6.81039">
        <ele>1960.396</ele>
        <time>2017-03-12T14:07:28Z</time>
      </trkpt>
      <trkpt lat="44.52354" lon="6.81014">
        <ele>1956.677</ele>
        <time>2017-03-12T14:07:33Z</time>
      </trkpt>
      <trkpt lat="44.52361" lon="6.80991">
        <ele>1954.361</ele>
        <time>2017-03-12T14:07:36Z</time>
      </trkpt>
      <trkpt lat="44.524" lon="6.80993">
        <ele>1952.238</ele>
        <time>2017-03-12T14:07:38Z</time>
      </trkpt>
      <trkpt lat="44.52403" lon="6.80981">
        <ele>1948.956</ele>
        <time>2017-03-12T14:07:40Z</time>
      </trkpt>
      <trkpt lat="44.52404" lon="6.80975">
        <ele>1948.948</ele>
        <time>2017-03-12T14:07:41Z</time>
      </trkpt>
      <trkpt lat="44.52408" lon="6.80964">
        <ele>1946.816</ele>
        <time>2017-03-12T14:07:43Z</time>
      </trkpt>
      <trkpt lat="44.52416" lon="6.80952">
        <ele>1944.72</ele>
        <time>2017-03-12T14:07:47Z</time>
      </trkpt>
      <trkpt lat="44.5243" lon="6.80931">
        <ele>1943.987</ele>
        <time>2017-03-12T14:07:58Z</time>
      </trkpt>
      <trkpt lat="44.52434" lon="6.80924">
        <ele>1942.849</ele>
        <time>2017-03-12T14:08:08Z</time>
      </trkpt>
      <trkpt lat="44.52443" lon="6.80899">
        <ele>1942.546</ele>
        <time>2017-03-12T14:08:30Z</time>
      </trkpt>
      <trkpt lat="44.52439" lon="6.80886">
        <ele>1940.404</ele>
        <time>2017-03-12T14:08:37Z</time>
      </trkpt>
      <trkpt lat="44.52403" lon="6.80856">
        <ele>1938.489</ele>
        <time>2017-03-12T14:08:44Z</time>
      </trkpt>
      <trkpt lat="44.52439" lon="6.80835">
        <ele>1937.452</ele>
        <time>2017-03-12T14:09:36Z</time>
      </trkpt>
      <trkpt lat="44.52453" lon="6.80827">
        <ele>1934.286</ele>
        <time>2017-03-12T14:09:39Z</time>
      </trkpt>
      <trkpt lat="44.52464" lon="6.80815">
        <ele>1932.435</ele>
        <time>2017-03-12T14:09:41Z</time>
      </trkpt>
      <trkpt lat="44.52473" lon="6.808">
        <ele>1930.038</ele>
        <time>2017-03-12T14:09:43Z</time>
      </trkpt>
      <trkpt lat="44.52481" lon="6.80788">
        <ele>1926.082</ele>
        <time>2017-03-12T14:09:45Z</time>
      </trkpt>
      <trkpt lat="44.52485" lon="6.80783">
        <ele>1926.074</ele>
        <time>2017-03-12T14:09:46Z</time>
      </trkpt>
      <trkpt lat="44.52489" lon="6.8078">
        <ele>1923.509</ele>
        <time>2017-03-12T14:09:47Z</time>
      </trkpt>
      <trkpt lat="44.52516" lon="6.80758">
        <ele>1920.488</ele>
        <time>2017-03-12T14:09:54Z</time>
      </trkpt>
      <trkpt lat="44.5253" lon="6.80732">
        <ele>1918.222</ele>
        <time>2017-03-12T14:10:00Z</time>
      </trkpt>
      <trkpt lat="44.52539" lon="6.80712">
        <ele>1918.755</ele>
        <time>2017-03-12T14:10:09Z</time>
      </trkpt>
      <trkpt lat="44.52545" lon="6.80696">
        <ele>1918.667</ele>
        <time>2017-03-12T14:10:17Z</time>
      </trkpt>
      <trkpt lat="44.52546" lon="6.8069">
        <ele>1918.697</ele>
        <time>2017-03-12T14:10:27Z</time>
      </trkpt>
      <trkpt lat="44.52551" lon="6.80673">
        <ele>1918.695</ele>
        <time>2017-03-12T14:10:36Z</time>
      </trkpt>
      <trkpt lat="44.52556" lon="6.8065">
        <ele>1918.502</ele>
        <time>2017-03-12T14:10:48Z</time>
      </trkpt>
      <trkpt lat="44.52563" lon="6.80598">
        <ele>1917.393</ele>
        <time>2017-03-12T14:14:21Z</time>
      </trkpt>
      <trkpt lat="44.52568" lon="6.80548">
        <ele>1917.059</ele>
        <time>2017-03-12T14:14:55Z</time>
      </trkpt>
      <trkpt lat="44.52575" lon="6.80525">
        <ele>1915.488</ele>
        <time>2017-03-12T14:15:08Z</time>
      </trkpt>
      <trkpt lat="44.52583" lon="6.80504">
        <ele>1912.978</ele>
        <time>2017-03-12T14:15:59Z</time>
      </trkpt>
      <trkpt lat="44.52586" lon="6.80498">
        <ele>1912.003</ele>
        <time>2017-03-12T14:16:01Z</time>
      </trkpt>
      <trkpt lat="44.52589" lon="6.80487">
        <ele>1909.195</ele>
        <time>2017-03-12T14:16:11Z</time>
      </trkpt>
      <trkpt lat="44.52596" lon="6.80463">
        <ele>1906.678</ele>
        <time>2017-03-12T14:16:33Z</time>
      </trkpt>
      <trkpt lat="44.52602" lon="6.80432">
        <ele>1904.433</ele>
        <time>2017-03-12T14:16:46Z</time>
      </trkpt>
      <trkpt lat="44.526" lon="6.80413">
        <ele>1904.099</ele>
        <time>2017-03-12T14:16:57Z</time>
      </trkpt>
      <trkpt lat="44.52598" lon="6.80394">
        <ele>1903.604</ele>
        <time>2017-03-12T14:17:10Z</time>
      </trkpt>
      <trkpt lat="44.52599" lon="6.80378">
        <ele>1904.256</ele>
        <time>2017-03-12T14:17:19Z</time>
      </trkpt>
      <trkpt lat="44.526" lon="6.80364">
        <ele>1904.324</ele>
        <time>2017-03-12T14:18:41Z</time>
      </trkpt>
      <trkpt lat="44.52598" lon="6.80345">
        <ele>1903.584</ele>
        <time>2017-03-12T14:18:52Z</time>
      </trkpt>
      <trkpt lat="44.52598" lon="6.80332">
        <ele>1901.685</ele>
        <time>2017-03-12T14:19:04Z</time>
      </trkpt>
      <trkpt lat="44.52596" lon="6.80295">
        <ele>1899.426</ele>
        <time>2017-03-12T14:20:47Z</time>
      </trkpt>
      <trkpt lat="44.52589" lon="6.80266">
        <ele>1899.411</ele>
        <time>2017-03-12T14:21:40Z</time>
      </trkpt>
      <trkpt lat="44.52587" lon="6.80257">
        <ele>1899.381</ele>
        <time>2017-03-12T14:21:51Z</time>
      </trkpt>
      <trkpt lat="44.52569" lon="6.802">
        <ele>1897.784</ele>
        <time>2017-03-12T14:24:01Z</time>
      </trkpt>
      <trkpt lat="44.52568" lon="6.80196">
        <ele>1897.778</ele>
        <time>2017-03-12T14:24:09Z</time>
      </trkpt>
      <trkpt lat="44.52565" lon="6.80184">
        <ele>1897.731</ele>
        <time>2017-03-12T14:24:16Z</time>
      </trkpt>
      <trkpt lat="44.52557" lon="6.80165">
        <ele>1896.11</ele>
        <time>2017-03-12T14:24:27Z</time>
      </trkpt>
      <trkpt lat="44.52557" lon="6.80163">
        <ele>1895.673</ele>
        <time>2017-03-12T14:24:29Z</time>
      </trkpt>
      <trkpt lat="44.52556" lon="6.80159">
        <ele>1895.452</ele>
        <time>2017-03-12T14:24:35Z</time>
      </trkpt>
      <trkpt lat="44.52549" lon="6.80124">
        <ele>1892.774</ele>
        <time>2017-03-12T14:24:55Z</time>
      </trkpt>
      <trkpt lat="44.52549" lon="6.8012">
        <ele>1891.767</ele>
        <time>2017-03-12T14:25:03Z</time>
      </trkpt>
      <trkpt lat="44.52549" lon="6.80089">
        <ele>1891.026</ele>
        <time>2017-03-12T14:25:17Z</time>
      </trkpt>
      <trkpt lat="44.5255" lon="6.80069">
        <ele>1890.524</ele>
        <time>2017-03-12T14:25:28Z</time>
      </trkpt>
      <trkpt lat="44.5255" lon="6.80061">
        <ele>1890.577</ele>
        <time>2017-03-12T14:25:32Z</time>
      </trkpt>
      <trkpt lat="44.52551" lon="6.80046">
        <ele>1890.906</ele>
        <time>2017-03-12T14:25:40Z</time>
      </trkpt>
      <trkpt lat="44.52551" lon="6.80018">
        <ele>1890.04</ele>
        <time>2017-03-12T14:25:56Z</time>
      </trkpt>
      <trkpt lat="44.52546" lon="6.79998">
        <ele>1890.325</ele>
        <time>2017-03-12T14:26:10Z</time>
      </trkpt>
      <trkpt lat="44.52539" lon="6.79975">
        <ele>1890.333</ele>
        <time>2017-03-12T14:26:25Z</time>
      </trkpt>
      <trkpt lat="44.52537" lon="6.79968">
        <ele>1890.704</ele>
        <time>2017-03-12T14:26:29Z</time>
      </trkpt>
      <trkpt lat="44.52534" lon="6.79952">
        <ele>1889.707</ele>
        <time>2017-03-12T14:26:43Z</time>
      </trkpt>
      <trkpt lat="44.52532" lon="6.79946">
        <ele>1889.875</ele>
        <time>2017-03-12T14:26:44Z</time>
      </trkpt>
      <trkpt lat="44.52532" lon="6.79942">
        <ele>1889.902</ele>
        <time>2017-03-12T14:26:51Z</time>
      </trkpt>
      <trkpt lat="44.5253" lon="6.79932">
        <ele>1890.128</ele>
        <time>2017-03-12T14:26:53Z</time>
      </trkpt>
      <trkpt lat="44.52526" lon="6.79915">
        <ele>1890.032</ele>
        <time>2017-03-12T14:27:03Z</time>
      </trkpt>
      <trkpt lat="44.52525" lon="6.79906">
        <ele>1890.182</ele>
        <time>2017-03-12T14:27:20Z</time>
      </trkpt>
      <trkpt lat="44.5252" lon="6.79883">
        <ele>1889.93</ele>
        <time>2017-03-12T14:27:26Z</time>
      </trkpt>
      <trkpt lat="44.5252" lon="6.79883">
        <ele>1889.765</ele>
        <time>2017-03-12T14:31:48Z</time>
      </trkpt>
    </trkseg>
  </trk>
</gpx>